Darstellungsparameter: Aktuell verwendete Einstellungen:
Skalierung der Graphiken ... ?
xyx+y,   Skalierungsfaktor:      Skalierung: Modus: x, Faktor: 1
Darstellungszeitraum ... ?
Vom - - bis: - -   Zeitraum: 01.07.2014 - 07.07.2014
Min/Max/Avg-Anzeige ... ?
Zeige MMA aktuell
Zeige MMA Monat
Zeige MMA alles
Zeige --A aktuell
Zeige --A Monat
Zeige --A alles
Keine MMA-Anzeige
MMA:
Keine MMA-Graphiken
MMA-Basis: 01.07.2014 - 07.07.2014
Quicknavigation für Darstellung... ?
Tage:      1T, 2T, 3T, 5T -1T -2T -3T -5T +1T +2T +3T +5T
Wochen: 1W, 2W, 3W -1W -2W -3W +1W +2W +3W
Monate: 1M, 3M, 6M -1M -3M -6M +1M +3M +6M
Jahre:    1J, 3J, 5J, 10J -1J -3J -5J -10J +1J +3J +5J +10J
Nutze für die Darstellung ... ?
Originaldaten oder Mittelwerte auf ...
Stundenbasis Tagesbasis Wochenbasis
Monatsbasis Jahresbasis      Datenbasis: Original-Daten
Darstellen als:
Statistik (Auto) Statistik J:M      Darstellung:
Zur Graphik,    zurück zur Übersicht aller Sensoren.
 
Tabellarische Datenbersicht: ?
 
Sensor: Nr:Datum:Temp:Abs-Feuchte:Windchill:Wind:
Aussen-T/F 1 01-07-2014 00:00:00 11.6 C 9.15 g/m*3 11.6 C 0 km/h
2 01-07-2014 00:05:00 11.4 C 9.03 g/m*3 11.4 C 0 km/h
3 01-07-2014 00:10:00 11.3 C 8.98 g/m*3 11.3 C 0 km/h
4 01-07-2014 00:15:00 11.3 C 9.08 g/m*3 11.3 C 0 km/h
5 01-07-2014 00:20:00 11.2 C 9.12 g/m*3 11.2 C 0 km/h
6 01-07-2014 00:25:00 11.2 C 9.12 g/m*3 11.2 C 0 km/h
7 01-07-2014 00:30:00 11.2 C 9.02 g/m*3 11.2 C 0 km/h
8 01-07-2014 00:35:00 11.1 C 8.86 g/m*3 11.1 C 1.6 km/h
9 01-07-2014 00:40:00 11.1 C 8.86 g/m*3 11.1 C 0 km/h
10 01-07-2014 00:45:00 10.9 C 8.75 g/m*3 10.9 C 0 km/h
11 01-07-2014 00:50:00 10.8 C 8.8 g/m*3 10.8 C 0 km/h
12 01-07-2014 00:55:00 10.7 C 8.74 g/m*3 10.7 C 0 km/h
13 01-07-2014 01:00:00 10.6 C 8.78 g/m*3 10.6 C 0 km/h
14 01-07-2014 01:05:00 10.5 C 8.73 g/m*3 10.5 C 0 km/h
15 01-07-2014 01:10:00 10.4 C 8.67 g/m*3 10.4 C 0 km/h
16 01-07-2014 01:15:00 10.4 C 8.67 g/m*3 10.4 C 0 km/h
17 01-07-2014 01:20:00 10.3 C 8.62 g/m*3 10.3 C 0 km/h
18 01-07-2014 01:25:00 10.3 C 8.62 g/m*3 10.3 C 0 km/h
19 01-07-2014 01:30:00 10.3 C 8.71 g/m*3 10.3 C 0 km/h
20 01-07-2014 01:35:00 10.2 C 8.66 g/m*3 10.2 C 0 km/h
21 01-07-2014 01:40:00 10.2 C 8.66 g/m*3 10.2 C 0 km/h
22 01-07-2014 01:45:00 10.2 C 8.66 g/m*3 10.2 C 0 km/h
23 01-07-2014 01:50:00 10.2 C 8.66 g/m*3 10.2 C 0 km/h
24 01-07-2014 01:55:00 10.1 C 8.7 g/m*3 10.1 C 0 km/h
25 01-07-2014 02:00:00 10.1 C 8.7 g/m*3 10.1 C 0 km/h
Sensor: Nr:Datum:Temp:Abs-Feuchte:Windchill:Wind:
Aussen-T/F 26 01-07-2014 02:05:00 10.1 C 8.61 g/m*3 10.1 C 1.6 km/h
27 01-07-2014 02:10:00 10 C 8.55 g/m*3 10 C 0 km/h
28 01-07-2014 02:15:00 9.9 C 8.5 g/m*3 9.9 C 0 km/h
29 01-07-2014 02:20:00 9.8 C 8.54 g/m*3 9.8 C 0 km/h
30 01-07-2014 02:25:00 9.8 C 8.54 g/m*3 9.8 C 0 km/h
31 01-07-2014 02:30:00 9.7 C 8.48 g/m*3 9.7 C 0 km/h
32 01-07-2014 02:35:00 9.7 C 8.48 g/m*3 9.7 C 1.6 km/h
33 01-07-2014 02:40:00 9.7 C 8.48 g/m*3 9.7 C 0 km/h
34 01-07-2014 02:45:00 9.7 C 8.57 g/m*3 9.7 C 0 km/h
35 01-07-2014 02:50:00 9.7 C 8.57 g/m*3 9.7 C 0 km/h
36 01-07-2014 02:55:00 9.7 C 8.57 g/m*3 9.7 C 0 km/h
37 01-07-2014 03:00:00 9.6 C 8.52 g/m*3 9.6 C 0 km/h
38 01-07-2014 03:05:00 9.6 C 8.52 g/m*3 9.6 C 1.6 km/h
39 01-07-2014 03:10:00 9.6 C 8.52 g/m*3 9.6 C 0 km/h
40 01-07-2014 03:15:00 9.5 C 8.47 g/m*3 9.5 C 0 km/h
41 01-07-2014 03:20:00 9.4 C 8.41 g/m*3 9.4 C 0 km/h
42 01-07-2014 03:25:00 9.4 C 8.41 g/m*3 9.4 C 0 km/h
43 01-07-2014 03:30:00 9.3 C 8.36 g/m*3 9.3 C 0 km/h
44 01-07-2014 03:35:00 9.3 C 8.36 g/m*3 9.3 C 0 km/h
45 01-07-2014 03:40:00 9.2 C 8.3 g/m*3 9.2 C 0 km/h
46 01-07-2014 03:45:00 9.2 C 8.3 g/m*3 9.2 C 0 km/h
47 01-07-2014 03:50:00 9.1 C 8.25 g/m*3 9.1 C 0 km/h
48 01-07-2014 03:55:00 9.1 C 8.25 g/m*3 9.1 C 0 km/h
49 01-07-2014 04:00:00 9 C 8.29 g/m*3 9 C 0 km/h
50 01-07-2014 04:05:00 9.1 C 8.34 g/m*3 9.1 C 0 km/h
Sensor: Nr:Datum:Temp:Abs-Feuchte:Windchill:Wind:
Aussen-T/F 51 01-07-2014 04:10:00 9.1 C 8.34 g/m*3 9.1 C 0 km/h
52 01-07-2014 04:15:00 9.1 C 8.34 g/m*3 9.1 C 0 km/h
53 01-07-2014 04:20:00 9 C 8.29 g/m*3 9 C 0 km/h
54 01-07-2014 04:25:00 9 C 8.29 g/m*3 9 C 0 km/h
55 01-07-2014 04:30:00 9 C 8.29 g/m*3 9 C 0 km/h
56 01-07-2014 04:35:00 8.9 C 8.23 g/m*3 8.9 C 0 km/h
57 01-07-2014 04:40:00 8.9 C 8.23 g/m*3 8.9 C 0 km/h
58 01-07-2014 04:45:00 8.8 C 8.18 g/m*3 8.8 C 0 km/h
59 01-07-2014 04:50:00 8.8 C 8.18 g/m*3 8.8 C 0 km/h
60 01-07-2014 04:55:00 8.8 C 8.18 g/m*3 8.8 C 0 km/h
61 01-07-2014 05:00:00 8.7 C 8.13 g/m*3 8.7 C 0 km/h
62 01-07-2014 05:05:00 8.7 C 8.22 g/m*3 8.7 C 0 km/h
63 01-07-2014 05:10:00 8.7 C 8.22 g/m*3 8.7 C 0 km/h
64 01-07-2014 05:15:00 8.7 C 8.22 g/m*3 8.7 C 0 km/h
65 01-07-2014 05:20:00 8.7 C 8.22 g/m*3 8.7 C 0 km/h
66 01-07-2014 05:25:00 8.8 C 8.27 g/m*3 8.8 C 0 km/h
67 01-07-2014 05:30:00 8.8 C 8.27 g/m*3 8.8 C 0 km/h
68 01-07-2014 05:35:00 8.8 C 8.27 g/m*3 8.8 C 0 km/h
69 01-07-2014 05:40:00 8.8 C 8.27 g/m*3 8.8 C 0 km/h
70 01-07-2014 05:45:00 8.8 C 8.27 g/m*3 8.8 C 0 km/h
71 01-07-2014 05:50:00 8.7 C 8.22 g/m*3 8.7 C 0 km/h
72 01-07-2014 05:55:00 8.7 C 8.22 g/m*3 8.7 C 0 km/h
73 01-07-2014 06:00:00 8.7 C 8.22 g/m*3 8.7 C 0 km/h
74 01-07-2014 06:05:00 8.7 C 8.22 g/m*3 8.7 C 0 km/h
75 01-07-2014 06:10:00 8.7 C 8.22 g/m*3 8.7 C 0 km/h
Sensor: Nr:Datum:Temp:Abs-Feuchte:Windchill:Wind:
Aussen-T/F 76 01-07-2014 06:15:00 8.7 C 8.22 g/m*3 8.7 C 0 km/h
77 01-07-2014 06:20:00 8.8 C 8.27 g/m*3 8.8 C 0 km/h
78 01-07-2014 06:25:00 8.8 C 8.27 g/m*3 8.8 C 0 km/h
79 01-07-2014 06:30:00 8.8 C 8.27 g/m*3 8.8 C 0 km/h
80 01-07-2014 06:35:00 8.8 C 8.27 g/m*3 8.8 C 0 km/h
81 01-07-2014 06:40:00 8.9 C 8.32 g/m*3 8.9 C 0 km/h
82 01-07-2014 06:45:00 8.9 C 8.32 g/m*3 8.9 C 0 km/h
83 01-07-2014 06:50:00 9.1 C 8.52 g/m*3 9.1 C 0 km/h
84 01-07-2014 06:55:00 9.2 C 8.57 g/m*3 9.2 C 0 km/h
85 01-07-2014 07:00:00 9.3 C 8.63 g/m*3 9.3 C 0 km/h
86 01-07-2014 07:05:00 9.4 C 8.68 g/m*3 9.4 C 0 km/h
87 01-07-2014 07:10:00 9.6 C 8.79 g/m*3 9.6 C 1.6 km/h
88 01-07-2014 07:15:00 9.7 C 8.85 g/m*3 9.7 C 0 km/h
89 01-07-2014 07:20:00 9.8 C 8.91 g/m*3 9.8 C 0 km/h
90 01-07-2014 07:25:00 9.8 C 8.91 g/m*3 9.8 C 1.6 km/h
91 01-07-2014 07:30:00 9.9 C 8.87 g/m*3 9.9 C 0 km/h
92 01-07-2014 07:35:00 10 C 8.93 g/m*3 10 C 0 km/h
93 01-07-2014 07:40:00 10 C 8.93 g/m*3 10 C 0 km/h
94 01-07-2014 07:45:00 10.1 C 8.98 g/m*3 10.1 C 0 km/h
95 01-07-2014 07:50:00 10.2 C 9.04 g/m*3 10.2 C 0 km/h
96 01-07-2014 07:55:00 10.3 C 9.1 g/m*3 10.3 C 0 km/h
97 01-07-2014 08:00:00 10.4 C 9.16 g/m*3 10.4 C 0 km/h
98 01-07-2014 08:05:00 10.8 C 9.39 g/m*3 10.8 C 0 km/h
99 01-07-2014 08:10:00 11.1 C 9.47 g/m*3 11.1 C 0 km/h
100 01-07-2014 08:15:00 11.4 C 9.55 g/m*3 11.4 C 0 km/h
Sensor: Nr:Datum:Temp:Abs-Feuchte:Windchill:Wind:
Aussen-T/F 101 01-07-2014 08:20:00 11.7 C 9.62 g/m*3 11.7 C 0 km/h
102 01-07-2014 08:25:00 11.9 C 9.64 g/m*3 11.9 C 0 km/h
103 01-07-2014 08:30:00 12.2 C 9.6 g/m*3 12.2 C 0 km/h
104 01-07-2014 08:35:00 12.4 C 9.83 g/m*3 12.4 C 0 km/h
105 01-07-2014 08:40:00 12.8 C 9.86 g/m*3 12.8 C 0 km/h
106 01-07-2014 08:45:00 13.1 C 9.93 g/m*3 13.1 C 0 km/h
107 01-07-2014 08:50:00 13.2 C 9.99 g/m*3 13.2 C 0 km/h
108 01-07-2014 08:55:00 13.6 C 10.12 g/m*3 13.6 C 0 km/h
109 01-07-2014 09:00:00 13.7 C 10.18 g/m*3 13.7 C 0 km/h
110 01-07-2014 09:05:00 14.1 C 10.32 g/m*3 14.1 C 0 km/h
111 01-07-2014 09:10:00 14.3 C 10.2 g/m*3 14.3 C 1.6 km/h
112 01-07-2014 09:15:00 14.6 C 10.14 g/m*3 14.6 C 0 km/h
113 01-07-2014 09:20:00 14.5 C 10.07 g/m*3 14.5 C 0 km/h
114 01-07-2014 09:25:00 14.5 C 10.32 g/m*3 14.5 C 0 km/h
115 01-07-2014 09:30:00 14.6 C 10.26 g/m*3 14.6 C 0 km/h
116 01-07-2014 09:35:00 14.5 C 10.07 g/m*3 14.5 C 3.2 km/h
117 01-07-2014 09:40:00 14.4 C 9.89 g/m*3 14.4 C 1.6 km/h
118 01-07-2014 09:45:00 14.4 C 9.77 g/m*3 14.4 C 1.6 km/h
119 01-07-2014 09:50:00 14.6 C 10.01 g/m*3 14.6 C 3.2 km/h
120 01-07-2014 09:55:00 15 C 9.87 g/m*3 15 C 3.2 km/h
121 01-07-2014 10:00:00 15.3 C 9.92 g/m*3 15.3 C 1.6 km/h
122 01-07-2014 10:05:00 15.8 C 9.96 g/m*3 15.8 C 3.2 km/h
123 01-07-2014 10:10:00 16 C 9.81 g/m*3 16 C 3.2 km/h
124 01-07-2014 10:15:00 16.3 C 9.99 g/m*3 16.3 C 3.2 km/h
125 01-07-2014 10:20:00 16.7 C 10.23 g/m*3 16.7 C 4.8 km/h
Sensor: Nr:Datum:Temp:Abs-Feuchte:Windchill:Wind:
Aussen-T/F 126 01-07-2014 10:25:00 16.9 C 10.07 g/m*3 16.9 C 4.8 km/h
127 01-07-2014 10:30:00 17.1 C 10.34 g/m*3 17.1 C 3.2 km/h
128 01-07-2014 10:35:00 17.3 C 10.46 g/m*3 17.3 C 3.2 km/h
129 01-07-2014 10:40:00 17.5 C 10.44 g/m*3 17.5 C 4.8 km/h
130 01-07-2014 10:45:00 17.7 C 10.11 g/m*3 17.7 C 1.6 km/h
131 01-07-2014 10:50:00 17.9 C 9.92 g/m*3 17.9 C 4.8 km/h
132 01-07-2014 10:55:00 18 C 9.98 g/m*3 18 C 3.2 km/h
133 01-07-2014 11:00:00 18.1 C 10.2 g/m*3 18.1 C 3.2 km/h
134 01-07-2014 11:05:00 18.2 C 10.1 g/m*3 18.2 C 4.8 km/h
135 01-07-2014 11:10:00 18.2 C 9.79 g/m*3 18.2 C 4.8 km/h
136 01-07-2014 11:15:00 18.4 C 10.54 g/m*3 18.4 C 1.6 km/h
137 01-07-2014 11:20:00 18.7 C 10.25 g/m*3 18.7 C 4.8 km/h
138 01-07-2014 11:25:00 18.9 C 10.04 g/m*3 18.9 C 9.7 km/h
139 01-07-2014 11:30:00 19.1 C 10.49 g/m*3 19.1 C 4.8 km/h
140 01-07-2014 11:35:00 19.2 C 10.22 g/m*3 19.2 C 4.8 km/h
141 01-07-2014 11:40:00 19.3 C 10.45 g/m*3 19.3 C 4.8 km/h
142 01-07-2014 11:45:00 19.4 C 10.18 g/m*3 19.4 C 8.1 km/h
143 01-07-2014 11:50:00 19.6 C 10.3 g/m*3 19.6 C 6.4 km/h
144 01-07-2014 11:55:00 19.7 C 10.53 g/m*3 19.7 C 4.8 km/h
145 01-07-2014 12:00:00 19.7 C 10.02 g/m*3 19.7 C 8.1 km/h
146 01-07-2014 12:05:00 19.7 C 9.85 g/m*3 19.7 C 6.4 km/h
147 01-07-2014 12:10:00 19.9 C 10.14 g/m*3 19.9 C 6.4 km/h
148 01-07-2014 12:15:00 20.1 C 10.6 g/m*3 20.1 C 4.8 km/h
149 01-07-2014 12:20:00 20.3 C 10.38 g/m*3 20.3 C 6.4 km/h
150 01-07-2014 12:25:00 20.3 C 10.02 g/m*3 20.3 C 12.9 km/h
Sensor: Nr:Datum:Temp:Abs-Feuchte:Windchill:Wind:
Aussen-T/F 151 01-07-2014 12:30:00 20.2 C 9.79 g/m*3 20.2 C 4.8 km/h
152 01-07-2014 12:35:00 20.3 C 10.2 g/m*3 20.3 C 6.4 km/h
153 01-07-2014 12:40:00 20.2 C 10.32 g/m*3 20.2 C 4.8 km/h
154 01-07-2014 12:45:00 20.4 C 10.08 g/m*3 20.4 C 9.7 km/h
155 01-07-2014 12:50:00 20.6 C 9.84 g/m*3 20.6 C 8.1 km/h
156 01-07-2014 12:55:00 20.7 C 9.36 g/m*3 20.7 C 9.7 km/h
157 01-07-2014 13:00:00 20.8 C 9.6 g/m*3 20.8 C 8.1 km/h
158 01-07-2014 13:05:00 21 C 9.89 g/m*3 21 C 6.4 km/h
159 01-07-2014 13:10:00 21.1 C 9.21 g/m*3 21.1 C 8.1 km/h
160 01-07-2014 13:15:00 21.3 C 9.88 g/m*3 21.3 C 8.1 km/h
161 01-07-2014 13:20:00 21.2 C 9.45 g/m*3 21.2 C 8.1 km/h
162 01-07-2014 13:25:00 20.7 C 9.18 g/m*3 20.7 C 11.3 km/h
163 01-07-2014 13:30:00 20.4 C 10.44 g/m*3 20.4 C 1.6 km/h
164 01-07-2014 13:35:00 20.2 C 10.14 g/m*3 20.2 C 4.8 km/h
165 01-07-2014 13:40:00 20.3 C 9.67 g/m*3 20.3 C 4.8 km/h
166 01-07-2014 13:45:00 21.1 C 9.77 g/m*3 21.1 C 6.4 km/h
167 01-07-2014 13:50:00 21.7 C 9.54 g/m*3 21.7 C 3.2 km/h
168 01-07-2014 13:55:00 21.7 C 9.54 g/m*3 21.7 C 6.4 km/h
169 01-07-2014 14:00:00 21.7 C 9.16 g/m*3 21.7 C 8.1 km/h
170 01-07-2014 14:05:00 21.5 C 8.86 g/m*3 21.5 C 6.4 km/h
171 01-07-2014 14:10:00 21.1 C 9.03 g/m*3 21.1 C 4.8 km/h
172 01-07-2014 14:15:00 20.9 C 9.47 g/m*3 20.9 C 8.1 km/h
173 01-07-2014 14:20:00 20.9 C 8.92 g/m*3 20.9 C 3.2 km/h
174 01-07-2014 14:25:00 21.3 C 9.51 g/m*3 21.3 C 8.1 km/h
175 01-07-2014 14:30:00 21.7 C 9.16 g/m*3 21.7 C 3.2 km/h
Sensor: Nr:Datum:Temp:Abs-Feuchte:Windchill:Wind:
Aussen-T/F 176 01-07-2014 14:35:00 22.1 C 9.37 g/m*3 22.1 C 11.3 km/h
177 01-07-2014 14:40:00 21.9 C 8.68 g/m*3 21.9 C 6.4 km/h
178 01-07-2014 14:45:00 21.4 C 9.56 g/m*3 21.4 C 3.2 km/h
179 01-07-2014 14:50:00 21.3 C 9.13 g/m*3 21.3 C 6.4 km/h
180 01-07-2014 14:55:00 21.7 C 9.35 g/m*3 21.7 C 8.1 km/h
181 01-07-2014 15:00:00 22.2 C 8.83 g/m*3 22.2 C 14.5 km/h
182 01-07-2014 15:05:00 22.6 C 9.04 g/m*3 22.6 C 4.8 km/h
183 01-07-2014 15:10:00 22.7 C 8.89 g/m*3 22.7 C 8.1 km/h
184 01-07-2014 15:15:00 22.9 C 8.79 g/m*3 22.9 C 11.3 km/h
185 01-07-2014 15:20:00 23.1 C 8.48 g/m*3 23.1 C 11.3 km/h
186 01-07-2014 15:25:00 22.7 C 8.49 g/m*3 22.7 C 8.1 km/h
187 01-07-2014 15:30:00 22.2 C 8.05 g/m*3 22.2 C 4.8 km/h
188 01-07-2014 15:35:00 21.9 C 7.72 g/m*3 21.9 C 4.8 km/h
189 01-07-2014 15:40:00 21.8 C 8.06 g/m*3 21.8 C 1.6 km/h
190 01-07-2014 15:45:00 22 C 8.93 g/m*3 22 C 6.4 km/h
191 01-07-2014 15:50:00 22.2 C 8.25 g/m*3 22.2 C 12.9 km/h
192 01-07-2014 15:55:00 22.1 C 8.39 g/m*3 22.1 C 11.3 km/h
193 01-07-2014 16:00:00 21.8 C 8.06 g/m*3 21.8 C 6.4 km/h
194 01-07-2014 16:05:00 21.6 C 8.53 g/m*3 21.6 C 6.4 km/h
195 01-07-2014 16:10:00 21.3 C 8.02 g/m*3 21.3 C 6.4 km/h
196 01-07-2014 16:15:00 21.2 C 8.34 g/m*3 21.2 C 8.1 km/h
197 01-07-2014 16:20:00 21.3 C 8.57 g/m*3 21.3 C 11.3 km/h
198 01-07-2014 16:25:00 21.6 C 8.16 g/m*3 21.6 C 6.4 km/h
199 01-07-2014 16:30:00 21.4 C 8.81 g/m*3 21.4 C 8.1 km/h
200 01-07-2014 16:35:00 21.2 C 8.52 g/m*3 21.2 C 4.8 km/h
Sensor: Nr:Datum:Temp:Abs-Feuchte:Windchill:Wind:
Aussen-T/F 201 01-07-2014 16:40:00 21.1 C 8.48 g/m*3 21.1 C 9.7 km/h
202 01-07-2014 16:45:00 21.1 C 8.29 g/m*3 21.1 C 6.4 km/h
203 01-07-2014 16:50:00 21.1 C 8.29 g/m*3 21.1 C 6.4 km/h
204 01-07-2014 16:55:00 21.1 C 8.48 g/m*3 21.1 C 9.7 km/h
205 01-07-2014 17:00:00 21.1 C 8.29 g/m*3 21.1 C 6.4 km/h
206 01-07-2014 17:05:00 20.9 C 8.2 g/m*3 20.9 C 8.1 km/h
207 01-07-2014 17:10:00 20.7 C 8.28 g/m*3 20.7 C 4.8 km/h
208 01-07-2014 17:15:00 20.5 C 8.01 g/m*3 20.5 C 8.1 km/h
209 01-07-2014 17:20:00 20.5 C 8.54 g/m*3 20.5 C 8.1 km/h
210 01-07-2014 17:25:00 20.6 C 8.23 g/m*3 20.6 C 9.7 km/h
211 01-07-2014 17:30:00 20.6 C 8.41 g/m*3 20.6 C 4.8 km/h
212 01-07-2014 17:35:00 20.6 C 8.23 g/m*3 20.6 C 6.4 km/h
213 01-07-2014 17:40:00 20.9 C 8.56 g/m*3 20.9 C 6.4 km/h
214 01-07-2014 17:45:00 21.2 C 8.15 g/m*3 21.2 C 9.7 km/h
215 01-07-2014 17:50:00 21.1 C 8.29 g/m*3 21.1 C 8.1 km/h
216 01-07-2014 17:55:00 20.9 C 8.56 g/m*3 20.9 C 4.8 km/h
217 01-07-2014 18:00:00 20.8 C 8.33 g/m*3 20.8 C 4.8 km/h
218 01-07-2014 18:05:00 20.7 C 8.28 g/m*3 20.7 C 4.8 km/h
219 01-07-2014 18:10:00 20.8 C 8.87 g/m*3 20.8 C 3.2 km/h
220 01-07-2014 18:15:00 20.8 C 8.51 g/m*3 20.8 C 3.2 km/h
221 01-07-2014 18:20:00 20.8 C 8.33 g/m*3 20.8 C 6.4 km/h
222 01-07-2014 18:25:00 20.6 C 8.59 g/m*3 20.6 C 4.8 km/h
223 01-07-2014 18:30:00 20.7 C 8.46 g/m*3 20.7 C 4.8 km/h
224 01-07-2014 18:35:00 20.7 C 8.46 g/m*3 20.7 C 9.7 km/h
225 01-07-2014 18:40:00 20.6 C 8.23 g/m*3 20.6 C 11.3 km/h
Sensor: Nr:Datum:Temp:Abs-Feuchte:Windchill:Wind:
Aussen-T/F 226 01-07-2014 18:45:00 20.6 C 8.59 g/m*3 20.6 C 4.8 km/h
227 01-07-2014 18:50:00 20.8 C 8.87 g/m*3 20.8 C 8.1 km/h
228 01-07-2014 18:55:00 21.2 C 8.34 g/m*3 21.2 C 8.1 km/h
229 01-07-2014 19:00:00 21.6 C 8.91 g/m*3 21.6 C 4.8 km/h
230 01-07-2014 19:05:00 21.8 C 8.63 g/m*3 21.8 C 6.4 km/h
231 01-07-2014 19:10:00 22.1 C 8.78 g/m*3 22.1 C 4.8 km/h
232 01-07-2014 19:15:00 22.2 C 8.83 g/m*3 22.2 C 9.7 km/h
233 01-07-2014 19:20:00 21.9 C 8.68 g/m*3 21.9 C 8.1 km/h
234 01-07-2014 19:25:00 21.7 C 8.39 g/m*3 21.7 C 8.1 km/h
235 01-07-2014 19:30:00 21.4 C 8.06 g/m*3 21.4 C 8.1 km/h
236 01-07-2014 19:35:00 21.3 C 8.2 g/m*3 21.3 C 9.7 km/h
237 01-07-2014 19:40:00 21.2 C 7.97 g/m*3 21.2 C 11.3 km/h
238 01-07-2014 19:45:00 21.2 C 8.15 g/m*3 21.2 C 9.7 km/h
239 01-07-2014 19:50:00 21.2 C 8.15 g/m*3 21.2 C 9.7 km/h
240 01-07-2014 19:55:00 21.1 C 8.11 g/m*3 21.1 C 11.3 km/h
241 01-07-2014 20:00:00 20.9 C 8.01 g/m*3 20.9 C 6.4 km/h
242 01-07-2014 20:05:00 20.9 C 8.38 g/m*3 20.9 C 9.7 km/h
243 01-07-2014 20:10:00 20.9 C 8.2 g/m*3 20.9 C 6.4 km/h
244 01-07-2014 20:15:00 20.8 C 8.15 g/m*3 20.8 C 6.4 km/h
245 01-07-2014 20:20:00 20.6 C 7.87 g/m*3 20.6 C 8.1 km/h
246 01-07-2014 20:25:00 20.6 C 8.23 g/m*3 20.6 C 4.8 km/h
247 01-07-2014 20:30:00 20.5 C 8.36 g/m*3 20.5 C 4.8 km/h
248 01-07-2014 20:35:00 20.5 C 8.19 g/m*3 20.5 C 6.4 km/h
249 01-07-2014 20:40:00 20.4 C 7.96 g/m*3 20.4 C 4.8 km/h
250 01-07-2014 20:45:00 20.3 C 8.27 g/m*3 20.3 C 4.8 km/h
Sensor: Nr:Datum:Temp:Abs-Feuchte:Windchill:Wind:
Aussen-T/F 251 01-07-2014 20:50:00 20.1 C 8.17 g/m*3 20.1 C 8.1 km/h
252 01-07-2014 20:55:00 20 C 8.12 g/m*3 20 C 6.4 km/h
253 01-07-2014 21:00:00 19.9 C 8.08 g/m*3 19.9 C 6.4 km/h
254 01-07-2014 21:05:00 19.7 C 8.15 g/m*3 19.7 C 6.4 km/h
255 01-07-2014 21:10:00 19.6 C 8.61 g/m*3 19.6 C 3.2 km/h
256 01-07-2014 21:15:00 19.3 C 8.29 g/m*3 19.3 C 3.2 km/h
257 01-07-2014 21:20:00 18.9 C 9.23 g/m*3 18.9 C 1.6 km/h
258 01-07-2014 21:25:00 18.3 C 9.07 g/m*3 18.3 C 1.6 km/h
259 01-07-2014 21:30:00 17.7 C 9.05 g/m*3 17.7 C 0 km/h
260 01-07-2014 21:35:00 17.3 C 8.84 g/m*3 17.3 C 3.2 km/h
261 01-07-2014 21:40:00 16.9 C 8.92 g/m*3 16.9 C 0 km/h
262 01-07-2014 21:45:00 16.5 C 8.85 g/m*3 16.5 C 0 km/h
263 01-07-2014 21:50:00 16.2 C 9.38 g/m*3 16.2 C 1.6 km/h
264 01-07-2014 21:55:00 16 C 9.54 g/m*3 16 C 0 km/h
265 01-07-2014 22:00:00 15.8 C 9.69 g/m*3 15.8 C 0 km/h
266 01-07-2014 22:05:00 15.5 C 9.39 g/m*3 15.5 C 1.6 km/h
267 01-07-2014 22:10:00 15.3 C 9.27 g/m*3 15.3 C 1.6 km/h
268 01-07-2014 22:15:00 15.1 C 9.16 g/m*3 15.1 C 3.2 km/h
269 01-07-2014 22:20:00 14.8 C 9.25 g/m*3 14.8 C 3.2 km/h
270 01-07-2014 22:25:00 14.7 C 9.07 g/m*3 14.7 C 0 km/h
271 01-07-2014 22:30:00 14.6 C 9.13 g/m*3 14.6 C 3.2 km/h
272 01-07-2014 22:35:00 14.4 C 9.02 g/m*3 14.4 C 1.6 km/h
273 01-07-2014 22:40:00 14.3 C 9.09 g/m*3 14.3 C 1.6 km/h
274 01-07-2014 22:45:00 14.2 C 9.28 g/m*3 14.2 C 0 km/h
275 01-07-2014 22:50:00 14.1 C 9.1 g/m*3 14.1 C 1.6 km/h
Sensor: Nr:Datum:Temp:Abs-Feuchte:Windchill:Wind:
Aussen-T/F 276 01-07-2014 22:55:00 14 C 9.05 g/m*3 14 C 1.6 km/h
277 01-07-2014 23:00:00 14 C 9.05 g/m*3 14 C 0 km/h
278 01-07-2014 23:05:00 14 C 8.93 g/m*3 14 C 1.6 km/h
279 01-07-2014 23:10:00 14 C 9.05 g/m*3 14 C 1.6 km/h
280 01-07-2014 23:15:00 13.9 C 8.99 g/m*3 13.9 C 0 km/h
281 01-07-2014 23:20:00 13.8 C 9.17 g/m*3 13.8 C 0 km/h
282 01-07-2014 23:25:00 13.7 C 9.12 g/m*3 13.7 C 0 km/h
283 01-07-2014 23:30:00 13.6 C 8.94 g/m*3 13.6 C 0 km/h
284 01-07-2014 23:35:00 13.4 C 8.83 g/m*3 13.4 C 0 km/h
285 01-07-2014 23:40:00 13.3 C 8.9 g/m*3 13.3 C 0 km/h
286 01-07-2014 23:45:00 13.3 C 9.01 g/m*3 13.3 C 0 km/h
287 01-07-2014 23:50:00 13.2 C 8.96 g/m*3 13.2 C 0 km/h
288 01-07-2014 23:55:00 13.1 C 8.79 g/m*3 13.1 C 0 km/h
289 02-07-2014 00:00:00 13 C 8.73 g/m*3 13 C 0 km/h
290 02-07-2014 00:05:00 13 C 8.73 g/m*3 13 C 0 km/h
291 02-07-2014 00:10:00 12.9 C 8.68 g/m*3 12.9 C 0 km/h
292 02-07-2014 00:15:00 12.8 C 8.85 g/m*3 12.8 C 0 km/h
293 02-07-2014 00:20:00 12.7 C 8.91 g/m*3 12.7 C 1.6 km/h
294 02-07-2014 00:25:00 12.6 C 8.74 g/m*3 12.6 C 0 km/h
295 02-07-2014 00:30:00 12.6 C 8.85 g/m*3 12.6 C 0 km/h
296 02-07-2014 00:35:00 12.3 C 8.69 g/m*3 12.3 C 0 km/h
297 02-07-2014 00:40:00 12.2 C 8.74 g/m*3 12.2 C 0 km/h
298 02-07-2014 00:45:00 12.1 C 8.79 g/m*3 12.1 C 0 km/h
299 02-07-2014 00:50:00 11.9 C 8.58 g/m*3 11.9 C 0 km/h
300 02-07-2014 00:55:00 11.8 C 8.63 g/m*3 11.8 C 0 km/h
Sensor: Nr:Datum:Temp:Abs-Feuchte:Windchill:Wind:
Aussen-T/F 301 02-07-2014 01:00:00 11.7 C 8.58 g/m*3 11.7 C 0 km/h
302 02-07-2014 01:05:00 11.5 C 8.47 g/m*3 11.5 C 0 km/h
303 02-07-2014 01:10:00 11.4 C 8.52 g/m*3 11.4 C 0 km/h
304 02-07-2014 01:15:00 11.3 C 8.47 g/m*3 11.3 C 0 km/h
305 02-07-2014 01:20:00 11.2 C 8.41 g/m*3 11.2 C 0 km/h
306 02-07-2014 01:25:00 11.1 C 8.46 g/m*3 11.1 C 0 km/h
307 02-07-2014 01:30:00 10.9 C 8.36 g/m*3 10.9 C 0 km/h
308 02-07-2014 01:35:00 10.8 C 8.4 g/m*3 10.8 C 0 km/h
309 02-07-2014 01:40:00 10.8 C 8.4 g/m*3 10.8 C 0 km/h
310 02-07-2014 01:45:00 10.7 C 8.35 g/m*3 10.7 C 0 km/h
311 02-07-2014 01:50:00 10.6 C 8.3 g/m*3 10.6 C 0 km/h
312 02-07-2014 01:55:00 10.6 C 8.3 g/m*3 10.6 C 0 km/h
313 02-07-2014 02:00:00 10.6 C 8.3 g/m*3 10.6 C 0 km/h
314 02-07-2014 02:05:00 10.6 C 8.3 g/m*3 10.6 C 0 km/h
315 02-07-2014 02:10:00 10.5 C 8.24 g/m*3 10.5 C 0 km/h
316 02-07-2014 02:15:00 10.5 C 8.34 g/m*3 10.5 C 0 km/h
317 02-07-2014 02:20:00 10.4 C 8.29 g/m*3 10.4 C 0 km/h
318 02-07-2014 02:25:00 10.3 C 8.24 g/m*3 10.3 C 0 km/h
319 02-07-2014 02:30:00 10.3 C 8.33 g/m*3 10.3 C 0 km/h
320 02-07-2014 02:35:00 10.2 C 8.18 g/m*3 10.2 C 0 km/h
321 02-07-2014 02:40:00 10.2 C 8.18 g/m*3 10.2 C 0 km/h
322 02-07-2014 02:45:00 10.1 C 8.13 g/m*3 10.1 C 0 km/h
323 02-07-2014 02:50:00 10.1 C 8.23 g/m*3 10.1 C 0 km/h
324 02-07-2014 02:55:00 9.9 C 8.12 g/m*3 9.9 C 0 km/h
325 02-07-2014 03:00:00 9.9 C 8.12 g/m*3 9.9 C 0 km/h
Sensor: Nr:Datum:Temp:Abs-Feuchte:Windchill:Wind:
Aussen-T/F 326 02-07-2014 03:05:00 9.8 C 8.16 g/m*3 9.8 C 0 km/h
327 02-07-2014 03:10:00 9.7 C 8.11 g/m*3 9.7 C 0 km/h
328 02-07-2014 03:15:00 9.7 C 8.2 g/m*3 9.7 C 0 km/h
329 02-07-2014 03:20:00 9.6 C 8.15 g/m*3 9.6 C 0 km/h
330 02-07-2014 03:25:00 9.6 C 8.15 g/m*3 9.6 C 0 km/h
331 02-07-2014 03:30:00 9.6 C 8.15 g/m*3 9.6 C 0 km/h
332 02-07-2014 03:35:00 9.5 C 8.1 g/m*3 9.5 C 0 km/h
333 02-07-2014 03:40:00 9.5 C 8.1 g/m*3 9.5 C 0 km/h
334 02-07-2014 03:45:00 9.5 C 8.1 g/m*3 9.5 C 0 km/h
335 02-07-2014 03:50:00 9.4 C 8.14 g/m*3 9.4 C 0 km/h
336 02-07-2014 03:55:00 9.3 C 8.09 g/m*3 9.3 C 0 km/h
337 02-07-2014 04:00:00 9.3 C 8.09 g/m*3 9.3 C 0 km/h
338 02-07-2014 04:05:00 9.3 C 8.18 g/m*3 9.3 C 0 km/h
339 02-07-2014 04:10:00 9.2 C 8.04 g/m*3 9.2 C 0 km/h
340 02-07-2014 04:15:00 9.2 C 8.13 g/m*3 9.2 C 0 km/h
341 02-07-2014 04:20:00 9.2 C 8.13 g/m*3 9.2 C 0 km/h
342 02-07-2014 04:25:00 9.1 C 8.07 g/m*3 9.1 C 0 km/h
343 02-07-2014 04:30:00 9.1 C 8.07 g/m*3 9.1 C 0 km/h
344 02-07-2014 04:35:00 9 C 8.02 g/m*3 9 C 0 km/h
345 02-07-2014 04:40:00 8.9 C 7.97 g/m*3 8.9 C 0 km/h
346 02-07-2014 04:45:00 8.9 C 8.06 g/m*3 8.9 C 0 km/h
347 02-07-2014 04:50:00 8.9 C 8.06 g/m*3 8.9 C 0 km/h
348 02-07-2014 04:55:00 8.8 C 8.01 g/m*3 8.8 C 0 km/h
349 02-07-2014 05:00:00 8.8 C 8.01 g/m*3 8.8 C 0 km/h
350 02-07-2014 05:05:00 8.8 C 8.01 g/m*3 8.8 C 0 km/h
Sensor: Nr:Datum:Temp:Abs-Feuchte:Windchill:Wind:
Aussen-T/F 351 02-07-2014 05:10:00 8.8 C 8.01 g/m*3 8.8 C 0 km/h
352 02-07-2014 05:15:00 8.7 C 7.96 g/m*3 8.7 C 0 km/h
353 02-07-2014 05:20:00 8.7 C 7.96 g/m*3 8.7 C 0 km/h
354 02-07-2014 05:25:00 8.7 C 7.96 g/m*3 8.7 C 0 km/h
355 02-07-2014 05:30:00 8.6 C 7.99 g/m*3 8.6 C 0 km/h
356 02-07-2014 05:35:00 8.6 C 7.99 g/m*3 8.6 C 0 km/h
357 02-07-2014 05:40:00 8.6 C 7.99 g/m*3 8.6 C 0 km/h
358 02-07-2014 05:45:00 8.6 C 7.99 g/m*3 8.6 C 0 km/h
359 02-07-2014 05:50:00 8.6 C 7.99 g/m*3 8.6 C 0 km/h
360 02-07-2014 05:55:00 8.6 C 7.99 g/m*3 8.6 C 0 km/h
361 02-07-2014 06:00:00 8.6 C 7.99 g/m*3 8.6 C 0 km/h
362 02-07-2014 06:05:00 8.6 C 7.99 g/m*3 8.6 C 0 km/h
363 02-07-2014 06:10:00 8.6 C 7.99 g/m*3 8.6 C 0 km/h
364 02-07-2014 06:15:00 8.6 C 7.99 g/m*3 8.6 C 0 km/h
365 02-07-2014 06:20:00 8.6 C 8.08 g/m*3 8.6 C 0 km/h
366 02-07-2014 06:25:00 8.6 C 8.08 g/m*3 8.6 C 0 km/h
367 02-07-2014 06:30:00 8.7 C 8.13 g/m*3 8.7 C 0 km/h
368 02-07-2014 06:35:00 8.7 C 8.13 g/m*3 8.7 C 0 km/h
369 02-07-2014 06:40:00 8.7 C 8.13 g/m*3 8.7 C 0 km/h
370 02-07-2014 06:45:00 8.8 C 8.18 g/m*3 8.8 C 0 km/h
371 02-07-2014 06:50:00 8.8 C 8.18 g/m*3 8.8 C 0 km/h
372 02-07-2014 06:55:00 8.9 C 8.23 g/m*3 8.9 C 0 km/h
373 02-07-2014 07:00:00 8.9 C 8.23 g/m*3 8.9 C 0 km/h
374 02-07-2014 07:05:00 9 C 8.29 g/m*3 9 C 0 km/h
375 02-07-2014 07:10:00 9.1 C 8.34 g/m*3 9.1 C 0 km/h
Sensor: Nr:Datum:Temp:Abs-Feuchte:Windchill:Wind:
Aussen-T/F 376 02-07-2014 07:15:00 9.2 C 8.39 g/m*3 9.2 C 0 km/h
377 02-07-2014 07:20:00 9.3 C 8.45 g/m*3 9.3 C 0 km/h
378 02-07-2014 07:25:00 9.3 C 8.45 g/m*3 9.3 C 0 km/h
379 02-07-2014 07:30:00 9.5 C 8.56 g/m*3 9.5 C 0 km/h
380 02-07-2014 07:35:00 9.6 C 8.52 g/m*3 9.6 C 1.6 km/h
381 02-07-2014 07:40:00 9.7 C 8.67 g/m*3 9.7 C 0 km/h
382 02-07-2014 07:45:00 9.8 C 8.63 g/m*3 9.8 C 0 km/h
383 02-07-2014 07:50:00 9.9 C 8.68 g/m*3 9.9 C 0 km/h
384 02-07-2014 07:55:00 10.1 C 8.79 g/m*3 10.1 C 0 km/h
385 02-07-2014 08:00:00 10.3 C 8.91 g/m*3 10.3 C 0 km/h
386 02-07-2014 08:05:00 10.7 C 9.13 g/m*3 10.7 C 0 km/h
387 02-07-2014 08:10:00 11.1 C 9.17 g/m*3 11.1 C 0 km/h
388 02-07-2014 08:15:00 11.5 C 9.3 g/m*3 11.5 C 0 km/h
389 02-07-2014 08:20:00 11.8 C 9.37 g/m*3 11.8 C 0 km/h
390 02-07-2014 08:25:00 12.1 C 9.44 g/m*3 12.1 C 0 km/h
391 02-07-2014 08:30:00 12.3 C 9.56 g/m*3 12.3 C 0 km/h
392 02-07-2014 08:35:00 12.8 C 9.74 g/m*3 12.8 C 0 km/h
393 02-07-2014 08:40:00 13.2 C 9.76 g/m*3 13.2 C 1.6 km/h
394 02-07-2014 08:45:00 13.6 C 9.89 g/m*3 13.6 C 3.2 km/h
395 02-07-2014 08:50:00 13.8 C 10.01 g/m*3 13.8 C 0 km/h
396 02-07-2014 08:55:00 14 C 9.89 g/m*3 14 C 0 km/h
397 02-07-2014 09:00:00 14.3 C 9.95 g/m*3 14.3 C 1.6 km/h
398 02-07-2014 09:05:00 14.4 C 9.89 g/m*3 14.4 C 0 km/h
399 02-07-2014 09:10:00 14.7 C 10.07 g/m*3 14.7 C 0 km/h
400 02-07-2014 09:15:00 14.7 C 9.95 g/m*3 14.7 C 0 km/h
Sensor: Nr:Datum:Temp:Abs-Feuchte:Windchill:Wind:
Aussen-T/F 401 02-07-2014 09:20:00 14.6 C 9.89 g/m*3 14.6 C 0 km/h
402 02-07-2014 09:25:00 14.4 C 9.52 g/m*3 14.4 C 1.6 km/h
403 02-07-2014 09:30:00 14.3 C 9.83 g/m*3 14.3 C 0 km/h
404 02-07-2014 09:35:00 14.3 C 9.83 g/m*3 14.3 C 1.6 km/h
405 02-07-2014 09:40:00 14.3 C 9.83 g/m*3 14.3 C 0 km/h
406 02-07-2014 09:45:00 14.4 C 9.89 g/m*3 14.4 C 3.2 km/h
407 02-07-2014 09:50:00 14.6 C 9.76 g/m*3 14.6 C 3.2 km/h
408 02-07-2014 09:55:00 14.9 C 10.2 g/m*3 14.9 C 1.6 km/h
409 02-07-2014 10:00:00 15.4 C 10.12 g/m*3 15.4 C 0 km/h
410 02-07-2014 10:05:00 15.9 C 10.02 g/m*3 15.9 C 4.8 km/h
411 02-07-2014 10:10:00 16.5 C 9.83 g/m*3 16.5 C 4.8 km/h
412 02-07-2014 10:15:00 16.9 C 9.78 g/m*3 16.9 C 3.2 km/h
413 02-07-2014 10:20:00 17.2 C 10.25 g/m*3 17.2 C 3.2 km/h
414 02-07-2014 10:25:00 17.5 C 10.44 g/m*3 17.5 C 1.6 km/h
415 02-07-2014 10:30:00 17.8 C 10.17 g/m*3 17.8 C 1.6 km/h
416 02-07-2014 10:35:00 18.2 C 10.26 g/m*3 18.2 C 3.2 km/h
417 02-07-2014 10:40:00 18.6 C 9.55 g/m*3 18.6 C 4.8 km/h
418 02-07-2014 10:45:00 18.9 C 10.04 g/m*3 18.9 C 4.8 km/h
419 02-07-2014 10:50:00 19.2 C 9.89 g/m*3 19.2 C 4.8 km/h
420 02-07-2014 10:55:00 19.4 C 10.01 g/m*3 19.4 C 4.8 km/h
421 02-07-2014 11:00:00 19.7 C 9.85 g/m*3 19.7 C 8.1 km/h
422 02-07-2014 11:05:00 19.8 C 9.57 g/m*3 19.8 C 6.4 km/h
423 02-07-2014 11:10:00 20 C 9.68 g/m*3 20 C 8.1 km/h
424 02-07-2014 11:15:00 20.1 C 10.08 g/m*3 20.1 C 3.2 km/h
425 02-07-2014 11:20:00 20.2 C 9.62 g/m*3 20.2 C 8.1 km/h
Sensor: Nr:Datum:Temp:Abs-Feuchte:Windchill:Wind:
Aussen-T/F 426 02-07-2014 11:25:00 20.3 C 9.85 g/m*3 20.3 C 6.4 km/h
427 02-07-2014 11:30:00 20.3 C 9.67 g/m*3 20.3 C 3.2 km/h
428 02-07-2014 11:35:00 20.4 C 9.55 g/m*3 20.4 C 6.4 km/h
429 02-07-2014 11:40:00 20.6 C 10.38 g/m*3 20.6 C 8.1 km/h
430 02-07-2014 11:45:00 20.7 C 10.08 g/m*3 20.7 C 8.1 km/h
431 02-07-2014 11:50:00 20.8 C 9.42 g/m*3 20.8 C 6.4 km/h
432 02-07-2014 11:55:00 20.8 C 9.78 g/m*3 20.8 C 6.4 km/h
433 02-07-2014 12:00:00 21 C 10.26 g/m*3 21 C 6.4 km/h
434 02-07-2014 12:05:00 21.3 C 9.51 g/m*3 21.3 C 8.1 km/h
435 02-07-2014 12:10:00 21.4 C 9.37 g/m*3 21.4 C 8.1 km/h
436 02-07-2014 12:15:00 21.4 C 9.37 g/m*3 21.4 C 9.7 km/h
437 02-07-2014 12:20:00 21.4 C 9.37 g/m*3 21.4 C 9.7 km/h
438 02-07-2014 12:25:00 21.5 C 9.62 g/m*3 21.5 C 4.8 km/h
439 02-07-2014 12:30:00 21.8 C 9.98 g/m*3 21.8 C 9.7 km/h
440 02-07-2014 12:35:00 22.1 C 9.56 g/m*3 22.1 C 9.7 km/h
441 02-07-2014 12:40:00 21.8 C 9.02 g/m*3 21.8 C 4.8 km/h
442 02-07-2014 12:45:00 21.6 C 9.48 g/m*3 21.6 C 4.8 km/h
443 02-07-2014 12:50:00 21.8 C 9.4 g/m*3 21.8 C 4.8 km/h
444 02-07-2014 12:55:00 21.9 C 9.65 g/m*3 21.9 C 4.8 km/h
445 02-07-2014 13:00:00 22.1 C 9.56 g/m*3 22.1 C 8.1 km/h
446 02-07-2014 13:05:00 22.3 C 9.48 g/m*3 22.3 C 8.1 km/h
447 02-07-2014 13:10:00 22.3 C 9.28 g/m*3 22.3 C 6.4 km/h
448 02-07-2014 13:15:00 22.3 C 9.08 g/m*3 22.3 C 9.7 km/h
449 02-07-2014 13:20:00 22.3 C 9.08 g/m*3 22.3 C 11.3 km/h
450 02-07-2014 13:25:00 22.4 C 8.94 g/m*3 22.4 C 6.4 km/h
Sensor: Nr:Datum:Temp:Abs-Feuchte:Windchill:Wind:
Aussen-T/F 451 02-07-2014 13:30:00 22.6 C 9.44 g/m*3 22.6 C 9.7 km/h
452 02-07-2014 13:35:00 22.7 C 10.51 g/m*3 22.7 C 9.7 km/h
453 02-07-2014 13:40:00 22.9 C 9.2 g/m*3 22.9 C 6.4 km/h
454 02-07-2014 13:45:00 23.1 C 9.1 g/m*3 23.1 C 8.1 km/h
455 02-07-2014 13:50:00 22.9 C 9.2 g/m*3 22.9 C 8.1 km/h
456 02-07-2014 13:55:00 22.8 C 9.35 g/m*3 22.8 C 12.9 km/h
457 02-07-2014 14:00:00 22.7 C 9.09 g/m*3 22.7 C 9.7 km/h
458 02-07-2014 14:05:00 22.6 C 9.44 g/m*3 22.6 C 6.4 km/h
459 02-07-2014 14:10:00 22.8 C 9.55 g/m*3 22.8 C 4.8 km/h
460 02-07-2014 14:15:00 23 C 9.45 g/m*3 23 C 12.9 km/h
461 02-07-2014 14:20:00 22.9 C 8.99 g/m*3 22.9 C 8.1 km/h
462 02-07-2014 14:25:00 23.1 C 9.72 g/m*3 23.1 C 12.9 km/h
463 02-07-2014 14:30:00 23.3 C 9.62 g/m*3 23.3 C 8.1 km/h
464 02-07-2014 14:35:00 23.6 C 9.78 g/m*3 23.6 C 14.5 km/h
465 02-07-2014 14:40:00 23.6 C 9.36 g/m*3 23.6 C 11.3 km/h
466 02-07-2014 14:45:00 23.7 C 9.2 g/m*3 23.7 C 8.1 km/h
467 02-07-2014 14:50:00 23.7 C 9.63 g/m*3 23.7 C 9.7 km/h
468 02-07-2014 14:55:00 23.9 C 9.95 g/m*3 23.9 C 11.3 km/h
469 02-07-2014 15:00:00 23.8 C 9.46 g/m*3 23.8 C 9.7 km/h
470 02-07-2014 15:05:00 23.7 C 9.41 g/m*3 23.7 C 12.9 km/h
471 02-07-2014 15:10:00 23.8 C 9.25 g/m*3 23.8 C 14.5 km/h
472 02-07-2014 15:15:00 23.8 C 8.82 g/m*3 23.8 C 14.5 km/h
473 02-07-2014 15:20:00 23.6 C 8.29 g/m*3 23.6 C 6.4 km/h
474 02-07-2014 15:25:00 23.7 C 8.77 g/m*3 23.7 C 9.7 km/h
475 02-07-2014 15:30:00 23.7 C 9.2 g/m*3 23.7 C 8.1 km/h
Sensor: Nr:Datum:Temp:Abs-Feuchte:Windchill:Wind:
Aussen-T/F 476 02-07-2014 15:35:00 23.7 C 8.98 g/m*3 23.7 C 11.3 km/h
477 02-07-2014 15:40:00 23.8 C 9.03 g/m*3 23.8 C 8.1 km/h
478 02-07-2014 15:45:00 24 C 8.7 g/m*3 24 C 11.3 km/h
479 02-07-2014 15:50:00 23.9 C 8.65 g/m*3 23.9 C 9.7 km/h
480 02-07-2014 15:55:00 24.3 C 8.41 g/m*3 24.3 C 6.4 km/h
481 02-07-2014 16:00:00 24.4 C 8.46 g/m*3 24.4 C 3.2 km/h
482 02-07-2014 16:05:00 24.4 C 8.46 g/m*3 24.4 C 8.1 km/h
483 02-07-2014 16:10:00 24.6 C 7.88 g/m*3 24.6 C 9.7 km/h
484 02-07-2014 16:15:00 24.5 C 7.83 g/m*3 24.5 C 6.4 km/h
485 02-07-2014 16:20:00 24.7 C 8.83 g/m*3 24.7 C 9.7 km/h
486 02-07-2014 16:25:00 25 C 8.52 g/m*3 25 C 9.7 km/h
487 02-07-2014 16:30:00 25.1 C 8.1 g/m*3 25.1 C 11.3 km/h
488 02-07-2014 16:35:00 25.1 C 8.8 g/m*3 25.1 C 11.3 km/h
489 02-07-2014 16:40:00 25.1 C 8.33 g/m*3 25.1 C 8.1 km/h
490 02-07-2014 16:45:00 25 C 7.83 g/m*3 25 C 4.8 km/h
491 02-07-2014 16:50:00 24.9 C 8.47 g/m*3 24.9 C 6.4 km/h
492 02-07-2014 16:55:00 24.7 C 8.6 g/m*3 24.7 C 6.4 km/h
493 02-07-2014 17:00:00 24.8 C 8.65 g/m*3 24.8 C 12.9 km/h
494 02-07-2014 17:05:00 24.9 C 7.55 g/m*3 24.9 C 8.1 km/h
495 02-07-2014 17:10:00 24.9 C 7.78 g/m*3 24.9 C 8.1 km/h
496 02-07-2014 17:15:00 24.9 C 7.78 g/m*3 24.9 C 9.7 km/h
497 02-07-2014 17:20:00 25 C 8.29 g/m*3 25 C 8.1 km/h
498 02-07-2014 17:25:00 25.2 C 8.85 g/m*3 25.2 C 11.3 km/h
499 02-07-2014 17:30:00 25.3 C 8.19 g/m*3 25.3 C 12.9 km/h
500 02-07-2014 17:35:00 25.2 C 8.85 g/m*3 25.2 C 6.4 km/h
Sensor: Nr:Datum:Temp:Abs-Feuchte:Windchill:Wind:
Aussen-T/F 501 02-07-2014 17:40:00 25.1 C 8.1 g/m*3 25.1 C 6.4 km/h
502 02-07-2014 17:45:00 25.1 C 7.64 g/m*3 25.1 C 8.1 km/h
503 02-07-2014 17:50:00 25.1 C 8.33 g/m*3 25.1 C 8.1 km/h
504 02-07-2014 17:55:00 25.4 C 7.53 g/m*3 25.4 C 8.1 km/h
505 02-07-2014 18:00:00 25.4 C 7.77 g/m*3 25.4 C 9.7 km/h
506 02-07-2014 18:05:00 25.2 C 7.68 g/m*3 25.2 C 9.7 km/h
507 02-07-2014 18:10:00 24.9 C 7.78 g/m*3 24.9 C 11.3 km/h
508 02-07-2014 18:15:00 25 C 8.29 g/m*3 25 C 4.8 km/h
509 02-07-2014 18:20:00 25.2 C 7.45 g/m*3 25.2 C 11.3 km/h
510 02-07-2014 18:25:00 25.1 C 7.41 g/m*3 25.1 C 8.1 km/h
511 02-07-2014 18:30:00 25.1 C 7.64 g/m*3 25.1 C 9.7 km/h
512 02-07-2014 18:35:00 24.8 C 7.97 g/m*3 24.8 C 9.7 km/h
513 02-07-2014 18:40:00 24.8 C 7.74 g/m*3 24.8 C 6.4 km/h
514 02-07-2014 18:45:00 24.7 C 7.92 g/m*3 24.7 C 6.4 km/h
515 02-07-2014 18:50:00 24.7 C 7.7 g/m*3 24.7 C 11.3 km/h
516 02-07-2014 18:55:00 24.6 C 7.65 g/m*3 24.6 C 8.1 km/h
517 02-07-2014 19:00:00 24.3 C 7.97 g/m*3 24.3 C 8.1 km/h
518 02-07-2014 19:05:00 24.3 C 7.97 g/m*3 24.3 C 9.7 km/h
519 02-07-2014 19:10:00 24.6 C 8.1 g/m*3 24.6 C 11.3 km/h
520 02-07-2014 19:15:00 24.5 C 8.06 g/m*3 24.5 C 11.3 km/h
521 02-07-2014 19:20:00 24.2 C 7.92 g/m*3 24.2 C 6.4 km/h
522 02-07-2014 19:25:00 24 C 7.83 g/m*3 24 C 9.7 km/h
523 02-07-2014 19:30:00 23.7 C 7.7 g/m*3 23.7 C 6.4 km/h
524 02-07-2014 19:35:00 23.6 C 7.44 g/m*3 23.6 C 9.7 km/h
525 02-07-2014 19:40:00 23.4 C 7.36 g/m*3 23.4 C 6.4 km/h
Sensor: Nr:Datum:Temp:Abs-Feuchte:Windchill:Wind:
Aussen-T/F 526 02-07-2014 19:45:00 23.4 C 7.36 g/m*3 23.4 C 11.3 km/h
527 02-07-2014 19:50:00 23.3 C 7.32 g/m*3 23.3 C 8.1 km/h
528 02-07-2014 19:55:00 23.2 C 7.48 g/m*3 23.2 C 6.4 km/h
529 02-07-2014 20:00:00 23.1 C 7.44 g/m*3 23.1 C 8.1 km/h
530 02-07-2014 20:05:00 22.9 C 7.77 g/m*3 22.9 C 6.4 km/h
531 02-07-2014 20:10:00 22.9 C 7.77 g/m*3 22.9 C 8.1 km/h
532 02-07-2014 20:15:00 22.8 C 7.92 g/m*3 22.8 C 6.4 km/h
533 02-07-2014 20:20:00 22.7 C 7.88 g/m*3 22.7 C 6.4 km/h
534 02-07-2014 20:25:00 22.6 C 7.63 g/m*3 22.6 C 4.8 km/h
535 02-07-2014 20:30:00 22.4 C 7.94 g/m*3 22.4 C 4.8 km/h
536 02-07-2014 20:35:00 22.3 C 7.9 g/m*3 22.3 C 3.2 km/h
537 02-07-2014 20:40:00 22.2 C 8.05 g/m*3 22.2 C 4.8 km/h
538 02-07-2014 20:45:00 22.1 C 8.59 g/m*3 22.1 C 4.8 km/h
539 02-07-2014 20:50:00 21.8 C 8.63 g/m*3 21.8 C 1.6 km/h
540 02-07-2014 20:55:00 21.4 C 9 g/m*3 21.4 C 1.6 km/h
541 02-07-2014 21:00:00 20.8 C 8.33 g/m*3 20.8 C 3.2 km/h
542 02-07-2014 21:05:00 20.1 C 9.21 g/m*3 20.1 C 0 km/h
543 02-07-2014 21:10:00 19.3 C 9.79 g/m*3 19.3 C 0 km/h
544 02-07-2014 21:15:00 18.6 C 9.71 g/m*3 18.6 C 1.6 km/h
545 02-07-2014 21:20:00 18.1 C 9.73 g/m*3 18.1 C 0 km/h
546 02-07-2014 21:25:00 17.7 C 9.35 g/m*3 17.7 C 1.6 km/h
547 02-07-2014 21:30:00 17.4 C 9.34 g/m*3 17.4 C 1.6 km/h
548 02-07-2014 21:35:00 17.1 C 9.46 g/m*3 17.1 C 1.6 km/h
549 02-07-2014 21:40:00 16.8 C 9.29 g/m*3 16.8 C 1.6 km/h
550 02-07-2014 21:45:00 16.6 C 9.46 g/m*3 16.6 C 1.6 km/h
Sensor: Nr:Datum:Temp:Abs-Feuchte:Windchill:Wind:
Aussen-T/F 551 02-07-2014 21:50:00 16.4 C 9.35 g/m*3 16.4 C 1.6 km/h
552 02-07-2014 21:55:00 16.3 C 9.57 g/m*3 16.3 C 1.6 km/h
553 02-07-2014 22:00:00 16.1 C 9.32 g/m*3 16.1 C 1.6 km/h
554 02-07-2014 22:05:00 16 C 9.26 g/m*3 16 C 1.6 km/h
555 02-07-2014 22:10:00 15.9 C 9.48 g/m*3 15.9 C 1.6 km/h
556 02-07-2014 22:15:00 15.8 C 9.56 g/m*3 15.8 C 0 km/h
557 02-07-2014 22:20:00 15.8 C 9.56 g/m*3 15.8 C 0 km/h
558 02-07-2014 22:25:00 15.7 C 9.5 g/m*3 15.7 C 0 km/h
559 02-07-2014 22:30:00 15.7 C 9.63 g/m*3 15.7 C 0 km/h
560 02-07-2014 22:35:00 15.6 C 9.31 g/m*3 15.6 C 0 km/h
561 02-07-2014 22:40:00 15.6 C 9.58 g/m*3 15.6 C 1.6 km/h
562 02-07-2014 22:45:00 15.5 C 9.39 g/m*3 15.5 C 1.6 km/h
563 02-07-2014 22:50:00 15.4 C 9.46 g/m*3 15.4 C 0 km/h
564 02-07-2014 22:55:00 15.4 C 9.59 g/m*3 15.4 C 0 km/h
565 02-07-2014 23:00:00 15.3 C 9.53 g/m*3 15.3 C 0 km/h
566 02-07-2014 23:05:00 15.2 C 9.48 g/m*3 15.2 C 0 km/h
567 02-07-2014 23:10:00 15.2 C 9.61 g/m*3 15.2 C 0 km/h
568 02-07-2014 23:15:00 15.1 C 9.55 g/m*3 15.1 C 0 km/h
569 02-07-2014 23:20:00 14.9 C 9.43 g/m*3 14.9 C 0 km/h
570 02-07-2014 23:25:00 14.7 C 9.44 g/m*3 14.7 C 0 km/h
571 02-07-2014 23:30:00 14.5 C 9.58 g/m*3 14.5 C 0 km/h
572 02-07-2014 23:35:00 14.4 C 9.52 g/m*3 14.4 C 0 km/h
573 02-07-2014 23:40:00 14.3 C 9.34 g/m*3 14.3 C 0 km/h
574 02-07-2014 23:45:00 14.3 C 9.34 g/m*3 14.3 C 0 km/h
575 02-07-2014 23:50:00 14.2 C 9.52 g/m*3 14.2 C 0 km/h
Sensor: Nr:Datum:Temp:Abs-Feuchte:Windchill:Wind:
Aussen-T/F 576 02-07-2014 23:55:00 14.1 C 9.47 g/m*3 14.1 C 0 km/h
577 03-07-2014 00:00:00 13.9 C 9.23 g/m*3 13.9 C 0 km/h
578 03-07-2014 00:05:00 13.8 C 9.17 g/m*3 13.8 C 0 km/h
579 03-07-2014 00:10:00 13.8 C 9.29 g/m*3 13.8 C 0 km/h
580 03-07-2014 00:15:00 13.7 C 9.35 g/m*3 13.7 C 0 km/h
581 03-07-2014 00:20:00 13.5 C 9.24 g/m*3 13.5 C 0 km/h
582 03-07-2014 00:25:00 13.4 C 9.3 g/m*3 13.4 C 0 km/h
583 03-07-2014 00:30:00 13.3 C 9.13 g/m*3 13.3 C 0 km/h
584 03-07-2014 00:35:00 13.3 C 9.13 g/m*3 13.3 C 0 km/h
585 03-07-2014 00:40:00 13.2 C 9.19 g/m*3 13.2 C 0 km/h
586 03-07-2014 00:45:00 13.2 C 9.07 g/m*3 13.2 C 0 km/h
587 03-07-2014 00:50:00 13.1 C 9.01 g/m*3 13.1 C 0 km/h
588 03-07-2014 00:55:00 13.1 C 9.13 g/m*3 13.1 C 0 km/h
589 03-07-2014 01:00:00 13 C 8.96 g/m*3 13 C 0 km/h
590 03-07-2014 01:05:00 12.9 C 8.9 g/m*3 12.9 C 0 km/h
591 03-07-2014 01:10:00 12.9 C 8.9 g/m*3 12.9 C 0 km/h
592 03-07-2014 01:15:00 12.8 C 8.96 g/m*3 12.8 C 0 km/h
593 03-07-2014 01:20:00 12.8 C 8.96 g/m*3 12.8 C 0 km/h
594 03-07-2014 01:25:00 12.7 C 9.02 g/m*3 12.7 C 0 km/h
595 03-07-2014 01:30:00 12.6 C 8.96 g/m*3 12.6 C 0 km/h
596 03-07-2014 01:35:00 12.5 C 8.91 g/m*3 12.5 C 0 km/h
597 03-07-2014 01:40:00 12.4 C 8.96 g/m*3 12.4 C 0 km/h
598 03-07-2014 01:45:00 12.3 C 8.9 g/m*3 12.3 C 0 km/h
599 03-07-2014 01:50:00 12.3 C 8.9 g/m*3 12.3 C 0 km/h
600 03-07-2014 01:55:00 12.2 C 8.85 g/m*3 12.2 C 0 km/h
Sensor: Nr:Datum:Temp:Abs-Feuchte:Windchill:Wind:
Aussen-T/F 601 03-07-2014 02:00:00 12.1 C 8.9 g/m*3 12.1 C 0 km/h
602 03-07-2014 02:05:00 12 C 8.85 g/m*3 12 C 0 km/h
603 03-07-2014 02:10:00 12 C 8.74 g/m*3 12 C 0 km/h
604 03-07-2014 02:15:00 11.9 C 8.79 g/m*3 11.9 C 0 km/h
605 03-07-2014 02:20:00 11.8 C 8.74 g/m*3 11.8 C 0 km/h
606 03-07-2014 02:25:00 11.8 C 8.84 g/m*3 11.8 C 0 km/h
607 03-07-2014 02:30:00 11.7 C 8.79 g/m*3 11.7 C 0 km/h
608 03-07-2014 02:35:00 11.6 C 8.73 g/m*3 11.6 C 0 km/h
609 03-07-2014 02:40:00 11.6 C 8.83 g/m*3 11.6 C 0 km/h
610 03-07-2014 02:45:00 11.6 C 8.83 g/m*3 11.6 C 0 km/h
611 03-07-2014 02:50:00 11.5 C 8.78 g/m*3 11.5 C 0 km/h
612 03-07-2014 02:55:00 11.5 C 8.78 g/m*3 11.5 C 1.6 km/h
613 03-07-2014 03:00:00 11.4 C 8.72 g/m*3 11.4 C 0 km/h
614 03-07-2014 03:05:00 11.4 C 8.72 g/m*3 11.4 C 0 km/h
615 03-07-2014 03:10:00 11.3 C 8.77 g/m*3 11.3 C 0 km/h
616 03-07-2014 03:15:00 11.3 C 8.77 g/m*3 11.3 C 0 km/h
617 03-07-2014 03:20:00 11.3 C 8.77 g/m*3 11.3 C 0 km/h
618 03-07-2014 03:25:00 11.2 C 8.72 g/m*3 11.2 C 0 km/h
619 03-07-2014 03:30:00 11.2 C 8.72 g/m*3 11.2 C 0 km/h
620 03-07-2014 03:35:00 11.1 C 8.66 g/m*3 11.1 C 0 km/h
621 03-07-2014 03:40:00 11.1 C 8.66 g/m*3 11.1 C 0 km/h
622 03-07-2014 03:45:00 11 C 8.71 g/m*3 11 C 0 km/h
623 03-07-2014 03:50:00 11 C 8.71 g/m*3 11 C 0 km/h
624 03-07-2014 03:55:00 10.9 C 8.65 g/m*3 10.9 C 0 km/h
625 03-07-2014 04:00:00 10.8 C 8.6 g/m*3 10.8 C 0 km/h
Sensor: Nr:Datum:Temp:Abs-Feuchte:Windchill:Wind:
Aussen-T/F 626 03-07-2014 04:05:00 10.8 C 8.6 g/m*3 10.8 C 0 km/h
627 03-07-2014 04:10:00 10.7 C 8.55 g/m*3 10.7 C 0 km/h
628 03-07-2014 04:15:00 10.6 C 8.59 g/m*3 10.6 C 0 km/h
629 03-07-2014 04:20:00 10.5 C 8.53 g/m*3 10.5 C 0 km/h
630 03-07-2014 04:25:00 10.5 C 8.53 g/m*3 10.5 C 0 km/h
631 03-07-2014 04:30:00 10.4 C 8.58 g/m*3 10.4 C 0 km/h
632 03-07-2014 04:35:00 10.3 C 8.52 g/m*3 10.3 C 0 km/h
633 03-07-2014 04:40:00 10.3 C 8.52 g/m*3 10.3 C 0 km/h
634 03-07-2014 04:45:00 10.2 C 8.47 g/m*3 10.2 C 0 km/h
635 03-07-2014 04:50:00 10.1 C 8.51 g/m*3 10.1 C 0 km/h
636 03-07-2014 04:55:00 10.1 C 8.51 g/m*3 10.1 C 0 km/h
637 03-07-2014 05:00:00 10.1 C 8.51 g/m*3 10.1 C 0 km/h
638 03-07-2014 05:05:00 10 C 8.46 g/m*3 10 C 0 km/h
639 03-07-2014 05:10:00 10 C 8.46 g/m*3 10 C 0 km/h
640 03-07-2014 05:15:00 9.9 C 8.4 g/m*3 9.9 C 0 km/h
641 03-07-2014 05:20:00 9.9 C 8.5 g/m*3 9.9 C 0 km/h
642 03-07-2014 05:25:00 9.8 C 8.44 g/m*3 9.8 C 0 km/h
643 03-07-2014 05:30:00 9.8 C 8.44 g/m*3 9.8 C 0 km/h
644 03-07-2014 05:35:00 9.8 C 8.44 g/m*3 9.8 C 0 km/h
645 03-07-2014 05:40:00 9.8 C 8.44 g/m*3 9.8 C 0 km/h
646 03-07-2014 05:45:00 9.8 C 8.44 g/m*3 9.8 C 0 km/h
647 03-07-2014 05:50:00 9.8 C 8.44 g/m*3 9.8 C 0 km/h
648 03-07-2014 05:55:00 9.7 C 8.48 g/m*3 9.7 C 0 km/h
649 03-07-2014 06:00:00 9.8 C 8.54 g/m*3 9.8 C 0 km/h
650 03-07-2014 06:05:00 9.8 C 8.54 g/m*3 9.8 C 0 km/h
Sensor: Nr:Datum:Temp:Abs-Feuchte:Windchill:Wind:
Aussen-T/F 651 03-07-2014 06:10:00 9.8 C 8.54 g/m*3 9.8 C 1.6 km/h
652 03-07-2014 06:15:00 9.8 C 8.54 g/m*3 9.8 C 0 km/h
653 03-07-2014 06:20:00 9.8 C 8.54 g/m*3 9.8 C 0 km/h
654 03-07-2014 06:25:00 9.8 C 8.54 g/m*3 9.8 C 0 km/h
655 03-07-2014 06:30:00 9.8 C 8.54 g/m*3 9.8 C 0 km/h
656 03-07-2014 06:35:00 9.9 C 8.59 g/m*3 9.9 C 0 km/h
657 03-07-2014 06:40:00 9.9 C 8.59 g/m*3 9.9 C 0 km/h
658 03-07-2014 06:45:00 9.9 C 8.59 g/m*3 9.9 C 0 km/h
659 03-07-2014 06:50:00 9.9 C 8.59 g/m*3 9.9 C 0 km/h
660 03-07-2014 06:55:00 10 C 8.64 g/m*3 10 C 0 km/h
661 03-07-2014 07:00:00 10.1 C 8.7 g/m*3 10.1 C 0 km/h
662 03-07-2014 07:05:00 10.2 C 8.76 g/m*3 10.2 C 0 km/h
663 03-07-2014 07:10:00 10.2 C 8.76 g/m*3 10.2 C 0 km/h
664 03-07-2014 07:15:00 10.3 C 8.81 g/m*3 10.3 C 0 km/h
665 03-07-2014 07:20:00 10.4 C 8.87 g/m*3 10.4 C 0 km/h
666 03-07-2014 07:25:00 10.4 C 8.87 g/m*3 10.4 C 0 km/h
667 03-07-2014 07:30:00 10.5 C 8.92 g/m*3 10.5 C 0 km/h
668 03-07-2014 07:35:00 10.6 C 8.98 g/m*3 10.6 C 0 km/h
669 03-07-2014 07:40:00 10.6 C 8.98 g/m*3 10.6 C 0 km/h
670 03-07-2014 07:45:00 10.7 C 9.04 g/m*3 10.7 C 0 km/h
671 03-07-2014 07:50:00 10.8 C 9.09 g/m*3 10.8 C 0 km/h
672 03-07-2014 07:55:00 11.1 C 9.27 g/m*3 11.1 C 0 km/h
673 03-07-2014 08:00:00 11.4 C 9.34 g/m*3 11.4 C 0 km/h
674 03-07-2014 08:05:00 11.8 C 9.37 g/m*3 11.8 C 0 km/h
675 03-07-2014 08:10:00 12.2 C 9.5 g/m*3 12.2 C 0 km/h
Sensor: Nr:Datum:Temp:Abs-Feuchte:Windchill:Wind:
Aussen-T/F 676 03-07-2014 08:15:00 12.5 C 9.57 g/m*3 12.5 C 0 km/h
677 03-07-2014 08:20:00 12.8 C 9.63 g/m*3 12.8 C 0 km/h
678 03-07-2014 08:25:00 13.2 C 9.76 g/m*3 13.2 C 0 km/h
679 03-07-2014 08:30:00 13.6 C 9.77 g/m*3 13.6 C 0 km/h
680 03-07-2014 08:35:00 13.8 C 9.65 g/m*3 13.8 C 0 km/h
681 03-07-2014 08:40:00 13.9 C 9.71 g/m*3 13.9 C 0 km/h
682 03-07-2014 08:45:00 14.1 C 9.71 g/m*3 14.1 C 0 km/h
683 03-07-2014 08:50:00 14.3 C 9.95 g/m*3 14.3 C 0 km/h
684 03-07-2014 08:55:00 14.6 C 10.01 g/m*3 14.6 C 0 km/h
685 03-07-2014 09:00:00 14.7 C 9.95 g/m*3 14.7 C 0 km/h
686 03-07-2014 09:05:00 14.8 C 10.13 g/m*3 14.8 C 0 km/h
687 03-07-2014 09:10:00 15 C 10.26 g/m*3 15 C 0 km/h
688 03-07-2014 09:15:00 15.1 C 10.19 g/m*3 15.1 C 0 km/h
689 03-07-2014 09:20:00 15 C 10.26 g/m*3 15 C 0 km/h
690 03-07-2014 09:25:00 14.9 C 10.2 g/m*3 14.9 C 0 km/h
691 03-07-2014 09:30:00 14.9 C 10.32 g/m*3 14.9 C 0 km/h
692 03-07-2014 09:35:00 14.9 C 10.32 g/m*3 14.9 C 0 km/h
693 03-07-2014 09:40:00 14.9 C 10.45 g/m*3 14.9 C 0 km/h
694 03-07-2014 09:45:00 15 C 10.77 g/m*3 15 C 0 km/h
695 03-07-2014 09:50:00 15.2 C 10.77 g/m*3 15.2 C 0 km/h
696 03-07-2014 09:55:00 15.4 C 10.9 g/m*3 15.4 C 0 km/h
697 03-07-2014 10:00:00 15.8 C 11.17 g/m*3 15.8 C 0 km/h
698 03-07-2014 10:05:00 16.3 C 11.38 g/m*3 16.3 C 0 km/h
699 03-07-2014 10:10:00 16.7 C 11.51 g/m*3 16.7 C 0 km/h
700 03-07-2014 10:15:00 17 C 11.43 g/m*3 17 C 0 km/h
Sensor: Nr:Datum:Temp:Abs-Feuchte:Windchill:Wind:
Aussen-T/F 701 03-07-2014 10:20:00 17.3 C 11.49 g/m*3 17.3 C 0 km/h
702 03-07-2014 10:25:00 17.7 C 11.62 g/m*3 17.7 C 1.6 km/h
703 03-07-2014 10:30:00 17.9 C 11.76 g/m*3 17.9 C 1.6 km/h
704 03-07-2014 10:35:00 18.2 C 11.81 g/m*3 18.2 C 1.6 km/h
705 03-07-2014 10:40:00 18.3 C 11.73 g/m*3 18.3 C 1.6 km/h
706 03-07-2014 10:45:00 18.6 C 11.94 g/m*3 18.6 C 1.6 km/h
707 03-07-2014 10:50:00 18.8 C 11.92 g/m*3 18.8 C 0 km/h
708 03-07-2014 10:55:00 19.1 C 11.97 g/m*3 19.1 C 3.2 km/h
709 03-07-2014 11:00:00 19.4 C 12.18 g/m*3 19.4 C 3.2 km/h
710 03-07-2014 11:05:00 19.7 C 12.06 g/m*3 19.7 C 0 km/h
711 03-07-2014 11:10:00 19.9 C 12.37 g/m*3 19.9 C 0 km/h
712 03-07-2014 11:15:00 20.3 C 11.61 g/m*3 20.3 C 3.2 km/h
713 03-07-2014 11:20:00 20.6 C 12.53 g/m*3 20.6 C 1.6 km/h
714 03-07-2014 11:25:00 21 C 11.36 g/m*3 21 C 3.2 km/h
715 03-07-2014 11:30:00 21.8 C 10.36 g/m*3 21.8 C 6.4 km/h
716 03-07-2014 11:35:00 22.5 C 10.39 g/m*3 22.5 C 6.4 km/h
717 03-07-2014 11:40:00 23.1 C 10.34 g/m*3 23.1 C 4.8 km/h
718 03-07-2014 11:45:00 23.4 C 10.09 g/m*3 23.4 C 6.4 km/h
719 03-07-2014 11:50:00 23.6 C 10.85 g/m*3 23.6 C 4.8 km/h
720 03-07-2014 11:55:00 23.9 C 9.74 g/m*3 23.9 C 8.1 km/h
721 03-07-2014 12:00:00 24.3 C 9.74 g/m*3 24.3 C 9.7 km/h
722 03-07-2014 12:05:00 24.8 C 9.33 g/m*3 24.8 C 8.1 km/h
723 03-07-2014 12:10:00 25.1 C 9.49 g/m*3 25.1 C 14.5 km/h
724 03-07-2014 12:15:00 25.3 C 8.9 g/m*3 25.3 C 12.9 km/h
725 03-07-2014 12:20:00 25.4 C 8.48 g/m*3 25.4 C 8.1 km/h
Sensor: Nr:Datum:Temp:Abs-Feuchte:Windchill:Wind:
Aussen-T/F 726 03-07-2014 12:25:00 25.5 C 9.47 g/m*3 25.5 C 9.7 km/h
727 03-07-2014 12:30:00 25.7 C 9.1 g/m*3 25.7 C 6.4 km/h
728 03-07-2014 12:35:00 25.8 C 8.19 g/m*3 25.8 C 14.5 km/h
729 03-07-2014 12:40:00 25.8 C 7.94 g/m*3 25.8 C 9.7 km/h
730 03-07-2014 12:45:00 26 C 8.28 g/m*3 26 C 11.3 km/h
731 03-07-2014 12:50:00 26.2 C 8.86 g/m*3 26.2 C 8.1 km/h
732 03-07-2014 12:55:00 26.4 C 8.46 g/m*3 26.4 C 14.5 km/h
733 03-07-2014 13:00:00 26.6 C 8.31 g/m*3 26.6 C 11.3 km/h
734 03-07-2014 13:05:00 26.7 C 8.61 g/m*3 26.7 C 12.9 km/h
735 03-07-2014 13:10:00 26.8 C 8.65 g/m*3 26.8 C 11.3 km/h
736 03-07-2014 13:15:00 26.8 C 8.91 g/m*3 26.8 C 8.1 km/h
737 03-07-2014 13:20:00 27.1 C 8.54 g/m*3 27.1 C 8.1 km/h
738 03-07-2014 13:25:00 26.9 C 8.96 g/m*3 26.9 C 14.5 km/h
739 03-07-2014 13:30:00 26.9 C 8.96 g/m*3 26.9 C 11.3 km/h
740 03-07-2014 13:35:00 27.1 C 9.32 g/m*3 27.1 C 9.7 km/h
741 03-07-2014 13:40:00 27.3 C 8.9 g/m*3 27.3 C 12.9 km/h
742 03-07-2014 13:45:00 27.3 C 9.16 g/m*3 27.3 C 9.7 km/h
743 03-07-2014 13:50:00 27.4 C 9.21 g/m*3 27.4 C 8.1 km/h
744 03-07-2014 13:55:00 27.6 C 8.51 g/m*3 27.6 C 12.9 km/h
745 03-07-2014 14:00:00 27.6 C 8.51 g/m*3 27.6 C 8.1 km/h
746 03-07-2014 14:05:00 27.7 C 8.83 g/m*3 27.7 C 11.3 km/h
747 03-07-2014 14:10:00 27.7 C 8.83 g/m*3 27.7 C 19.3 km/h
748 03-07-2014 14:15:00 27.8 C 9.41 g/m*3 27.8 C 4.8 km/h
749 03-07-2014 14:20:00 28 C 10.06 g/m*3 28 C 9.7 km/h
750 03-07-2014 14:25:00 28.1 C 8.48 g/m*3 28.1 C 16.1 km/h
Sensor: Nr:Datum:Temp:Abs-Feuchte:Windchill:Wind:
Aussen-T/F 751 03-07-2014 14:30:00 28.1 C 8.75 g/m*3 28.1 C 16.1 km/h
752 03-07-2014 14:35:00 28.1 C 9.02 g/m*3 28.1 C 12.9 km/h
753 03-07-2014 14:40:00 28.3 C 8.85 g/m*3 28.3 C 9.7 km/h
754 03-07-2014 14:45:00 28.6 C 8.71 g/m*3 28.6 C 16.1 km/h
755 03-07-2014 14:50:00 28.7 C 8.19 g/m*3 28.7 C 8.1 km/h
756 03-07-2014 14:55:00 28.8 C 8.81 g/m*3 28.8 C 9.7 km/h
757 03-07-2014 15:00:00 29.1 C 8.66 g/m*3 29.1 C 6.4 km/h
758 03-07-2014 15:05:00 28.9 C 8.86 g/m*3 28.9 C 12.9 km/h
759 03-07-2014 15:10:00 28.6 C 8.43 g/m*3 28.6 C 14.5 km/h
760 03-07-2014 15:15:00 28.9 C 8.57 g/m*3 28.9 C 12.9 km/h
761 03-07-2014 15:20:00 29.1 C 8.38 g/m*3 29.1 C 12.9 km/h
762 03-07-2014 15:25:00 29.1 C 8.09 g/m*3 29.1 C 12.9 km/h
763 03-07-2014 15:30:00 29 C 7.76 g/m*3 29 C 16.1 km/h
764 03-07-2014 15:35:00 29.2 C 7.55 g/m*3 29.2 C 14.5 km/h
765 03-07-2014 15:40:00 29.4 C 7.63 g/m*3 29.4 C 11.3 km/h
766 03-07-2014 15:45:00 29.5 C 7.97 g/m*3 29.5 C 12.9 km/h
767 03-07-2014 15:50:00 29.5 C 8.26 g/m*3 29.5 C 8.1 km/h
768 03-07-2014 15:55:00 29.7 C 8.06 g/m*3 29.7 C 14.5 km/h
769 03-07-2014 16:00:00 29.7 C 8.35 g/m*3 29.7 C 12.9 km/h
770 03-07-2014 16:05:00 29.8 C 8.1 g/m*3 29.8 C 11.3 km/h
771 03-07-2014 16:10:00 29.9 C 7.54 g/m*3 29.9 C 12.9 km/h
772 03-07-2014 16:15:00 30 C 8.19 g/m*3 30 C 9.7 km/h
773 03-07-2014 16:20:00 30.2 C 7.97 g/m*3 30.2 C 14.5 km/h
774 03-07-2014 16:25:00 29.9 C 7.24 g/m*3 29.9 C 16.1 km/h
775 03-07-2014 16:30:00 30 C 8.19 g/m*3 30 C 6.4 km/h
Sensor: Nr:Datum:Temp:Abs-Feuchte:Windchill:Wind:
Aussen-T/F 776 03-07-2014 16:35:00 29.9 C 7.24 g/m*3 29.9 C 8.1 km/h
777 03-07-2014 16:40:00 30.1 C 7.62 g/m*3 30.1 C 17.7 km/h
778 03-07-2014 16:45:00 30.1 C 7.62 g/m*3 30.1 C 14.5 km/h
779 03-07-2014 16:50:00 29.9 C 7.84 g/m*3 29.9 C 9.7 km/h
780 03-07-2014 16:55:00 30.1 C 7.93 g/m*3 30.1 C 11.3 km/h
781 03-07-2014 17:00:00 30.1 C 7.93 g/m*3 30.1 C 14.5 km/h
782 03-07-2014 17:05:00 30.3 C 8.32 g/m*3 30.3 C 9.7 km/h
783 03-07-2014 17:10:00 30.5 C 8.1 g/m*3 30.5 C 8.1 km/h
784 03-07-2014 17:15:00 30.6 C 8.14 g/m*3 30.6 C 11.3 km/h
785 03-07-2014 17:20:00 30.5 C 7.79 g/m*3 30.5 C 12.9 km/h
786 03-07-2014 17:25:00 30.5 C 7.48 g/m*3 30.5 C 9.7 km/h
787 03-07-2014 17:30:00 30.2 C 7.66 g/m*3 30.2 C 6.4 km/h
788 03-07-2014 17:35:00 30.3 C 8.01 g/m*3 30.3 C 6.4 km/h
789 03-07-2014 17:40:00 30.3 C 8.01 g/m*3 30.3 C 8.1 km/h
790 03-07-2014 17:45:00 30.5 C 8.1 g/m*3 30.5 C 12.9 km/h
791 03-07-2014 17:50:00 30.8 C 7.6 g/m*3 30.8 C 9.7 km/h
792 03-07-2014 17:55:00 31.1 C 8.04 g/m*3 31.1 C 12.9 km/h
793 03-07-2014 18:00:00 31.2 C 7.76 g/m*3 31.2 C 8.1 km/h
794 03-07-2014 18:05:00 30.9 C 7.32 g/m*3 30.9 C 17.7 km/h
795 03-07-2014 18:10:00 30.7 C 7.56 g/m*3 30.7 C 9.7 km/h
796 03-07-2014 18:15:00 30.6 C 6.89 g/m*3 30.6 C 14.5 km/h
797 03-07-2014 18:20:00 30.8 C 7.28 g/m*3 30.8 C 9.7 km/h
798 03-07-2014 18:25:00 30.8 C 6.97 g/m*3 30.8 C 9.7 km/h
799 03-07-2014 18:30:00 30.8 C 7.28 g/m*3 30.8 C 9.7 km/h
800 03-07-2014 18:35:00 30.7 C 6.61 g/m*3 30.7 C 14.5 km/h
Sensor: Nr:Datum:Temp:Abs-Feuchte:Windchill:Wind:
Aussen-T/F 801 03-07-2014 18:40:00 30.7 C 6.61 g/m*3 30.7 C 14.5 km/h
802 03-07-2014 18:45:00 30.4 C 6.82 g/m*3 30.4 C 14.5 km/h
803 03-07-2014 18:50:00 30.3 C 7.09 g/m*3 30.3 C 9.7 km/h
804 03-07-2014 18:55:00 30.3 C 6.78 g/m*3 30.3 C 11.3 km/h
805 03-07-2014 19:00:00 30.3 C 7.4 g/m*3 30.3 C 9.7 km/h
806 03-07-2014 19:05:00 30.3 C 7.09 g/m*3 30.3 C 9.7 km/h
807 03-07-2014 19:10:00 30.3 C 7.4 g/m*3 30.3 C 16.1 km/h
808 03-07-2014 19:15:00 30.2 C 7.36 g/m*3 30.2 C 9.7 km/h
809 03-07-2014 19:20:00 30.1 C 8.23 g/m*3 30.1 C 6.4 km/h
810 03-07-2014 19:25:00 29.8 C 7.5 g/m*3 29.8 C 11.3 km/h
811 03-07-2014 19:30:00 29.6 C 7.12 g/m*3 29.6 C 11.3 km/h
812 03-07-2014 19:35:00 29.3 C 7.01 g/m*3 29.3 C 9.7 km/h
813 03-07-2014 19:40:00 29 C 6.89 g/m*3 29 C 14.5 km/h
814 03-07-2014 19:45:00 28.8 C 7.39 g/m*3 28.8 C 12.9 km/h
815 03-07-2014 19:50:00 28.6 C 7.03 g/m*3 28.6 C 9.7 km/h
816 03-07-2014 19:55:00 28.4 C 7.78 g/m*3 28.4 C 9.7 km/h
817 03-07-2014 20:00:00 28.3 C 7.46 g/m*3 28.3 C 6.4 km/h
818 03-07-2014 20:05:00 28.1 C 7.38 g/m*3 28.1 C 12.9 km/h
819 03-07-2014 20:10:00 28 C 7.89 g/m*3 28 C 8.1 km/h
820 03-07-2014 20:15:00 27.8 C 7.26 g/m*3 27.8 C 3.2 km/h
821 03-07-2014 20:20:00 27.7 C 7.49 g/m*3 27.7 C 8.1 km/h
822 03-07-2014 20:25:00 27.4 C 8.16 g/m*3 27.4 C 6.4 km/h
823 03-07-2014 20:30:00 27.2 C 8.33 g/m*3 27.2 C 3.2 km/h
824 03-07-2014 20:35:00 26.8 C 9.42 g/m*3 26.8 C 1.6 km/h
825 03-07-2014 20:40:00 26.2 C 10.09 g/m*3 26.2 C 0 km/h
Sensor: Nr:Datum:Temp:Abs-Feuchte:Windchill:Wind:
Aussen-T/F 826 03-07-2014 20:45:00 25.6 C 10.24 g/m*3 25.6 C 1.6 km/h
827 03-07-2014 20:50:00 25 C 9.67 g/m*3 25 C 0 km/h
828 03-07-2014 20:55:00 24.4 C 10.24 g/m*3 24.4 C 0 km/h
829 03-07-2014 21:00:00 23.9 C 9.95 g/m*3 23.9 C 1.6 km/h
830 03-07-2014 21:05:00 23.5 C 10.15 g/m*3 23.5 C 1.6 km/h
831 03-07-2014 21:10:00 23.1 C 10.34 g/m*3 23.1 C 1.6 km/h
832 03-07-2014 21:15:00 22.7 C 10.1 g/m*3 22.7 C 3.2 km/h
833 03-07-2014 21:20:00 22.3 C 9.87 g/m*3 22.3 C 3.2 km/h
834 03-07-2014 21:25:00 22.1 C 9.96 g/m*3 22.1 C 3.2 km/h
835 03-07-2014 21:30:00 21.8 C 9.78 g/m*3 21.8 C 1.6 km/h
836 03-07-2014 21:35:00 21.6 C 9.67 g/m*3 21.6 C 1.6 km/h
837 03-07-2014 21:40:00 21.5 C 9.81 g/m*3 21.5 C 1.6 km/h
838 03-07-2014 21:45:00 21.3 C 9.69 g/m*3 21.3 C 3.2 km/h
839 03-07-2014 21:50:00 21.2 C 9.82 g/m*3 21.2 C 1.6 km/h
840 03-07-2014 21:55:00 21 C 9.71 g/m*3 21 C 3.2 km/h
841 03-07-2014 22:00:00 20.9 C 9.83 g/m*3 20.9 C 1.6 km/h
842 03-07-2014 22:05:00 20.7 C 9.54 g/m*3 20.7 C 1.6 km/h
843 03-07-2014 22:10:00 20.6 C 9.66 g/m*3 20.6 C 1.6 km/h
844 03-07-2014 22:15:00 20.4 C 9.73 g/m*3 20.4 C 1.6 km/h
845 03-07-2014 22:20:00 20.3 C 10.2 g/m*3 20.3 C 1.6 km/h
846 03-07-2014 22:25:00 20.2 C 9.79 g/m*3 20.2 C 0 km/h
847 03-07-2014 22:30:00 19.9 C 10.14 g/m*3 19.9 C 0 km/h
848 03-07-2014 22:35:00 19.7 C 10.02 g/m*3 19.7 C 0 km/h
849 03-07-2014 22:40:00 19.3 C 9.95 g/m*3 19.3 C 0 km/h
850 03-07-2014 22:45:00 19.2 C 10.06 g/m*3 19.2 C 0 km/h
Sensor: Nr:Datum:Temp:Abs-Feuchte:Windchill:Wind:
Aussen-T/F 851 03-07-2014 22:50:00 19.1 C 9.84 g/m*3 19.1 C 3.2 km/h
852 03-07-2014 22:55:00 19.2 C 9.73 g/m*3 19.2 C 6.4 km/h
853 03-07-2014 23:00:00 19.2 C 10.22 g/m*3 19.2 C 3.2 km/h
854 03-07-2014 23:05:00 19.1 C 10.16 g/m*3 19.1 C 3.2 km/h
855 03-07-2014 23:10:00 19.1 C 9.67 g/m*3 19.1 C 4.8 km/h
856 03-07-2014 23:15:00 19 C 9.94 g/m*3 19 C 1.6 km/h
857 03-07-2014 23:20:00 18.8 C 9.99 g/m*3 18.8 C 0 km/h
858 03-07-2014 23:25:00 18.4 C 9.91 g/m*3 18.4 C 0 km/h
859 03-07-2014 23:30:00 18.1 C 10.04 g/m*3 18.1 C 0 km/h
860 03-07-2014 23:35:00 17.8 C 9.71 g/m*3 17.8 C 0 km/h
861 03-07-2014 23:40:00 17.8 C 9.87 g/m*3 17.8 C 0 km/h
862 03-07-2014 23:45:00 17.7 C 9.96 g/m*3 17.7 C 0 km/h
863 03-07-2014 23:50:00 17.6 C 9.9 g/m*3 17.6 C 0 km/h
864 03-07-2014 23:55:00 17.4 C 10.08 g/m*3 17.4 C 0 km/h
865 04-07-2014 00:00:00 17.3 C 9.87 g/m*3 17.3 C 0 km/h
866 04-07-2014 00:05:00 17.2 C 9.81 g/m*3 17.2 C 0 km/h
867 04-07-2014 00:10:00 17.1 C 9.9 g/m*3 17.1 C 0 km/h
868 04-07-2014 00:15:00 17.1 C 9.75 g/m*3 17.1 C 0 km/h
869 04-07-2014 00:20:00 17 C 9.84 g/m*3 17 C 0 km/h
870 04-07-2014 00:25:00 16.9 C 9.78 g/m*3 16.9 C 0 km/h
871 04-07-2014 00:30:00 16.9 C 9.92 g/m*3 16.9 C 0 km/h
872 04-07-2014 00:35:00 16.8 C 10.01 g/m*3 16.8 C 0 km/h
873 04-07-2014 00:40:00 16.7 C 9.81 g/m*3 16.7 C 0 km/h
874 04-07-2014 00:45:00 16.6 C 9.75 g/m*3 16.6 C 0 km/h
875 04-07-2014 00:50:00 16.5 C 9.69 g/m*3 16.5 C 0 km/h
Sensor: Nr:Datum:Temp:Abs-Feuchte:Windchill:Wind:
Aussen-T/F 876 04-07-2014 00:55:00 16.3 C 9.71 g/m*3 16.3 C 0 km/h
877 04-07-2014 01:00:00 16.3 C 9.85 g/m*3 16.3 C 0 km/h
878 04-07-2014 01:05:00 16.1 C 9.73 g/m*3 16.1 C 0 km/h
879 04-07-2014 01:10:00 16.1 C 9.73 g/m*3 16.1 C 0 km/h
880 04-07-2014 01:15:00 15.9 C 9.75 g/m*3 15.9 C 0 km/h
881 04-07-2014 01:20:00 15.9 C 9.75 g/m*3 15.9 C 0 km/h
882 04-07-2014 01:25:00 15.8 C 9.69 g/m*3 15.8 C 0 km/h
883 04-07-2014 01:30:00 15.7 C 9.77 g/m*3 15.7 C 0 km/h
884 04-07-2014 01:35:00 15.6 C 9.71 g/m*3 15.6 C 0 km/h
885 04-07-2014 01:40:00 15.4 C 9.72 g/m*3 15.4 C 0 km/h
886 04-07-2014 01:45:00 15.3 C 9.79 g/m*3 15.3 C 0 km/h
887 04-07-2014 01:50:00 15.2 C 9.73 g/m*3 15.2 C 0 km/h
888 04-07-2014 01:55:00 15.1 C 9.68 g/m*3 15.1 C 0 km/h
889 04-07-2014 02:00:00 15 C 9.62 g/m*3 15 C 0 km/h
890 04-07-2014 02:05:00 14.9 C 9.56 g/m*3 14.9 C 0 km/h
891 04-07-2014 02:10:00 14.8 C 9.5 g/m*3 14.8 C 0 km/h
892 04-07-2014 02:15:00 14.8 C 9.63 g/m*3 14.8 C 0 km/h
893 04-07-2014 02:20:00 14.7 C 9.57 g/m*3 14.7 C 0 km/h
894 04-07-2014 02:25:00 14.6 C 9.64 g/m*3 14.6 C 0 km/h
895 04-07-2014 02:30:00 14.6 C 9.64 g/m*3 14.6 C 0 km/h
896 04-07-2014 02:35:00 14.4 C 9.52 g/m*3 14.4 C 0 km/h
897 04-07-2014 02:40:00 14.3 C 9.58 g/m*3 14.3 C 0 km/h
898 04-07-2014 02:45:00 14.3 C 9.58 g/m*3 14.3 C 0 km/h
899 04-07-2014 02:50:00 14.3 C 9.58 g/m*3 14.3 C 0 km/h
900 04-07-2014 02:55:00 14.3 C 9.71 g/m*3 14.3 C 0 km/h
Sensor: Nr:Datum:Temp:Abs-Feuchte:Windchill:Wind:
Aussen-T/F 901 04-07-2014 03:00:00 14.2 C 9.52 g/m*3 14.2 C 0 km/h
902 04-07-2014 03:05:00 14.2 C 9.65 g/m*3 14.2 C 0 km/h
903 04-07-2014 03:10:00 14.2 C 9.77 g/m*3 14.2 C 0 km/h
904 04-07-2014 03:15:00 14 C 9.65 g/m*3 14 C 0 km/h
905 04-07-2014 03:20:00 13.8 C 9.65 g/m*3 13.8 C 0 km/h
906 04-07-2014 03:25:00 13.8 C 9.65 g/m*3 13.8 C 0 km/h
907 04-07-2014 03:30:00 13.7 C 9.59 g/m*3 13.7 C 0 km/h
908 04-07-2014 03:35:00 13.6 C 9.53 g/m*3 13.6 C 0 km/h
909 04-07-2014 03:40:00 13.5 C 9.47 g/m*3 13.5 C 0 km/h
910 04-07-2014 03:45:00 13.5 C 9.47 g/m*3 13.5 C 0 km/h
911 04-07-2014 03:50:00 13.4 C 9.53 g/m*3 13.4 C 0 km/h
912 04-07-2014 03:55:00 13.4 C 9.53 g/m*3 13.4 C 0 km/h
913 04-07-2014 04:00:00 13.4 C 9.53 g/m*3 13.4 C 0 km/h
914 04-07-2014 04:05:00 13.3 C 9.47 g/m*3 13.3 C 0 km/h
915 04-07-2014 04:10:00 13.3 C 9.59 g/m*3 13.3 C 0 km/h
916 04-07-2014 04:15:00 13.3 C 9.59 g/m*3 13.3 C 0 km/h
917 04-07-2014 04:20:00 13.3 C 9.59 g/m*3 13.3 C 3.2 km/h
918 04-07-2014 04:25:00 13.4 C 9.65 g/m*3 13.4 C 0 km/h
919 04-07-2014 04:30:00 13.3 C 9.59 g/m*3 13.3 C 0 km/h
920 04-07-2014 04:35:00 13.3 C 9.59 g/m*3 13.3 C 0 km/h
921 04-07-2014 04:40:00 13.2 C 9.53 g/m*3 13.2 C 1.6 km/h
922 04-07-2014 04:45:00 13.1 C 9.59 g/m*3 13.1 C 0 km/h
923 04-07-2014 04:50:00 13.1 C 9.59 g/m*3 13.1 C 0 km/h
924 04-07-2014 04:55:00 13 C 9.53 g/m*3 13 C 0 km/h
925 04-07-2014 05:00:00 12.9 C 9.47 g/m*3 12.9 C 0 km/h
Sensor: Nr:Datum:Temp:Abs-Feuchte:Windchill:Wind:
Aussen-T/F 926 04-07-2014 05:05:00 12.9 C 9.47 g/m*3 12.9 C 0 km/h
927 04-07-2014 05:10:00 12.8 C 9.52 g/m*3 12.8 C 0 km/h
928 04-07-2014 05:15:00 12.7 C 9.46 g/m*3 12.7 C 0 km/h
929 04-07-2014 05:20:00 12.7 C 9.57 g/m*3 12.7 C 0 km/h
930 04-07-2014 05:25:00 12.6 C 9.51 g/m*3 12.6 C 0 km/h
931 04-07-2014 05:30:00 12.5 C 9.57 g/m*3 12.5 C 1.6 km/h
932 04-07-2014 05:35:00 12.4 C 9.51 g/m*3 12.4 C 0 km/h
933 04-07-2014 05:40:00 12.4 C 9.51 g/m*3 12.4 C 0 km/h
934 04-07-2014 05:45:00 12.4 C 9.51 g/m*3 12.4 C 0 km/h
935 04-07-2014 05:50:00 12.3 C 9.45 g/m*3 12.3 C 0 km/h
936 04-07-2014 05:55:00 12.3 C 9.45 g/m*3 12.3 C 0 km/h
937 04-07-2014 06:00:00 12.3 C 9.45 g/m*3 12.3 C 0 km/h
938 04-07-2014 06:05:00 12.3 C 9.56 g/m*3 12.3 C 0 km/h
939 04-07-2014 06:10:00 12.3 C 9.56 g/m*3 12.3 C 0 km/h
940 04-07-2014 06:15:00 12.3 C 9.56 g/m*3 12.3 C 0 km/h
941 04-07-2014 06:20:00 12.2 C 9.5 g/m*3 12.2 C 0 km/h
942 04-07-2014 06:25:00 12.2 C 9.5 g/m*3 12.2 C 0 km/h
943 04-07-2014 06:30:00 12.3 C 9.66 g/m*3 12.3 C 0 km/h
944 04-07-2014 06:35:00 12.3 C 9.66 g/m*3 12.3 C 0 km/h
945 04-07-2014 06:40:00 12.3 C 9.66 g/m*3 12.3 C 0 km/h
946 04-07-2014 06:45:00 12.3 C 9.66 g/m*3 12.3 C 0 km/h
947 04-07-2014 06:50:00 12.4 C 9.62 g/m*3 12.4 C 0 km/h
948 04-07-2014 06:55:00 12.5 C 9.68 g/m*3 12.5 C 0 km/h
949 04-07-2014 07:00:00 12.6 C 9.85 g/m*3 12.6 C 0 km/h
950 04-07-2014 07:05:00 12.6 C 9.85 g/m*3 12.6 C 0 km/h
Sensor: Nr:Datum:Temp:Abs-Feuchte:Windchill:Wind:
Aussen-T/F 951 04-07-2014 07:10:00 12.7 C 9.91 g/m*3 12.7 C 0 km/h
952 04-07-2014 07:15:00 12.7 C 9.8 g/m*3 12.7 C 0 km/h
953 04-07-2014 07:20:00 12.8 C 9.97 g/m*3 12.8 C 0 km/h
954 04-07-2014 07:25:00 12.9 C 10.03 g/m*3 12.9 C 0 km/h
955 04-07-2014 07:30:00 13 C 9.98 g/m*3 13 C 0 km/h
956 04-07-2014 07:35:00 13.1 C 10.16 g/m*3 13.1 C 0 km/h
957 04-07-2014 07:40:00 13.2 C 10.1 g/m*3 13.2 C 0 km/h
958 04-07-2014 07:45:00 13.3 C 10.28 g/m*3 13.3 C 0 km/h
959 04-07-2014 07:50:00 13.4 C 10.23 g/m*3 13.4 C 0 km/h
960 04-07-2014 07:55:00 13.7 C 10.3 g/m*3 13.7 C 0 km/h
961 04-07-2014 08:00:00 14.1 C 10.56 g/m*3 14.1 C 0 km/h
962 04-07-2014 08:05:00 14.4 C 10.51 g/m*3 14.4 C 0 km/h
963 04-07-2014 08:10:00 14.8 C 10.77 g/m*3 14.8 C 0 km/h
964 04-07-2014 08:15:00 15.2 C 10.9 g/m*3 15.2 C 0 km/h
965 04-07-2014 08:20:00 15.6 C 10.77 g/m*3 15.6 C 0 km/h
966 04-07-2014 08:25:00 15.9 C 10.83 g/m*3 15.9 C 0 km/h
967 04-07-2014 08:30:00 16.2 C 10.89 g/m*3 16.2 C 0 km/h
968 04-07-2014 08:35:00 16.5 C 10.95 g/m*3 16.5 C 0 km/h
969 04-07-2014 08:40:00 16.8 C 11.15 g/m*3 16.8 C 0 km/h
970 04-07-2014 08:45:00 17.2 C 11.13 g/m*3 17.2 C 0 km/h
971 04-07-2014 08:50:00 17.3 C 11.2 g/m*3 17.3 C 0 km/h
972 04-07-2014 08:55:00 17.5 C 11.18 g/m*3 17.5 C 0 km/h
973 04-07-2014 09:00:00 17.6 C 11.1 g/m*3 17.6 C 0 km/h
974 04-07-2014 09:05:00 17.8 C 11.23 g/m*3 17.8 C 0 km/h
975 04-07-2014 09:10:00 17.9 C 11.3 g/m*3 17.9 C 0 km/h
Sensor: Nr:Datum:Temp:Abs-Feuchte:Windchill:Wind:
Aussen-T/F 976 04-07-2014 09:15:00 17.9 C 11.3 g/m*3 17.9 C 0 km/h
977 04-07-2014 09:20:00 17.8 C 11.38 g/m*3 17.8 C 0 km/h
978 04-07-2014 09:25:00 17.7 C 11.62 g/m*3 17.7 C 0 km/h
979 04-07-2014 09:30:00 17.7 C 11.62 g/m*3 17.7 C 0 km/h
980 04-07-2014 09:35:00 17.9 C 11.45 g/m*3 17.9 C 0 km/h
981 04-07-2014 09:40:00 18.1 C 11.9 g/m*3 18.1 C 0 km/h
982 04-07-2014 09:45:00 18.1 C 11.9 g/m*3 18.1 C 0 km/h
983 04-07-2014 09:50:00 18.2 C 11.97 g/m*3 18.2 C 0 km/h
984 04-07-2014 09:55:00 18.3 C 12.2 g/m*3 18.3 C 0 km/h
985 04-07-2014 10:00:00 18.7 C 12.33 g/m*3 18.7 C 0 km/h
986 04-07-2014 10:05:00 19.2 C 12.37 g/m*3 19.2 C 1.6 km/h
987 04-07-2014 10:10:00 19.6 C 12.83 g/m*3 19.6 C 0 km/h
988 04-07-2014 10:15:00 20 C 12.79 g/m*3 20 C 0 km/h
989 04-07-2014 10:20:00 20.4 C 12.91 g/m*3 20.4 C 0 km/h
990 04-07-2014 10:25:00 20.7 C 13.14 g/m*3 20.7 C 3.2 km/h
991 04-07-2014 10:30:00 21 C 13.19 g/m*3 21 C 1.6 km/h
992 04-07-2014 10:35:00 21.1 C 13.08 g/m*3 21.1 C 0 km/h
993 04-07-2014 10:40:00 21.2 C 13.34 g/m*3 21.2 C 0 km/h
994 04-07-2014 10:45:00 21.3 C 13.23 g/m*3 21.3 C 0 km/h
995 04-07-2014 10:50:00 21.6 C 13.47 g/m*3 21.6 C 1.6 km/h
996 04-07-2014 10:55:00 21.8 C 13.62 g/m*3 21.8 C 0 km/h
997 04-07-2014 11:00:00 22.1 C 13.47 g/m*3 22.1 C 1.6 km/h
998 04-07-2014 11:05:00 22.3 C 13.62 g/m*3 22.3 C 4.8 km/h
999 04-07-2014 11:10:00 22.5 C 13.78 g/m*3 22.5 C 1.6 km/h
1000 04-07-2014 11:15:00 22.8 C 13.82 g/m*3 22.8 C 0 km/h
Sensor: Nr:Datum:Temp:Abs-Feuchte:Windchill:Wind:
Aussen-T/F 1001 04-07-2014 11:20:00 23 C 14.39 g/m*3 23 C 3.2 km/h
1002 04-07-2014 11:25:00 23.2 C 14.14 g/m*3 23.2 C 1.6 km/h
1003 04-07-2014 11:30:00 23.6 C 14.25 g/m*3 23.6 C 0 km/h
1004 04-07-2014 11:35:00 23.9 C 14.28 g/m*3 23.9 C 1.6 km/h
1005 04-07-2014 11:40:00 24.7 C 13.58 g/m*3 24.7 C 6.4 km/h
1006 04-07-2014 11:45:00 25.2 C 14.2 g/m*3 25.2 C 4.8 km/h
1007 04-07-2014 11:50:00 25.8 C 13 g/m*3 25.8 C 6.4 km/h
1008 04-07-2014 11:55:00 26.5 C 13.52 g/m*3 26.5 C 4.8 km/h
1009 04-07-2014 12:00:00 27.4 C 12.37 g/m*3 27.4 C 8.1 km/h
1010 04-07-2014 12:05:00 27.6 C 13.3 g/m*3 27.6 C 6.4 km/h
1011 04-07-2014 12:10:00 27.8 C 12.37 g/m*3 27.8 C 6.4 km/h
1012 04-07-2014 12:15:00 28.3 C 12.16 g/m*3 28.3 C 9.7 km/h
1013 04-07-2014 12:20:00 28.8 C 13.07 g/m*3 28.8 C 9.7 km/h
1014 04-07-2014 12:25:00 29 C 12.93 g/m*3 29 C 11.3 km/h
1015 04-07-2014 12:30:00 29.2 C 12.2 g/m*3 29.2 C 9.7 km/h
1016 04-07-2014 12:35:00 29.2 C 11.91 g/m*3 29.2 C 4.8 km/h
1017 04-07-2014 12:40:00 29.4 C 12.33 g/m*3 29.4 C 6.4 km/h
1018 04-07-2014 12:45:00 29.7 C 11.93 g/m*3 29.7 C 11.3 km/h
1019 04-07-2014 12:50:00 29.8 C 11.7 g/m*3 29.8 C 6.4 km/h
1020 04-07-2014 12:55:00 30 C 12.13 g/m*3 30 C 6.4 km/h
1021 04-07-2014 13:00:00 30.2 C 11.04 g/m*3 30.2 C 9.7 km/h
1022 04-07-2014 13:05:00 30.2 C 12.87 g/m*3 30.2 C 4.8 km/h
1023 04-07-2014 13:10:00 30.1 C 11.59 g/m*3 30.1 C 6.4 km/h
1024 04-07-2014 13:15:00 30.1 C 10.98 g/m*3 30.1 C 6.4 km/h
1025 04-07-2014 13:20:00 30.1 C 10.37 g/m*3 30.1 C 4.8 km/h
Sensor: Nr:Datum:Temp:Abs-Feuchte:Windchill:Wind:
Aussen-T/F 1026 04-07-2014 13:25:00 30.2 C 10.73 g/m*3 30.2 C 12.9 km/h
1027 04-07-2014 13:30:00 30.4 C 11.77 g/m*3 30.4 C 4.8 km/h
1028 04-07-2014 13:35:00 30.2 C 9.5 g/m*3 30.2 C 11.3 km/h
1029 04-07-2014 13:40:00 30.1 C 9.45 g/m*3 30.1 C 8.1 km/h
1030 04-07-2014 13:45:00 30.3 C 9.86 g/m*3 30.3 C 11.3 km/h
1031 04-07-2014 13:50:00 30.6 C 9.71 g/m*3 30.6 C 11.3 km/h
1032 04-07-2014 13:55:00 30.6 C 9.4 g/m*3 30.6 C 8.1 km/h
1033 04-07-2014 14:00:00 30.4 C 9.61 g/m*3 30.4 C 4.8 km/h
1034 04-07-2014 14:05:00 30.2 C 9.2 g/m*3 30.2 C 8.1 km/h
1035 04-07-2014 14:10:00 29.9 C 12.37 g/m*3 29.9 C 3.2 km/h
1036 04-07-2014 14:15:00 29.5 C 10.92 g/m*3 29.5 C 3.2 km/h
1037 04-07-2014 14:20:00 29.3 C 11.09 g/m*3 29.3 C 3.2 km/h
1038 04-07-2014 14:25:00 29.4 C 9.69 g/m*3 29.4 C 11.3 km/h
1039 04-07-2014 14:30:00 29.3 C 10.51 g/m*3 29.3 C 4.8 km/h
1040 04-07-2014 14:35:00 29.2 C 10.16 g/m*3 29.2 C 3.2 km/h
1041 04-07-2014 14:40:00 29.3 C 9.93 g/m*3 29.3 C 4.8 km/h
1042 04-07-2014 14:45:00 29.6 C 10.68 g/m*3 29.6 C 3.2 km/h
1043 04-07-2014 14:50:00 29.7 C 11.34 g/m*3 29.7 C 12.9 km/h
1044 04-07-2014 14:55:00 29.9 C 9.35 g/m*3 29.9 C 14.5 km/h
1045 04-07-2014 15:00:00 30.1 C 9.15 g/m*3 30.1 C 4.8 km/h
1046 04-07-2014 15:05:00 29.9 C 9.95 g/m*3 29.9 C 8.1 km/h
1047 04-07-2014 15:10:00 29.8 C 9.9 g/m*3 29.8 C 3.2 km/h
1048 04-07-2014 15:15:00 29.7 C 9.25 g/m*3 29.7 C 9.7 km/h
1049 04-07-2014 15:20:00 29.6 C 9.5 g/m*3 29.6 C 6.4 km/h
1050 04-07-2014 15:25:00 29.6 C 12.17 g/m*3 29.6 C 4.8 km/h
Sensor: Nr:Datum:Temp:Abs-Feuchte:Windchill:Wind:
Aussen-T/F 1051 04-07-2014 15:30:00 29.2 C 11.91 g/m*3 29.2 C 1.6 km/h
1052 04-07-2014 15:35:00 28.6 C 11.8 g/m*3 28.6 C 4.8 km/h
1053 04-07-2014 15:40:00 27.7 C 12.57 g/m*3 27.7 C 0 km/h
1054 04-07-2014 15:45:00 26.8 C 13.74 g/m*3 26.8 C 0 km/h
1055 04-07-2014 15:50:00 26 C 14.12 g/m*3 26 C 1.6 km/h
1056 04-07-2014 15:55:00 25.3 C 13.81 g/m*3 25.3 C 1.6 km/h
1057 04-07-2014 16:00:00 24.4 C 13.35 g/m*3 24.4 C 1.6 km/h
1058 04-07-2014 16:05:00 23.8 C 13.55 g/m*3 23.8 C 1.6 km/h
1059 04-07-2014 16:10:00 23.2 C 13.51 g/m*3 23.2 C 1.6 km/h
1060 04-07-2014 16:15:00 22.8 C 12.8 g/m*3 22.8 C 1.6 km/h
1061 04-07-2014 16:20:00 22.7 C 13.33 g/m*3 22.7 C 1.6 km/h
1062 04-07-2014 16:25:00 22.7 C 13.54 g/m*3 22.7 C 1.6 km/h
1063 04-07-2014 16:30:00 22.8 C 13.82 g/m*3 22.8 C 0 km/h
1064 04-07-2014 16:35:00 23.1 C 13.85 g/m*3 23.1 C 0 km/h
1065 04-07-2014 16:40:00 23.7 C 12.83 g/m*3 23.7 C 4.8 km/h
1066 04-07-2014 16:45:00 24.7 C 11.77 g/m*3 24.7 C 1.6 km/h
1067 04-07-2014 16:50:00 25.8 C 12.28 g/m*3 25.8 C 1.6 km/h
1068 04-07-2014 16:55:00 26.7 C 13.92 g/m*3 26.7 C 4.8 km/h
1069 04-07-2014 17:00:00 27.1 C 11.13 g/m*3 27.1 C 6.4 km/h
1070 04-07-2014 17:05:00 27.1 C 13.97 g/m*3 27.1 C 3.2 km/h
1071 04-07-2014 17:10:00 26.5 C 13.52 g/m*3 26.5 C 1.6 km/h
1072 04-07-2014 17:15:00 26.1 C 13.95 g/m*3 26.1 C 1.6 km/h
1073 04-07-2014 17:20:00 25.9 C 14.28 g/m*3 25.9 C 0 km/h
1074 04-07-2014 17:25:00 25.9 C 13.32 g/m*3 25.9 C 3.2 km/h
1075 04-07-2014 17:30:00 26 C 12.66 g/m*3 26 C 4.8 km/h
Sensor: Nr:Datum:Temp:Abs-Feuchte:Windchill:Wind:
Aussen-T/F 1076 04-07-2014 17:35:00 26.1 C 12.24 g/m*3 26.1 C 4.8 km/h
1077 04-07-2014 17:40:00 26.5 C 12.02 g/m*3 26.5 C 3.2 km/h
1078 04-07-2014 17:45:00 27.3 C 11.25 g/m*3 27.3 C 9.7 km/h
1079 04-07-2014 17:50:00 28.2 C 12.1 g/m*3 28.2 C 9.7 km/h
1080 04-07-2014 17:55:00 28.6 C 12.93 g/m*3 28.6 C 6.4 km/h
1081 04-07-2014 18:00:00 27.9 C 12.17 g/m*3 27.9 C 3.2 km/h
1082 04-07-2014 18:05:00 27.8 C 11.83 g/m*3 27.8 C 6.4 km/h
1083 04-07-2014 18:10:00 28.4 C 11.67 g/m*3 28.4 C 9.7 km/h
1084 04-07-2014 18:15:00 28.8 C 11.36 g/m*3 28.8 C 4.8 km/h
1085 04-07-2014 18:20:00 28.7 C 13.56 g/m*3 28.7 C 1.6 km/h
1086 04-07-2014 18:25:00 28.1 C 13.67 g/m*3 28.1 C 3.2 km/h
1087 04-07-2014 18:30:00 27.4 C 13.42 g/m*3 27.4 C 1.6 km/h
1088 04-07-2014 18:35:00 26.5 C 14.02 g/m*3 26.5 C 0 km/h
1089 04-07-2014 18:40:00 25.7 C 14.13 g/m*3 25.7 C 0 km/h
1090 04-07-2014 18:45:00 25.1 C 14.12 g/m*3 25.1 C 0 km/h
1091 04-07-2014 18:50:00 24.8 C 14.11 g/m*3 24.8 C 0 km/h
1092 04-07-2014 18:55:00 24.5 C 14.1 g/m*3 24.5 C 0 km/h
1093 04-07-2014 19:00:00 24.1 C 14.66 g/m*3 24.1 C 0 km/h
1094 04-07-2014 19:05:00 23.4 C 14.09 g/m*3 23.4 C 1.6 km/h
1095 04-07-2014 19:10:00 23 C 14.18 g/m*3 23 C 1.6 km/h
1096 04-07-2014 19:15:00 22.7 C 13.94 g/m*3 22.7 C 0 km/h
1097 04-07-2014 19:20:00 22.6 C 14.06 g/m*3 22.6 C 0 km/h
1098 04-07-2014 19:25:00 22.2 C 14.14 g/m*3 22.2 C 1.6 km/h
1099 04-07-2014 19:30:00 21.9 C 14.09 g/m*3 21.9 C 3.2 km/h
1100 04-07-2014 19:35:00 21.7 C 13.93 g/m*3 21.7 C 1.6 km/h
Sensor: Nr:Datum:Temp:Abs-Feuchte:Windchill:Wind:
Aussen-T/F 1101 04-07-2014 19:40:00 21.6 C 14.03 g/m*3 21.6 C 0 km/h
1102 04-07-2014 19:45:00 21.6 C 14.03 g/m*3 21.6 C 1.6 km/h
1103 04-07-2014 19:50:00 21.6 C 13.66 g/m*3 21.6 C 3.2 km/h
1104 04-07-2014 19:55:00 21.6 C 13.28 g/m*3 21.6 C 1.6 km/h
1105 04-07-2014 20:00:00 21.7 C 12.4 g/m*3 21.7 C 1.6 km/h
1106 04-07-2014 20:05:00 21.7 C 12.97 g/m*3 21.7 C 1.6 km/h
1107 04-07-2014 20:10:00 21.8 C 11.9 g/m*3 21.8 C 4.8 km/h
1108 04-07-2014 20:15:00 22.3 C 11.45 g/m*3 22.3 C 4.8 km/h
1109 04-07-2014 20:20:00 22.5 C 12.78 g/m*3 22.5 C 0 km/h
1110 04-07-2014 20:25:00 22.5 C 12.78 g/m*3 22.5 C 0 km/h
1111 04-07-2014 20:30:00 22.2 C 13.15 g/m*3 22.2 C 0 km/h
1112 04-07-2014 20:35:00 21.9 C 12.93 g/m*3 21.9 C 0 km/h
1113 04-07-2014 20:40:00 21.7 C 12.97 g/m*3 21.7 C 0 km/h
1114 04-07-2014 20:45:00 21.4 C 12.56 g/m*3 21.4 C 0 km/h
1115 04-07-2014 20:50:00 21.3 C 12.68 g/m*3 21.3 C 0 km/h
1116 04-07-2014 20:55:00 21.1 C 12.71 g/m*3 21.1 C 0 km/h
1117 04-07-2014 21:00:00 21.1 C 12.71 g/m*3 21.1 C 0 km/h
1118 04-07-2014 21:05:00 21.1 C 12.71 g/m*3 21.1 C 0 km/h
1119 04-07-2014 21:10:00 20.9 C 12.75 g/m*3 20.9 C 0 km/h
1120 04-07-2014 21:15:00 20.8 C 12.86 g/m*3 20.8 C 0 km/h
1121 04-07-2014 21:20:00 20.4 C 12.91 g/m*3 20.4 C 1.6 km/h
1122 04-07-2014 21:25:00 20.1 C 13.21 g/m*3 20.1 C 1.6 km/h
1123 04-07-2014 21:30:00 20 C 13.31 g/m*3 20 C 3.2 km/h
1124 04-07-2014 21:35:00 19.6 C 13.51 g/m*3 19.6 C 0 km/h
1125 04-07-2014 21:40:00 19.4 C 13.35 g/m*3 19.4 C 1.6 km/h
Sensor: Nr:Datum:Temp:Abs-Feuchte:Windchill:Wind:
Aussen-T/F 1126 04-07-2014 21:45:00 19.3 C 13.44 g/m*3 19.3 C 0 km/h
1127 04-07-2014 21:50:00 19.2 C 13.36 g/m*3 19.2 C 3.2 km/h
1128 04-07-2014 21:55:00 19.1 C 13.28 g/m*3 19.1 C 3.2 km/h
1129 04-07-2014 22:00:00 19.1 C 13.11 g/m*3 19.1 C 3.2 km/h
1130 04-07-2014 22:05:00 19.2 C 13.19 g/m*3 19.2 C 3.2 km/h
1131 04-07-2014 22:10:00 19.2 C 13.03 g/m*3 19.2 C 3.2 km/h
1132 04-07-2014 22:15:00 19.2 C 13.03 g/m*3 19.2 C 1.6 km/h
1133 04-07-2014 22:20:00 19.3 C 12.94 g/m*3 19.3 C 1.6 km/h
1134 04-07-2014 22:25:00 19.6 C 12.83 g/m*3 19.6 C 3.2 km/h
1135 04-07-2014 22:30:00 19.7 C 12.57 g/m*3 19.7 C 3.2 km/h
1136 04-07-2014 22:35:00 19.8 C 12.98 g/m*3 19.8 C 1.6 km/h
1137 04-07-2014 22:40:00 19.8 C 12.81 g/m*3 19.8 C 1.6 km/h
1138 04-07-2014 22:45:00 19.8 C 12.98 g/m*3 19.8 C 0 km/h
1139 04-07-2014 22:50:00 19.8 C 12.98 g/m*3 19.8 C 1.6 km/h
1140 04-07-2014 22:55:00 19.7 C 12.91 g/m*3 19.7 C 1.6 km/h
1141 04-07-2014 23:00:00 19.7 C 12.91 g/m*3 19.7 C 1.6 km/h
1142 04-07-2014 23:05:00 19.7 C 12.74 g/m*3 19.7 C 1.6 km/h
1143 04-07-2014 23:10:00 19.8 C 12.81 g/m*3 19.8 C 1.6 km/h
1144 04-07-2014 23:15:00 19.7 C 12.74 g/m*3 19.7 C 0 km/h
1145 04-07-2014 23:20:00 19.7 C 12.74 g/m*3 19.7 C 0 km/h
1146 04-07-2014 23:25:00 19.7 C 12.74 g/m*3 19.7 C 0 km/h
1147 04-07-2014 23:30:00 19.7 C 12.74 g/m*3 19.7 C 0 km/h
1148 04-07-2014 23:35:00 19.7 C 12.91 g/m*3 19.7 C 0 km/h
1149 04-07-2014 23:40:00 19.7 C 12.91 g/m*3 19.7 C 0 km/h
1150 04-07-2014 23:45:00 19.7 C 12.91 g/m*3 19.7 C 0 km/h
Sensor: Nr:Datum:Temp:Abs-Feuchte:Windchill:Wind:
Aussen-T/F 1151 04-07-2014 23:50:00 19.7 C 12.74 g/m*3 19.7 C 0 km/h
1152 04-07-2014 23:55:00 19.7 C 12.74 g/m*3 19.7 C 0 km/h
1153 05-07-2014 00:00:00 19.7 C 12.74 g/m*3 19.7 C 0 km/h
1154 05-07-2014 00:05:00 19.7 C 12.91 g/m*3 19.7 C 0 km/h
1155 05-07-2014 00:10:00 19.7 C 12.74 g/m*3 19.7 C 0 km/h
1156 05-07-2014 00:15:00 19.7 C 12.74 g/m*3 19.7 C 0 km/h
1157 05-07-2014 00:20:00 19.7 C 12.91 g/m*3 19.7 C 0 km/h
1158 05-07-2014 00:25:00 19.7 C 13.08 g/m*3 19.7 C 0 km/h
1159 05-07-2014 00:30:00 19.7 C 12.74 g/m*3 19.7 C 0 km/h
1160 05-07-2014 00:35:00 19.7 C 12.91 g/m*3 19.7 C 0 km/h
1161 05-07-2014 00:40:00 19.8 C 12.64 g/m*3 19.8 C 0 km/h
1162 05-07-2014 00:45:00 19.9 C 12.54 g/m*3 19.9 C 3.2 km/h
1163 05-07-2014 00:50:00 19.9 C 12.54 g/m*3 19.9 C 1.6 km/h
1164 05-07-2014 00:55:00 20 C 12.79 g/m*3 20 C 1.6 km/h
1165 05-07-2014 01:00:00 19.9 C 12.71 g/m*3 19.9 C 0 km/h
1166 05-07-2014 01:05:00 19.9 C 12.71 g/m*3 19.9 C 1.6 km/h
1167 05-07-2014 01:10:00 19.8 C 12.64 g/m*3 19.8 C 1.6 km/h
1168 05-07-2014 01:15:00 19.8 C 12.81 g/m*3 19.8 C 0 km/h
1169 05-07-2014 01:20:00 19.7 C 12.74 g/m*3 19.7 C 1.6 km/h
1170 05-07-2014 01:25:00 19.7 C 12.91 g/m*3 19.7 C 0 km/h
1171 05-07-2014 01:30:00 19.6 C 12.83 g/m*3 19.6 C 0 km/h
1172 05-07-2014 01:35:00 19.4 C 12.85 g/m*3 19.4 C 1.6 km/h
1173 05-07-2014 01:40:00 19.3 C 12.77 g/m*3 19.3 C 1.6 km/h
1174 05-07-2014 01:45:00 19.3 C 12.77 g/m*3 19.3 C 0 km/h
1175 05-07-2014 01:50:00 19.3 C 12.77 g/m*3 19.3 C 1.6 km/h
Sensor: Nr:Datum:Temp:Abs-Feuchte:Windchill:Wind:
Aussen-T/F 1176 05-07-2014 01:55:00 19.3 C 12.61 g/m*3 19.3 C 0 km/h
1177 05-07-2014 02:00:00 19.4 C 12.68 g/m*3 19.4 C 0 km/h
1178 05-07-2014 02:05:00 19.5 C 12.92 g/m*3 19.5 C 0 km/h
1179 05-07-2014 02:10:00 19.3 C 12.94 g/m*3 19.3 C 0 km/h
1180 05-07-2014 02:15:00 19.2 C 12.7 g/m*3 19.2 C 1.6 km/h
1181 05-07-2014 02:20:00 19.2 C 12.53 g/m*3 19.2 C 3.2 km/h
1182 05-07-2014 02:25:00 19.2 C 12.7 g/m*3 19.2 C 0 km/h
1183 05-07-2014 02:30:00 18.9 C 12.64 g/m*3 18.9 C 0 km/h
1184 05-07-2014 02:35:00 18.7 C 12.49 g/m*3 18.7 C 0 km/h
1185 05-07-2014 02:40:00 18.4 C 12.43 g/m*3 18.4 C 0 km/h
1186 05-07-2014 02:45:00 18.2 C 12.43 g/m*3 18.2 C 0 km/h
1187 05-07-2014 02:50:00 18.1 C 12.36 g/m*3 18.1 C 0 km/h
1188 05-07-2014 02:55:00 18 C 12.44 g/m*3 18 C 0 km/h
1189 05-07-2014 03:00:00 18 C 12.44 g/m*3 18 C 0 km/h
1190 05-07-2014 03:05:00 18.1 C 12.67 g/m*3 18.1 C 1.6 km/h
1191 05-07-2014 03:10:00 18.1 C 12.52 g/m*3 18.1 C 0 km/h
1192 05-07-2014 03:15:00 18.2 C 12.43 g/m*3 18.2 C 1.6 km/h
1193 05-07-2014 03:20:00 18.5 C 12.5 g/m*3 18.5 C 1.6 km/h
1194 05-07-2014 03:25:00 18.8 C 12.56 g/m*3 18.8 C 0 km/h
1195 05-07-2014 03:30:00 18.9 C 12.47 g/m*3 18.9 C 1.6 km/h
1196 05-07-2014 03:35:00 19.1 C 12.46 g/m*3 19.1 C 6.4 km/h
1197 05-07-2014 03:40:00 19.1 C 12.46 g/m*3 19.1 C 6.4 km/h
1198 05-07-2014 03:45:00 19.1 C 12.46 g/m*3 19.1 C 1.6 km/h
1199 05-07-2014 03:50:00 19.1 C 12.46 g/m*3 19.1 C 3.2 km/h
1200 05-07-2014 03:55:00 19.1 C 12.62 g/m*3 19.1 C 3.2 km/h
Sensor: Nr:Datum:Temp:Abs-Feuchte:Windchill:Wind:
Aussen-T/F 1201 05-07-2014 04:00:00 19 C 12.39 g/m*3 19 C 0 km/h
1202 05-07-2014 04:05:00 18.9 C 12.31 g/m*3 18.9 C 3.2 km/h
1203 05-07-2014 04:10:00 18.8 C 12.24 g/m*3 18.8 C 1.6 km/h
1204 05-07-2014 04:15:00 18.7 C 12.33 g/m*3 18.7 C 0 km/h
1205 05-07-2014 04:20:00 18.4 C 12.27 g/m*3 18.4 C 0 km/h
1206 05-07-2014 04:25:00 18.2 C 12.28 g/m*3 18.2 C 1.6 km/h
1207 05-07-2014 04:30:00 18.2 C 12.28 g/m*3 18.2 C 0 km/h
1208 05-07-2014 04:35:00 18.2 C 12.28 g/m*3 18.2 C 0 km/h
1209 05-07-2014 04:40:00 18.2 C 12.28 g/m*3 18.2 C 0 km/h
1210 05-07-2014 04:45:00 18.2 C 12.28 g/m*3 18.2 C 1.6 km/h
1211 05-07-2014 04:50:00 18.2 C 12.12 g/m*3 18.2 C 1.6 km/h
1212 05-07-2014 04:55:00 18.3 C 12.2 g/m*3 18.3 C 0 km/h
1213 05-07-2014 05:00:00 18.3 C 12.2 g/m*3 18.3 C 1.6 km/h
1214 05-07-2014 05:05:00 18.3 C 12.2 g/m*3 18.3 C 0 km/h
1215 05-07-2014 05:10:00 18.3 C 12.2 g/m*3 18.3 C 3.2 km/h
1216 05-07-2014 05:15:00 18.3 C 12.2 g/m*3 18.3 C 0 km/h
1217 05-07-2014 05:20:00 18.3 C 12.35 g/m*3 18.3 C 0 km/h
1218 05-07-2014 05:25:00 18.3 C 12.35 g/m*3 18.3 C 3.2 km/h
1219 05-07-2014 05:30:00 18.2 C 12.43 g/m*3 18.2 C 0 km/h
1220 05-07-2014 05:35:00 18.1 C 12.21 g/m*3 18.1 C 0 km/h
1221 05-07-2014 05:40:00 18.1 C 12.21 g/m*3 18.1 C 0 km/h
1222 05-07-2014 05:45:00 18.1 C 12.21 g/m*3 18.1 C 4.8 km/h
1223 05-07-2014 05:50:00 18.1 C 12.21 g/m*3 18.1 C 4.8 km/h
1224 05-07-2014 05:55:00 18.2 C 12.28 g/m*3 18.2 C 0 km/h
1225 05-07-2014 06:00:00 18.2 C 12.28 g/m*3 18.2 C 0 km/h
Sensor: Nr:Datum:Temp:Abs-Feuchte:Windchill:Wind:
Aussen-T/F 1226 05-07-2014 06:05:00 18.1 C 12.21 g/m*3 18.1 C 0 km/h
1227 05-07-2014 06:10:00 18.1 C 12.21 g/m*3 18.1 C 0 km/h
1228 05-07-2014 06:15:00 18.1 C 12.36 g/m*3 18.1 C 0 km/h
1229 05-07-2014 06:20:00 18.1 C 12.36 g/m*3 18.1 C 0 km/h
1230 05-07-2014 06:25:00 18 C 12.29 g/m*3 18 C 0 km/h
1231 05-07-2014 06:30:00 17.9 C 12.37 g/m*3 17.9 C 0 km/h
1232 05-07-2014 06:35:00 17.8 C 12.29 g/m*3 17.8 C 0 km/h
1233 05-07-2014 06:40:00 17.9 C 12.37 g/m*3 17.9 C 0 km/h
1234 05-07-2014 06:45:00 17.9 C 12.37 g/m*3 17.9 C 4.8 km/h
1235 05-07-2014 06:50:00 18.1 C 12.52 g/m*3 18.1 C 0 km/h
1236 05-07-2014 06:55:00 18.2 C 12.59 g/m*3 18.2 C 1.6 km/h
1237 05-07-2014 07:00:00 18.3 C 12.66 g/m*3 18.3 C 1.6 km/h
1238 05-07-2014 07:05:00 18.4 C 12.58 g/m*3 18.4 C 1.6 km/h
1239 05-07-2014 07:10:00 18.4 C 12.58 g/m*3 18.4 C 0 km/h
1240 05-07-2014 07:15:00 18.4 C 12.74 g/m*3 18.4 C 0 km/h
1241 05-07-2014 07:20:00 18.3 C 12.82 g/m*3 18.3 C 0 km/h
1242 05-07-2014 07:25:00 18.2 C 12.75 g/m*3 18.2 C 1.6 km/h
1243 05-07-2014 07:30:00 18.2 C 12.75 g/m*3 18.2 C 0 km/h
1244 05-07-2014 07:35:00 18.3 C 12.82 g/m*3 18.3 C 1.6 km/h
1245 05-07-2014 07:40:00 18.6 C 13.05 g/m*3 18.6 C 4.8 km/h
1246 05-07-2014 07:45:00 18.9 C 13.12 g/m*3 18.9 C 4.8 km/h
1247 05-07-2014 07:50:00 19.2 C 13.03 g/m*3 19.2 C 4.8 km/h
1248 05-07-2014 07:55:00 19.6 C 13.17 g/m*3 19.6 C 1.6 km/h
1249 05-07-2014 08:00:00 19.7 C 13.08 g/m*3 19.7 C 6.4 km/h
1250 05-07-2014 08:05:00 19.9 C 13.4 g/m*3 19.9 C 4.8 km/h
Sensor: Nr:Datum:Temp:Abs-Feuchte:Windchill:Wind:
Aussen-T/F 1251 05-07-2014 08:10:00 20.1 C 13.39 g/m*3 20.1 C 9.7 km/h
1252 05-07-2014 08:15:00 20.2 C 13.46 g/m*3 20.2 C 8.1 km/h
1253 05-07-2014 08:20:00 20.3 C 13.54 g/m*3 20.3 C 14.5 km/h
1254 05-07-2014 08:25:00 20.5 C 13.52 g/m*3 20.5 C 6.4 km/h
1255 05-07-2014 08:30:00 20.6 C 13.6 g/m*3 20.6 C 8.1 km/h
1256 05-07-2014 08:35:00 20.6 C 13.6 g/m*3 20.6 C 8.1 km/h
1257 05-07-2014 08:40:00 20.5 C 13.52 g/m*3 20.5 C 6.4 km/h
1258 05-07-2014 08:45:00 20.4 C 13.44 g/m*3 20.4 C 4.8 km/h
1259 05-07-2014 08:50:00 20.3 C 13.37 g/m*3 20.3 C 9.7 km/h
1260 05-07-2014 08:55:00 20.3 C 13.54 g/m*3 20.3 C 6.4 km/h
1261 05-07-2014 09:00:00 20.2 C 13.64 g/m*3 20.2 C 4.8 km/h
1262 05-07-2014 09:05:00 20.2 C 13.64 g/m*3 20.2 C 3.2 km/h
1263 05-07-2014 09:10:00 20.2 C 13.64 g/m*3 20.2 C 4.8 km/h
1264 05-07-2014 09:15:00 20.3 C 13.89 g/m*3 20.3 C 0 km/h
1265 05-07-2014 09:20:00 20.3 C 14.07 g/m*3 20.3 C 3.2 km/h
1266 05-07-2014 09:25:00 20.5 C 13.88 g/m*3 20.5 C 6.4 km/h
1267 05-07-2014 09:30:00 20.7 C 13.86 g/m*3 20.7 C 12.9 km/h
1268 05-07-2014 09:35:00 20.8 C 13.94 g/m*3 20.8 C 9.7 km/h
1269 05-07-2014 09:40:00 20.9 C 14.02 g/m*3 20.9 C 6.4 km/h
1270 05-07-2014 09:45:00 21.1 C 14 g/m*3 21.1 C 8.1 km/h
1271 05-07-2014 09:50:00 21.3 C 13.98 g/m*3 21.3 C 16.1 km/h
1272 05-07-2014 09:55:00 21.7 C 14.12 g/m*3 21.7 C 9.7 km/h
1273 05-07-2014 10:00:00 21.8 C 13.81 g/m*3 21.8 C 11.3 km/h
1274 05-07-2014 10:05:00 21.8 C 14.01 g/m*3 21.8 C 14.5 km/h
1275 05-07-2014 10:10:00 21.8 C 13.62 g/m*3 21.8 C 12.9 km/h
Sensor: Nr:Datum:Temp:Abs-Feuchte:Windchill:Wind:
Aussen-T/F 1276 05-07-2014 10:15:00 21.8 C 13.81 g/m*3 21.8 C 11.3 km/h
1277 05-07-2014 10:20:00 21.8 C 13.81 g/m*3 21.8 C 14.5 km/h
1278 05-07-2014 10:25:00 22.3 C 13.82 g/m*3 22.3 C 11.3 km/h
1279 05-07-2014 10:30:00 22.8 C 14.22 g/m*3 22.8 C 11.3 km/h
1280 05-07-2014 10:35:00 23.1 C 13.85 g/m*3 23.1 C 19.3 km/h
1281 05-07-2014 10:40:00 23.2 C 13.72 g/m*3 23.2 C 14.5 km/h
1282 05-07-2014 10:45:00 23.3 C 13.8 g/m*3 23.3 C 12.9 km/h
1283 05-07-2014 10:50:00 23.2 C 13.51 g/m*3 23.2 C 16.1 km/h
1284 05-07-2014 10:55:00 23 C 13.15 g/m*3 23 C 14.5 km/h
1285 05-07-2014 11:00:00 22.8 C 13.41 g/m*3 22.8 C 12.9 km/h
1286 05-07-2014 11:05:00 22.7 C 12.93 g/m*3 22.7 C 9.7 km/h
1287 05-07-2014 11:10:00 22.8 C 12.8 g/m*3 22.8 C 11.3 km/h
1288 05-07-2014 11:15:00 22.8 C 13 g/m*3 22.8 C 14.5 km/h
1289 05-07-2014 11:20:00 22.9 C 13.08 g/m*3 22.9 C 8.1 km/h
1290 05-07-2014 11:25:00 23 C 12.74 g/m*3 23 C 24.1 km/h
1291 05-07-2014 11:30:00 23.1 C 12.82 g/m*3 23.1 C 19.3 km/h
1292 05-07-2014 11:35:00 23 C 12.54 g/m*3 23 C 14.5 km/h
1293 05-07-2014 11:40:00 22.9 C 12.47 g/m*3 22.9 C 12.9 km/h
1294 05-07-2014 11:45:00 22.8 C 12.6 g/m*3 22.8 C 11.3 km/h
1295 05-07-2014 11:50:00 22.7 C 12.73 g/m*3 22.7 C 12.9 km/h
1296 05-07-2014 11:55:00 22.4 C 12.71 g/m*3 22.4 C 12.9 km/h
1297 05-07-2014 12:00:00 22.2 C 13.35 g/m*3 22.2 C 17.7 km/h
1298 05-07-2014 12:05:00 21.9 C 13.12 g/m*3 21.9 C 12.9 km/h
1299 05-07-2014 12:10:00 21.6 C 13.28 g/m*3 21.6 C 9.7 km/h
1300 05-07-2014 12:15:00 21.3 C 13.42 g/m*3 21.3 C 1.6 km/h
Sensor: Nr:Datum:Temp:Abs-Feuchte:Windchill:Wind:
Aussen-T/F 1301 05-07-2014 12:20:00 21.2 C 13.53 g/m*3 21.2 C 1.6 km/h
1302 05-07-2014 12:25:00 21 C 13.74 g/m*3 21 C 0 km/h
1303 05-07-2014 12:30:00 21 C 14.65 g/m*3 21 C 0 km/h
1304 05-07-2014 12:35:00 21 C 13.92 g/m*3 21 C 3.2 km/h
1305 05-07-2014 12:40:00 21.1 C 14.56 g/m*3 21.1 C 0 km/h
1306 05-07-2014 12:45:00 21.1 C 14.19 g/m*3 21.1 C 12.9 km/h
1307 05-07-2014 12:50:00 20.9 C 14.02 g/m*3 20.9 C 9.7 km/h
1308 05-07-2014 12:55:00 20.8 C 14.3 g/m*3 20.8 C 3.2 km/h
1309 05-07-2014 13:00:00 20.8 C 14.3 g/m*3 20.8 C 0 km/h
1310 05-07-2014 13:05:00 20.7 C 14.22 g/m*3 20.7 C 1.6 km/h
1311 05-07-2014 13:10:00 20.7 C 14.58 g/m*3 20.7 C 3.2 km/h
1312 05-07-2014 13:15:00 20.8 C 14.67 g/m*3 20.8 C 1.6 km/h
1313 05-07-2014 13:20:00 20.9 C 14.93 g/m*3 20.9 C 4.8 km/h
1314 05-07-2014 13:25:00 20.8 C 15.03 g/m*3 20.8 C 4.8 km/h
1315 05-07-2014 13:30:00 20.6 C 14.68 g/m*3 20.6 C 1.6 km/h
1316 05-07-2014 13:35:00 20.4 C 14.51 g/m*3 20.4 C 4.8 km/h
1317 05-07-2014 13:40:00 20.2 C 14.51 g/m*3 20.2 C 6.4 km/h
1318 05-07-2014 13:45:00 20.2 C 14.69 g/m*3 20.2 C 3.2 km/h
1319 05-07-2014 13:50:00 20.2 C 14.69 g/m*3 20.2 C 1.6 km/h
1320 05-07-2014 14:10:00 20.2 C 14.86 g/m*3 20.2 C 3.2 km/h
1321 05-07-2014 14:15:00 20.2 C 15.21 g/m*3 20.2 C 6.4 km/h
1322 05-07-2014 14:20:00 20.2 C 15.04 g/m*3 20.2 C 9.7 km/h
1323 05-07-2014 14:25:00 20.2 C 14.86 g/m*3 20.2 C 8.1 km/h
1324 05-07-2014 14:30:00 20.4 C 15.04 g/m*3 20.4 C 4.8 km/h
1325 05-07-2014 14:35:00 20.6 C 15.03 g/m*3 20.6 C 8.1 km/h
Sensor: Nr:Datum:Temp:Abs-Feuchte:Windchill:Wind:
Aussen-T/F 1326 05-07-2014 14:40:00 20.8 C 15.03 g/m*3 20.8 C 11.3 km/h
1327 05-07-2014 14:45:00 20.9 C 14.93 g/m*3 20.9 C 11.3 km/h
1328 05-07-2014 14:50:00 21 C 15.02 g/m*3 21 C 8.1 km/h
1329 05-07-2014 14:55:00 21.2 C 15.57 g/m*3 21.2 C 9.7 km/h
1330 05-07-2014 15:00:00 21.4 C 14.81 g/m*3 21.4 C 4.8 km/h
1331 05-07-2014 15:05:00 21.4 C 15 g/m*3 21.4 C 9.7 km/h
1332 05-07-2014 15:10:00 21.4 C 15.19 g/m*3 21.4 C 4.8 km/h
1333 05-07-2014 15:15:00 21.3 C 14.91 g/m*3 21.3 C 1.6 km/h
1334 05-07-2014 15:20:00 21.2 C 15.38 g/m*3 21.2 C 1.6 km/h
1335 05-07-2014 15:25:00 21.2 C 14.83 g/m*3 21.2 C 12.9 km/h
1336 05-07-2014 15:30:00 21.2 C 14.64 g/m*3 21.2 C 8.1 km/h
1337 05-07-2014 15:35:00 21.1 C 14.19 g/m*3 21.1 C 17.7 km/h
1338 05-07-2014 15:40:00 21.1 C 14.56 g/m*3 21.1 C 9.7 km/h
1339 05-07-2014 15:45:00 21.1 C 14.56 g/m*3 21.1 C 11.3 km/h
1340 05-07-2014 15:50:00 21.1 C 14.56 g/m*3 21.1 C 11.3 km/h
1341 05-07-2014 15:55:00 21.3 C 14.54 g/m*3 21.3 C 9.7 km/h
1342 05-07-2014 16:00:00 21.3 C 14.54 g/m*3 21.3 C 12.9 km/h
1343 05-07-2014 16:05:00 21.4 C 14.44 g/m*3 21.4 C 11.3 km/h
1344 05-07-2014 16:10:00 21.6 C 14.6 g/m*3 21.6 C 22.5 km/h
1345 05-07-2014 16:15:00 21.6 C 14.6 g/m*3 21.6 C 19.3 km/h
1346 05-07-2014 16:20:00 21.7 C 14.5 g/m*3 21.7 C 9.7 km/h
1347 05-07-2014 16:25:00 21.8 C 14.58 g/m*3 21.8 C 11.3 km/h
1348 05-07-2014 16:30:00 21.9 C 14.67 g/m*3 21.9 C 9.7 km/h
1349 05-07-2014 16:35:00 22 C 14.56 g/m*3 22 C 8.1 km/h
1350 05-07-2014 16:40:00 22.1 C 14.64 g/m*3 22.1 C 11.3 km/h
Sensor: Nr:Datum:Temp:Abs-Feuchte:Windchill:Wind:
Aussen-T/F 1351 05-07-2014 16:45:00 22.2 C 14.53 g/m*3 22.2 C 12.9 km/h
1352 05-07-2014 16:50:00 22.2 C 14.53 g/m*3 22.2 C 14.5 km/h
1353 05-07-2014 16:55:00 22.1 C 14.45 g/m*3 22.1 C 16.1 km/h
1354 05-07-2014 17:00:00 21.9 C 14.28 g/m*3 21.9 C 12.9 km/h
1355 05-07-2014 17:05:00 21.8 C 14.2 g/m*3 21.8 C 6.4 km/h
1356 05-07-2014 17:10:00 21.8 C 14.39 g/m*3 21.8 C 12.9 km/h
1357 05-07-2014 17:15:00 21.9 C 14.67 g/m*3 21.9 C 11.3 km/h
1358 05-07-2014 17:20:00 22.6 C 15.07 g/m*3 22.6 C 9.7 km/h
1359 05-07-2014 17:25:00 23.1 C 14.68 g/m*3 23.1 C 16.1 km/h
1360 05-07-2014 17:30:00 22.9 C 14.51 g/m*3 22.9 C 14.5 km/h
1361 05-07-2014 17:35:00 22.8 C 14.43 g/m*3 22.8 C 22.5 km/h
1362 05-07-2014 17:40:00 22.7 C 14.34 g/m*3 22.7 C 12.9 km/h
1363 05-07-2014 17:45:00 22.7 C 14.75 g/m*3 22.7 C 8.1 km/h
1364 05-07-2014 17:50:00 22.6 C 14.46 g/m*3 22.6 C 14.5 km/h
1365 05-07-2014 17:55:00 22.6 C 14.46 g/m*3 22.6 C 16.1 km/h
1366 05-07-2014 18:00:00 22.7 C 14.75 g/m*3 22.7 C 17.7 km/h
1367 05-07-2014 18:05:00 22.7 C 14.55 g/m*3 22.7 C 16.1 km/h
1368 05-07-2014 18:10:00 22.6 C 14.46 g/m*3 22.6 C 16.1 km/h
1369 05-07-2014 18:15:00 22.6 C 14.66 g/m*3 22.6 C 14.5 km/h
1370 05-07-2014 18:20:00 22.5 C 14.38 g/m*3 22.5 C 14.5 km/h
1371 05-07-2014 18:25:00 22.3 C 14.41 g/m*3 22.3 C 16.1 km/h
1372 05-07-2014 18:30:00 22.2 C 14.33 g/m*3 22.2 C 8.1 km/h
1373 05-07-2014 18:35:00 22.2 C 14.53 g/m*3 22.2 C 9.7 km/h
1374 05-07-2014 18:40:00 22 C 14.36 g/m*3 22 C 12.9 km/h
1375 05-07-2014 18:45:00 21.9 C 14.47 g/m*3 21.9 C 9.7 km/h
Sensor: Nr:Datum:Temp:Abs-Feuchte:Windchill:Wind:
Aussen-T/F 1376 05-07-2014 18:50:00 21.8 C 14.39 g/m*3 21.8 C 8.1 km/h
1377 05-07-2014 18:55:00 21.7 C 14.5 g/m*3 21.7 C 11.3 km/h
1378 05-07-2014 19:00:00 21.6 C 14.41 g/m*3 21.6 C 4.8 km/h
1379 05-07-2014 19:05:00 21.6 C 14.6 g/m*3 21.6 C 11.3 km/h
1380 05-07-2014 19:10:00 21.6 C 14.6 g/m*3 21.6 C 9.7 km/h
1381 05-07-2014 19:15:00 21.6 C 14.6 g/m*3 21.6 C 11.3 km/h
1382 05-07-2014 19:20:00 21.5 C 14.52 g/m*3 21.5 C 9.7 km/h
1383 05-07-2014 19:25:00 21.4 C 14.44 g/m*3 21.4 C 9.7 km/h
1384 05-07-2014 19:30:00 21.4 C 14.44 g/m*3 21.4 C 16.1 km/h
1385 05-07-2014 19:35:00 21.3 C 14.54 g/m*3 21.3 C 4.8 km/h
1386 05-07-2014 19:40:00 21.3 C 14.73 g/m*3 21.3 C 8.1 km/h
1387 05-07-2014 19:45:00 21.3 C 14.73 g/m*3 21.3 C 11.3 km/h
1388 05-07-2014 19:50:00 21.3 C 14.54 g/m*3 21.3 C 6.4 km/h
1389 05-07-2014 19:55:00 21.3 C 14.73 g/m*3 21.3 C 3.2 km/h
1390 05-07-2014 20:00:00 21.3 C 14.54 g/m*3 21.3 C 4.8 km/h
1391 05-07-2014 20:05:00 21.3 C 14.54 g/m*3 21.3 C 6.4 km/h
1392 05-07-2014 20:10:00 21.3 C 14.54 g/m*3 21.3 C 6.4 km/h
1393 05-07-2014 20:15:00 21.2 C 14.64 g/m*3 21.2 C 6.4 km/h
1394 05-07-2014 20:20:00 21.2 C 14.64 g/m*3 21.2 C 8.1 km/h
1395 05-07-2014 20:25:00 21.1 C 14.56 g/m*3 21.1 C 6.4 km/h
1396 05-07-2014 20:30:00 21.1 C 14.74 g/m*3 21.1 C 14.5 km/h
1397 05-07-2014 20:35:00 21 C 14.65 g/m*3 21 C 11.3 km/h
1398 05-07-2014 20:40:00 20.9 C 14.57 g/m*3 20.9 C 12.9 km/h
1399 05-07-2014 20:45:00 20.9 C 14.75 g/m*3 20.9 C 9.7 km/h
1400 05-07-2014 20:50:00 20.8 C 14.67 g/m*3 20.8 C 8.1 km/h
Sensor: Nr:Datum:Temp:Abs-Feuchte:Windchill:Wind:
Aussen-T/F 1401 05-07-2014 20:55:00 20.8 C 14.67 g/m*3 20.8 C 4.8 km/h
1402 05-07-2014 21:00:00 20.7 C 14.58 g/m*3 20.7 C 3.2 km/h
1403 05-07-2014 21:05:00 20.7 C 14.58 g/m*3 20.7 C 4.8 km/h
1404 05-07-2014 21:10:00 20.6 C 14.5 g/m*3 20.6 C 4.8 km/h
1405 05-07-2014 21:15:00 20.6 C 14.5 g/m*3 20.6 C 3.2 km/h
1406 05-07-2014 21:20:00 20.6 C 14.5 g/m*3 20.6 C 8.1 km/h
1407 05-07-2014 21:25:00 20.6 C 14.5 g/m*3 20.6 C 6.4 km/h
1408 05-07-2014 21:30:00 20.6 C 14.5 g/m*3 20.6 C 3.2 km/h
1409 05-07-2014 21:35:00 20.5 C 14.41 g/m*3 20.5 C 9.7 km/h
1410 05-07-2014 21:40:00 20.5 C 14.59 g/m*3 20.5 C 4.8 km/h
1411 05-07-2014 21:45:00 20.4 C 14.33 g/m*3 20.4 C 8.1 km/h
1412 05-07-2014 21:50:00 20.4 C 14.33 g/m*3 20.4 C 6.4 km/h
1413 05-07-2014 21:55:00 20.4 C 14.33 g/m*3 20.4 C 4.8 km/h
1414 05-07-2014 22:00:00 20.4 C 14.33 g/m*3 20.4 C 4.8 km/h
1415 05-07-2014 22:05:00 20.4 C 14.33 g/m*3 20.4 C 1.6 km/h
1416 05-07-2014 22:10:00 20.3 C 14.25 g/m*3 20.3 C 8.1 km/h
1417 05-07-2014 22:15:00 20.3 C 14.25 g/m*3 20.3 C 9.7 km/h
1418 05-07-2014 22:20:00 20.2 C 14.34 g/m*3 20.2 C 9.7 km/h
1419 05-07-2014 22:25:00 20.3 C 14.42 g/m*3 20.3 C 6.4 km/h
1420 05-07-2014 22:30:00 20.3 C 14.42 g/m*3 20.3 C 6.4 km/h
1421 05-07-2014 22:35:00 20.2 C 14.34 g/m*3 20.2 C 8.1 km/h
1422 05-07-2014 22:40:00 20.2 C 14.34 g/m*3 20.2 C 4.8 km/h
1423 05-07-2014 22:45:00 20.2 C 14.51 g/m*3 20.2 C 4.8 km/h
1424 05-07-2014 22:50:00 20.1 C 14.43 g/m*3 20.1 C 1.6 km/h
1425 05-07-2014 22:55:00 20.1 C 14.43 g/m*3 20.1 C 0 km/h
Sensor: Nr:Datum:Temp:Abs-Feuchte:Windchill:Wind:
Aussen-T/F 1426 05-07-2014 23:00:00 20 C 14.52 g/m*3 20 C 0 km/h
1427 05-07-2014 23:05:00 19.9 C 14.43 g/m*3 19.9 C 0 km/h
1428 05-07-2014 23:10:00 19.9 C 14.43 g/m*3 19.9 C 3.2 km/h
1429 05-07-2014 23:15:00 19.8 C 14.52 g/m*3 19.8 C 1.6 km/h
1430 05-07-2014 23:20:00 19.8 C 14.35 g/m*3 19.8 C 0 km/h
1431 05-07-2014 23:25:00 19.8 C 14.52 g/m*3 19.8 C 0 km/h
1432 05-07-2014 23:30:00 19.7 C 14.43 g/m*3 19.7 C 1.6 km/h
1433 05-07-2014 23:35:00 19.7 C 14.43 g/m*3 19.7 C 4.8 km/h
1434 05-07-2014 23:40:00 19.7 C 14.6 g/m*3 19.7 C 0 km/h
1435 05-07-2014 23:45:00 19.6 C 14.52 g/m*3 19.6 C 0 km/h
1436 05-07-2014 23:50:00 19.6 C 14.52 g/m*3 19.6 C 0 km/h
1437 05-07-2014 23:55:00 19.5 C 14.43 g/m*3 19.5 C 0 km/h
1438 06-07-2014 00:00:00 19.4 C 14.52 g/m*3 19.4 C 0 km/h
1439 06-07-2014 00:05:00 19.4 C 14.52 g/m*3 19.4 C 0 km/h
1440 06-07-2014 00:10:00 19.3 C 14.43 g/m*3 19.3 C 0 km/h
1441 06-07-2014 00:15:00 19.2 C 14.51 g/m*3 19.2 C 0 km/h
1442 06-07-2014 00:20:00 19.1 C 14.43 g/m*3 19.1 C 0 km/h
1443 06-07-2014 00:25:00 19.1 C 14.43 g/m*3 19.1 C 0 km/h
1444 06-07-2014 00:30:00 19 C 14.34 g/m*3 19 C 0 km/h
1445 06-07-2014 00:35:00 18.9 C 14.42 g/m*3 18.9 C 0 km/h
1446 06-07-2014 00:40:00 18.7 C 14.09 g/m*3 18.7 C 0 km/h
1447 06-07-2014 00:45:00 18.6 C 14.17 g/m*3 18.6 C 0 km/h
1448 06-07-2014 00:50:00 18.5 C 14.08 g/m*3 18.5 C 0 km/h
1449 06-07-2014 00:55:00 18.4 C 14.16 g/m*3 18.4 C 0 km/h
1450 06-07-2014 01:00:00 18.4 C 14.16 g/m*3 18.4 C 0 km/h
Sensor: Nr:Datum:Temp:Abs-Feuchte:Windchill:Wind:
Aussen-T/F 1451 06-07-2014 01:05:00 18.3 C 14.07 g/m*3 18.3 C 0 km/h
1452 06-07-2014 01:10:00 18.3 C 14.07 g/m*3 18.3 C 0 km/h
1453 06-07-2014 01:15:00 18.3 C 14.07 g/m*3 18.3 C 0 km/h
1454 06-07-2014 01:20:00 18.2 C 13.99 g/m*3 18.2 C 0 km/h
1455 06-07-2014 01:25:00 18.2 C 14.14 g/m*3 18.2 C 0 km/h
1456 06-07-2014 01:30:00 18.2 C 14.14 g/m*3 18.2 C 0 km/h
1457 06-07-2014 01:35:00 18.2 C 14.14 g/m*3 18.2 C 0 km/h
1458 06-07-2014 01:40:00 18.2 C 14.14 g/m*3 18.2 C 0 km/h
1459 06-07-2014 01:45:00 18.2 C 14.14 g/m*3 18.2 C 0 km/h
1460 06-07-2014 01:50:00 18.2 C 14.14 g/m*3 18.2 C 0 km/h
1461 06-07-2014 01:55:00 18.2 C 14.14 g/m*3 18.2 C 0 km/h
1462 06-07-2014 02:00:00 18.2 C 14.14 g/m*3 18.2 C 0 km/h
1463 06-07-2014 02:05:00 18.2 C 14.14 g/m*3 18.2 C 0 km/h
1464 06-07-2014 02:10:00 18.2 C 14.14 g/m*3 18.2 C 0 km/h
1465 06-07-2014 02:15:00 18.2 C 14.14 g/m*3 18.2 C 0 km/h
1466 06-07-2014 02:20:00 18.1 C 14.06 g/m*3 18.1 C 0 km/h
1467 06-07-2014 02:25:00 18.1 C 14.06 g/m*3 18.1 C 0 km/h
1468 06-07-2014 02:30:00 18.1 C 14.21 g/m*3 18.1 C 0 km/h
1469 06-07-2014 02:35:00 18.1 C 14.21 g/m*3 18.1 C 0 km/h
1470 06-07-2014 02:40:00 18 C 14.13 g/m*3 18 C 0 km/h
1471 06-07-2014 02:45:00 18 C 14.13 g/m*3 18 C 0 km/h
1472 06-07-2014 02:50:00 18 C 14.13 g/m*3 18 C 0 km/h
1473 06-07-2014 02:55:00 18 C 14.13 g/m*3 18 C 0 km/h
1474 06-07-2014 03:00:00 18.1 C 14.21 g/m*3 18.1 C 0 km/h
1475 06-07-2014 03:05:00 18.1 C 14.21 g/m*3 18.1 C 0 km/h
Sensor: Nr:Datum:Temp:Abs-Feuchte:Windchill:Wind:
Aussen-T/F 1476 06-07-2014 03:10:00 18.1 C 14.21 g/m*3 18.1 C 0 km/h
1477 06-07-2014 03:15:00 18.1 C 14.21 g/m*3 18.1 C 0 km/h
1478 06-07-2014 03:20:00 18.1 C 14.21 g/m*3 18.1 C 0 km/h
1479 06-07-2014 03:25:00 18.2 C 14.3 g/m*3 18.2 C 0 km/h
1480 06-07-2014 03:30:00 18.2 C 14.14 g/m*3 18.2 C 0 km/h
1481 06-07-2014 03:35:00 18.2 C 14.14 g/m*3 18.2 C 0 km/h
1482 06-07-2014 03:40:00 18.2 C 14.14 g/m*3 18.2 C 0 km/h
1483 06-07-2014 03:45:00 18.1 C 14.06 g/m*3 18.1 C 0 km/h
1484 06-07-2014 03:50:00 18.1 C 14.06 g/m*3 18.1 C 0 km/h
1485 06-07-2014 03:55:00 18 C 13.98 g/m*3 18 C 0 km/h
1486 06-07-2014 04:00:00 17.9 C 13.89 g/m*3 17.9 C 0 km/h
1487 06-07-2014 04:05:00 17.9 C 14.05 g/m*3 17.9 C 1.6 km/h
1488 06-07-2014 04:10:00 17.9 C 13.89 g/m*3 17.9 C 0 km/h
1489 06-07-2014 04:15:00 18.1 C 14.06 g/m*3 18.1 C 0 km/h
1490 06-07-2014 04:20:00 18.1 C 14.06 g/m*3 18.1 C 0 km/h
1491 06-07-2014 04:25:00 18.1 C 14.06 g/m*3 18.1 C 0 km/h
1492 06-07-2014 04:30:00 18.1 C 14.06 g/m*3 18.1 C 0 km/h
1493 06-07-2014 04:35:00 18.1 C 14.21 g/m*3 18.1 C 0 km/h
1494 06-07-2014 04:40:00 18.1 C 14.21 g/m*3 18.1 C 0 km/h
1495 06-07-2014 04:45:00 18.1 C 14.21 g/m*3 18.1 C 0 km/h
1496 06-07-2014 04:50:00 18.1 C 14.21 g/m*3 18.1 C 0 km/h
1497 06-07-2014 04:55:00 18.1 C 14.21 g/m*3 18.1 C 0 km/h
1498 06-07-2014 05:00:00 18.1 C 14.21 g/m*3 18.1 C 0 km/h
1499 06-07-2014 05:05:00 18.1 C 14.21 g/m*3 18.1 C 0 km/h
1500 06-07-2014 05:10:00 18.1 C 14.37 g/m*3 18.1 C 0 km/h
Sensor: Nr:Datum:Temp:Abs-Feuchte:Windchill:Wind:
Aussen-T/F 1501 06-07-2014 05:15:00 18.1 C 14.37 g/m*3 18.1 C 0 km/h
1502 06-07-2014 05:20:00 18.1 C 14.37 g/m*3 18.1 C 0 km/h
1503 06-07-2014 05:25:00 18.1 C 14.37 g/m*3 18.1 C 0 km/h
1504 06-07-2014 05:30:00 18 C 14.28 g/m*3 18 C 0 km/h
1505 06-07-2014 05:35:00 17.9 C 14.2 g/m*3 17.9 C 0 km/h
1506 06-07-2014 05:40:00 17.9 C 14.35 g/m*3 17.9 C 0 km/h
1507 06-07-2014 05:45:00 17.9 C 14.35 g/m*3 17.9 C 0 km/h
1508 06-07-2014 05:50:00 17.9 C 14.35 g/m*3 17.9 C 0 km/h
1509 06-07-2014 05:55:00 17.8 C 14.27 g/m*3 17.8 C 1.6 km/h
1510 06-07-2014 06:00:00 17.8 C 14.27 g/m*3 17.8 C 0 km/h
1511 06-07-2014 06:05:00 17.8 C 14.27 g/m*3 17.8 C 0 km/h
1512 06-07-2014 06:10:00 17.8 C 14.27 g/m*3 17.8 C 0 km/h
1513 06-07-2014 06:15:00 17.8 C 14.27 g/m*3 17.8 C 0 km/h
1514 06-07-2014 06:20:00 17.8 C 14.27 g/m*3 17.8 C 0 km/h
1515 06-07-2014 06:25:00 17.8 C 14.27 g/m*3 17.8 C 0 km/h
1516 06-07-2014 06:30:00 17.9 C 14.5 g/m*3 17.9 C 0 km/h
1517 06-07-2014 06:35:00 17.9 C 14.35 g/m*3 17.9 C 1.6 km/h
1518 06-07-2014 06:40:00 18 C 14.44 g/m*3 18 C 0 km/h
1519 06-07-2014 06:45:00 18.1 C 14.52 g/m*3 18.1 C 3.2 km/h
1520 06-07-2014 06:50:00 18.2 C 14.61 g/m*3 18.2 C 1.6 km/h
1521 06-07-2014 06:55:00 18.3 C 14.7 g/m*3 18.3 C 0 km/h
1522 06-07-2014 07:00:00 18.4 C 14.63 g/m*3 18.4 C 8.1 km/h
1523 06-07-2014 07:05:00 18.7 C 14.73 g/m*3 18.7 C 4.8 km/h
1524 06-07-2014 07:10:00 18.9 C 14.74 g/m*3 18.9 C 3.2 km/h
1525 06-07-2014 07:15:00 19.2 C 14.84 g/m*3 19.2 C 1.6 km/h
Sensor: Nr:Datum:Temp:Abs-Feuchte:Windchill:Wind:
Aussen-T/F 1526 06-07-2014 07:20:00 19.3 C 14.93 g/m*3 19.3 C 0 km/h
1527 06-07-2014 07:25:00 19.4 C 15.02 g/m*3 19.4 C 1.6 km/h
1528 06-07-2014 07:30:00 19.6 C 15.02 g/m*3 19.6 C 3.2 km/h
1529 06-07-2014 07:35:00 19.8 C 15.2 g/m*3 19.8 C 4.8 km/h
1530 06-07-2014 07:40:00 19.9 C 15.12 g/m*3 19.9 C 1.6 km/h
1531 06-07-2014 07:45:00 19.9 C 15.29 g/m*3 19.9 C 0 km/h
1532 06-07-2014 07:50:00 20 C 15.38 g/m*3 20 C 0 km/h
1533 06-07-2014 07:55:00 20.1 C 15.12 g/m*3 20.1 C 4.8 km/h
1534 06-07-2014 08:00:00 20.4 C 15.21 g/m*3 20.4 C 4.8 km/h
1535 06-07-2014 08:05:00 20.7 C 15.3 g/m*3 20.7 C 4.8 km/h
1536 06-07-2014 08:10:00 20.9 C 15.66 g/m*3 20.9 C 0 km/h
1537 06-07-2014 08:15:00 21.1 C 15.29 g/m*3 21.1 C 3.2 km/h
1538 06-07-2014 08:20:00 21.4 C 15.37 g/m*3 21.4 C 1.6 km/h
1539 06-07-2014 08:25:00 21.6 C 15.36 g/m*3 21.6 C 1.6 km/h
1540 06-07-2014 08:30:00 21.9 C 15.82 g/m*3 21.9 C 3.2 km/h
1541 06-07-2014 08:35:00 22.1 C 15.62 g/m*3 22.1 C 3.2 km/h
1542 06-07-2014 08:40:00 22.3 C 15.4 g/m*3 22.3 C 6.4 km/h
1543 06-07-2014 08:45:00 22.4 C 15.69 g/m*3 22.4 C 4.8 km/h
1544 06-07-2014 08:50:00 22.6 C 15.47 g/m*3 22.6 C 3.2 km/h
1545 06-07-2014 08:55:00 22.7 C 15.76 g/m*3 22.7 C 3.2 km/h
1546 06-07-2014 09:00:00 22.8 C 16.05 g/m*3 22.8 C 3.2 km/h
1547 06-07-2014 09:05:00 22.9 C 15.33 g/m*3 22.9 C 6.4 km/h
1548 06-07-2014 09:10:00 22.9 C 15.53 g/m*3 22.9 C 0 km/h
1549 06-07-2014 09:15:00 22.9 C 15.33 g/m*3 22.9 C 0 km/h
1550 06-07-2014 09:20:00 22.9 C 15.33 g/m*3 22.9 C 1.6 km/h
Sensor: Nr:Datum:Temp:Abs-Feuchte:Windchill:Wind:
Aussen-T/F 1551 06-07-2014 09:25:00 22.8 C 14.83 g/m*3 22.8 C 6.4 km/h
1552 06-07-2014 09:30:00 22.8 C 14.83 g/m*3 22.8 C 4.8 km/h
1553 06-07-2014 09:35:00 22.9 C 14.92 g/m*3 22.9 C 8.1 km/h
1554 06-07-2014 09:40:00 22.9 C 14.92 g/m*3 22.9 C 4.8 km/h
1555 06-07-2014 09:45:00 23.1 C 15.3 g/m*3 23.1 C 8.1 km/h
1556 06-07-2014 09:50:00 23.3 C 15.26 g/m*3 23.3 C 6.4 km/h
1557 06-07-2014 09:55:00 23.4 C 14.93 g/m*3 23.4 C 8.1 km/h
1558 06-07-2014 10:00:00 23.7 C 15.4 g/m*3 23.7 C 8.1 km/h
1559 06-07-2014 10:05:00 23.9 C 16.23 g/m*3 23.9 C 6.4 km/h
1560 06-07-2014 10:10:00 24.3 C 15.27 g/m*3 24.3 C 4.8 km/h
1561 06-07-2014 10:15:00 24.6 C 15.75 g/m*3 24.6 C 4.8 km/h
1562 06-07-2014 10:20:00 24.8 C 15.48 g/m*3 24.8 C 8.1 km/h
1563 06-07-2014 10:25:00 24.7 C 14.71 g/m*3 24.7 C 8.1 km/h
1564 06-07-2014 10:30:00 24.8 C 15.25 g/m*3 24.8 C 11.3 km/h
1565 06-07-2014 10:35:00 25 C 14.73 g/m*3 25 C 9.7 km/h
1566 06-07-2014 10:40:00 25 C 14.73 g/m*3 25 C 8.1 km/h
1567 06-07-2014 10:45:00 25 C 14.73 g/m*3 25 C 12.9 km/h
1568 06-07-2014 10:50:00 24.8 C 14.57 g/m*3 24.8 C 9.7 km/h
1569 06-07-2014 10:55:00 24.9 C 15.11 g/m*3 24.9 C 8.1 km/h
1570 06-07-2014 11:00:00 25.1 C 15.28 g/m*3 25.1 C 11.3 km/h
1571 06-07-2014 11:05:00 25.3 C 14.75 g/m*3 25.3 C 11.3 km/h
1572 06-07-2014 11:10:00 25.8 C 15.17 g/m*3 25.8 C 8.1 km/h
1573 06-07-2014 11:15:00 26.1 C 14.2 g/m*3 26.1 C 9.7 km/h
1574 06-07-2014 11:20:00 25.9 C 14.53 g/m*3 25.9 C 11.3 km/h
1575 06-07-2014 11:25:00 26.1 C 14.93 g/m*3 26.1 C 9.7 km/h
Sensor: Nr:Datum:Temp:Abs-Feuchte:Windchill:Wind:
Aussen-T/F 1576 06-07-2014 11:30:00 26.5 C 14.77 g/m*3 26.5 C 9.7 km/h
1577 06-07-2014 11:35:00 26.7 C 14.93 g/m*3 26.7 C 9.7 km/h
1578 06-07-2014 11:40:00 26.8 C 15.02 g/m*3 26.8 C 6.4 km/h
1579 06-07-2014 11:45:00 26.9 C 14.84 g/m*3 26.9 C 12.9 km/h
1580 06-07-2014 11:50:00 27.1 C 14.23 g/m*3 27.1 C 12.9 km/h
1581 06-07-2014 11:55:00 27.3 C 14.13 g/m*3 27.3 C 6.4 km/h
1582 06-07-2014 12:00:00 27.4 C 15 g/m*3 27.4 C 14.5 km/h
1583 06-07-2014 12:05:00 27.2 C 14.57 g/m*3 27.2 C 14.5 km/h
1584 06-07-2014 12:10:00 27.1 C 13.97 g/m*3 27.1 C 8.1 km/h
1585 06-07-2014 12:15:00 26.8 C 14 g/m*3 26.8 C 4.8 km/h
1586 06-07-2014 12:20:00 26.7 C 14.17 g/m*3 26.7 C 9.7 km/h
1587 06-07-2014 12:25:00 26.7 C 13.92 g/m*3 26.7 C 9.7 km/h
1588 06-07-2014 12:30:00 27.1 C 14.23 g/m*3 27.1 C 6.4 km/h
1589 06-07-2014 12:35:00 27.2 C 13.79 g/m*3 27.2 C 6.4 km/h
1590 06-07-2014 12:40:00 27.2 C 14.05 g/m*3 27.2 C 11.3 km/h
1591 06-07-2014 12:45:00 27.2 C 14.05 g/m*3 27.2 C 9.7 km/h
1592 06-07-2014 12:50:00 27.3 C 14.39 g/m*3 27.3 C 6.4 km/h
1593 06-07-2014 12:55:00 27.5 C 13.49 g/m*3 27.5 C 11.3 km/h
1594 06-07-2014 13:00:00 27.6 C 13.57 g/m*3 27.6 C 14.5 km/h
1595 06-07-2014 13:05:00 27.7 C 14.44 g/m*3 27.7 C 11.3 km/h
1596 06-07-2014 13:10:00 27.6 C 13.57 g/m*3 27.6 C 11.3 km/h
1597 06-07-2014 13:15:00 27.4 C 13.68 g/m*3 27.4 C 6.4 km/h
1598 06-07-2014 13:20:00 27.7 C 13.64 g/m*3 27.7 C 9.7 km/h
1599 06-07-2014 13:25:00 28.1 C 13.95 g/m*3 28.1 C 12.9 km/h
1600 06-07-2014 13:30:00 28.5 C 13.97 g/m*3 28.5 C 9.7 km/h
Sensor: Nr:Datum:Temp:Abs-Feuchte:Windchill:Wind:
Aussen-T/F 1601 06-07-2014 13:35:00 28.8 C 13.35 g/m*3 28.8 C 8.1 km/h
1602 06-07-2014 13:40:00 28.7 C 13.85 g/m*3 28.7 C 11.3 km/h
1603 06-07-2014 13:45:00 28.4 C 13.06 g/m*3 28.4 C 11.3 km/h
1604 06-07-2014 13:50:00 28.3 C 12.99 g/m*3 28.3 C 14.5 km/h
1605 06-07-2014 13:55:00 28.3 C 13.27 g/m*3 28.3 C 14.5 km/h
1606 06-07-2014 14:00:00 28.4 C 13.06 g/m*3 28.4 C 11.3 km/h
1607 06-07-2014 14:05:00 28.3 C 13.27 g/m*3 28.3 C 11.3 km/h
1608 06-07-2014 14:10:00 28.3 C 12.99 g/m*3 28.3 C 9.7 km/h
1609 06-07-2014 14:15:00 28.5 C 13.42 g/m*3 28.5 C 14.5 km/h
1610 06-07-2014 14:20:00 28.7 C 13.28 g/m*3 28.7 C 8.1 km/h
1611 06-07-2014 14:25:00 28.7 C 13.56 g/m*3 28.7 C 6.4 km/h
1612 06-07-2014 14:30:00 28.7 C 13.85 g/m*3 28.7 C 9.7 km/h
1613 06-07-2014 14:35:00 28.6 C 13.21 g/m*3 28.6 C 14.5 km/h
1614 06-07-2014 14:40:00 28.6 C 13.49 g/m*3 28.6 C 4.8 km/h
1615 06-07-2014 14:45:00 28.8 C 13.35 g/m*3 28.8 C 9.7 km/h
1616 06-07-2014 14:50:00 29.1 C 13.28 g/m*3 29.1 C 12.9 km/h
1617 06-07-2014 14:55:00 29.3 C 14.01 g/m*3 29.3 C 6.4 km/h
1618 06-07-2014 15:00:00 29.3 C 12.85 g/m*3 29.3 C 9.7 km/h
1619 06-07-2014 15:05:00 29.6 C 13.06 g/m*3 29.6 C 11.3 km/h
1620 06-07-2014 15:10:00 29.8 C 13.2 g/m*3 29.8 C 14.5 km/h
1621 06-07-2014 15:15:00 29.7 C 12.83 g/m*3 29.7 C 8.1 km/h
1622 06-07-2014 15:20:00 29.3 C 12.55 g/m*3 29.3 C 11.3 km/h
1623 06-07-2014 15:25:00 29 C 12.35 g/m*3 29 C 9.7 km/h
1624 06-07-2014 15:30:00 28.9 C 12.57 g/m*3 28.9 C 6.4 km/h
1625 06-07-2014 15:35:00 28.8 C 12.79 g/m*3 28.8 C 11.3 km/h
Sensor: Nr:Datum:Temp:Abs-Feuchte:Windchill:Wind:
Aussen-T/F 1626 06-07-2014 15:40:00 28.9 C 12.86 g/m*3 28.9 C 12.9 km/h
1627 06-07-2014 15:45:00 29.1 C 13.28 g/m*3 29.1 C 8.1 km/h
1628 06-07-2014 15:50:00 29.1 C 13.57 g/m*3 29.1 C 8.1 km/h
1629 06-07-2014 15:55:00 28.9 C 13.14 g/m*3 28.9 C 12.9 km/h
1630 06-07-2014 16:00:00 28.9 C 13.43 g/m*3 28.9 C 6.4 km/h
1631 06-07-2014 16:05:00 29.2 C 13.36 g/m*3 29.2 C 11.3 km/h
1632 06-07-2014 16:10:00 29.6 C 13.35 g/m*3 29.6 C 19.3 km/h
1633 06-07-2014 16:15:00 29.8 C 14.1 g/m*3 29.8 C 19.3 km/h
1634 06-07-2014 16:20:00 30 C 14.25 g/m*3 30 C 9.7 km/h
1635 06-07-2014 16:25:00 30.3 C 13.87 g/m*3 30.3 C 12.9 km/h
1636 06-07-2014 16:30:00 30.3 C 14.49 g/m*3 30.3 C 9.7 km/h
1637 06-07-2014 16:35:00 30.7 C 13.86 g/m*3 30.7 C 8.1 km/h
1638 06-07-2014 16:40:00 30.6 C 14.09 g/m*3 30.6 C 9.7 km/h
1639 06-07-2014 16:45:00 30.4 C 14.25 g/m*3 30.4 C 9.7 km/h
1640 06-07-2014 16:50:00 30.3 C 13.56 g/m*3 30.3 C 9.7 km/h
1641 06-07-2014 16:55:00 30.4 C 13.63 g/m*3 30.4 C 14.5 km/h
1642 06-07-2014 17:00:00 30.8 C 13.93 g/m*3 30.8 C 14.5 km/h
1643 06-07-2014 17:05:00 30.8 C 13.61 g/m*3 30.8 C 16.1 km/h
1644 06-07-2014 17:10:00 31.1 C 13.51 g/m*3 31.1 C 12.9 km/h
1645 06-07-2014 17:15:00 31.2 C 13.91 g/m*3 31.2 C 8.1 km/h
1646 06-07-2014 17:20:00 31.4 C 14.06 g/m*3 31.4 C 6.4 km/h
1647 06-07-2014 17:25:00 31.6 C 13.55 g/m*3 31.6 C 8.1 km/h
1648 06-07-2014 17:30:00 31.4 C 13.08 g/m*3 31.4 C 8.1 km/h
1649 06-07-2014 17:35:00 31.4 C 13.73 g/m*3 31.4 C 16.1 km/h
1650 06-07-2014 17:40:00 31.3 C 12.68 g/m*3 31.3 C 9.7 km/h
Sensor: Nr:Datum:Temp:Abs-Feuchte:Windchill:Wind:
Aussen-T/F 1651 06-07-2014 17:45:00 31.3 C 12.68 g/m*3 31.3 C 12.9 km/h
1652 06-07-2014 17:50:00 31.1 C 12.55 g/m*3 31.1 C 19.3 km/h
1653 06-07-2014 17:55:00 30.9 C 12.41 g/m*3 30.9 C 11.3 km/h
1654 06-07-2014 18:00:00 30.9 C 13.05 g/m*3 30.9 C 8.1 km/h
1655 06-07-2014 18:05:00 30.9 C 12.73 g/m*3 30.9 C 8.1 km/h
1656 06-07-2014 18:10:00 31.2 C 12.94 g/m*3 31.2 C 11.3 km/h
1657 06-07-2014 18:15:00 31.5 C 13.15 g/m*3 31.5 C 12.9 km/h
1658 06-07-2014 18:20:00 31.5 C 13.15 g/m*3 31.5 C 11.3 km/h
1659 06-07-2014 18:25:00 31.6 C 12.56 g/m*3 31.6 C 12.9 km/h
1660 06-07-2014 18:30:00 31.3 C 12.68 g/m*3 31.3 C 11.3 km/h
1661 06-07-2014 18:35:00 30.9 C 12.73 g/m*3 30.9 C 8.1 km/h
1662 06-07-2014 18:40:00 30.2 C 12.87 g/m*3 30.2 C 17.7 km/h
1663 06-07-2014 18:45:00 29.8 C 12.9 g/m*3 29.8 C 8.1 km/h
1664 06-07-2014 18:50:00 29.4 C 13.21 g/m*3 29.4 C 4.8 km/h
1665 06-07-2014 18:55:00 29.3 C 13.43 g/m*3 29.3 C 3.2 km/h
1666 06-07-2014 19:00:00 29 C 14.36 g/m*3 29 C 4.8 km/h
1667 06-07-2014 19:05:00 28.8 C 13.07 g/m*3 28.8 C 3.2 km/h
1668 06-07-2014 19:10:00 28.9 C 14 g/m*3 28.9 C 4.8 km/h
1669 06-07-2014 19:15:00 29.3 C 13.43 g/m*3 29.3 C 4.8 km/h
1670 06-07-2014 19:20:00 29.9 C 13.27 g/m*3 29.9 C 11.3 km/h
1671 06-07-2014 19:25:00 30.1 C 14.02 g/m*3 30.1 C 9.7 km/h
1672 06-07-2014 19:30:00 30.2 C 14.1 g/m*3 30.2 C 1.6 km/h
1673 06-07-2014 19:35:00 30.1 C 12.81 g/m*3 30.1 C 6.4 km/h
1674 06-07-2014 19:40:00 29.9 C 12.97 g/m*3 29.9 C 6.4 km/h
1675 06-07-2014 19:45:00 29.5 C 13.58 g/m*3 29.5 C 9.7 km/h
Sensor: Nr:Datum:Temp:Abs-Feuchte:Windchill:Wind:
Aussen-T/F 1676 06-07-2014 19:50:00 29 C 12.93 g/m*3 29 C 1.6 km/h
1677 06-07-2014 19:55:00 28.7 C 14.13 g/m*3 28.7 C 6.4 km/h
1678 06-07-2014 20:00:00 28.2 C 14.3 g/m*3 28.2 C 4.8 km/h
1679 06-07-2014 20:05:00 27.7 C 14.71 g/m*3 27.7 C 4.8 km/h
1680 06-07-2014 20:10:00 27.1 C 15.01 g/m*3 27.1 C 0 km/h
1681 06-07-2014 20:15:00 26.4 C 14.44 g/m*3 26.4 C 3.2 km/h
1682 06-07-2014 20:20:00 26.1 C 14.93 g/m*3 26.1 C 1.6 km/h
1683 06-07-2014 20:25:00 25.8 C 11.8 g/m*3 25.8 C 30.6 km/h
1684 06-07-2014 20:30:00 24.9 C 11.45 g/m*3 24.9 C 25.7 km/h
1685 06-07-2014 20:35:00 24.2 C 11.44 g/m*3 24.2 C 24.1 km/h
1686 06-07-2014 20:40:00 23.4 C 11.57 g/m*3 23.4 C 22.5 km/h
1687 06-07-2014 20:45:00 22.8 C 11.79 g/m*3 22.8 C 16.1 km/h
1688 06-07-2014 20:50:00 22.3 C 12.05 g/m*3 22.3 C 11.3 km/h
1689 06-07-2014 20:55:00 21.8 C 12.09 g/m*3 21.8 C 17.7 km/h
1690 06-07-2014 21:00:00 21.5 C 12.26 g/m*3 21.5 C 14.5 km/h
1691 06-07-2014 21:05:00 21.3 C 12.12 g/m*3 21.3 C 9.7 km/h
1692 06-07-2014 21:10:00 21.3 C 12.12 g/m*3 21.3 C 12.9 km/h
1693 06-07-2014 21:15:00 21.2 C 12.23 g/m*3 21.2 C 22.5 km/h
1694 06-07-2014 21:20:00 21.1 C 13.08 g/m*3 21.1 C 25.7 km/h
1695 06-07-2014 21:25:00 20.4 C 13.27 g/m*3 20.4 C 19.3 km/h
1696 06-07-2014 21:30:00 19.7 C 13.25 g/m*3 19.7 C 9.7 km/h
1697 06-07-2014 21:35:00 19.2 C 13.52 g/m*3 19.2 C 4.8 km/h
1698 06-07-2014 21:40:00 18.8 C 13.53 g/m*3 18.8 C 4.8 km/h
1699 06-07-2014 21:45:00 18.6 C 13.69 g/m*3 18.6 C 4.8 km/h
1700 06-07-2014 21:50:00 18.3 C 13.45 g/m*3 18.3 C 1.6 km/h
Sensor: Nr:Datum:Temp:Abs-Feuchte:Windchill:Wind:
Aussen-T/F 1701 06-07-2014 21:55:00 18.3 C 13.45 g/m*3 18.3 C 0 km/h
1702 06-07-2014 22:00:00 18.2 C 13.83 g/m*3 18.2 C 1.6 km/h
1703 06-07-2014 22:05:00 18.1 C 14.06 g/m*3 18.1 C 1.6 km/h
1704 06-07-2014 22:10:00 18 C 13.98 g/m*3 18 C 0 km/h
1705 06-07-2014 22:15:00 18 C 13.98 g/m*3 18 C 0 km/h
1706 06-07-2014 22:20:00 18 C 13.98 g/m*3 18 C 0 km/h
1707 06-07-2014 22:25:00 17.7 C 13.88 g/m*3 17.7 C 1.6 km/h
1708 06-07-2014 22:30:00 17.7 C 13.88 g/m*3 17.7 C 0 km/h
1709 06-07-2014 22:35:00 17.5 C 13.87 g/m*3 17.5 C 0 km/h
1710 06-07-2014 22:40:00 17.4 C 13.78 g/m*3 17.4 C 0 km/h
1711 06-07-2014 22:45:00 17.4 C 13.93 g/m*3 17.4 C 0 km/h
1712 06-07-2014 22:50:00 17.4 C 13.93 g/m*3 17.4 C 0 km/h
1713 07-07-2014 01:10:00 17.7 C 14.03 g/m*3 17.7 C 1.6 km/h
1714 07-07-2014 01:15:00 17.7 C 14.03 g/m*3 17.7 C 1.6 km/h
1715 07-07-2014 01:20:00 17.8 C 14.12 g/m*3 17.8 C 4.8 km/h
1716 07-07-2014 01:25:00 17.8 C 14.12 g/m*3 17.8 C 1.6 km/h
1717 07-07-2014 01:30:00 17.9 C 14.05 g/m*3 17.9 C 3.2 km/h
1718 07-07-2014 01:35:00 17.9 C 14.05 g/m*3 17.9 C 1.6 km/h
1719 07-07-2014 01:40:00 17.9 C 14.05 g/m*3 17.9 C 0 km/h
1720 07-07-2014 01:45:00 17.9 C 14.05 g/m*3 17.9 C 0 km/h
1721 07-07-2014 02:25:00 17.4 C 13.63 g/m*3 17.4 C 11.3 km/h
1722 07-07-2014 02:30:00 17.3 C 13.41 g/m*3 17.3 C 8.1 km/h
1723 07-07-2014 02:35:00 17.3 C 13.41 g/m*3 17.3 C 8.1 km/h
1724 07-07-2014 02:40:00 17.2 C 13.33 g/m*3 17.2 C 9.7 km/h
1725 07-07-2014 02:45:00 17.2 C 13.33 g/m*3 17.2 C 8.1 km/h
Sensor: Nr:Datum:Temp:Abs-Feuchte:Windchill:Wind:
Aussen-T/F 1726 07-07-2014 02:50:00 17.2 C 13.33 g/m*3 17.2 C 4.8 km/h
1727 07-07-2014 02:55:00 17.1 C 13.25 g/m*3 17.1 C 8.1 km/h
1728 07-07-2014 03:00:00 17 C 13.02 g/m*3 17 C 11.3 km/h
1729 07-07-2014 03:05:00 16.9 C 12.94 g/m*3 16.9 C 6.4 km/h
1730 07-07-2014 03:10:00 16.8 C 12.72 g/m*3 16.8 C 14.5 km/h
1731 07-07-2014 03:15:00 16.8 C 12.72 g/m*3 16.8 C 6.4 km/h
1732 07-07-2014 03:20:00 16.7 C 12.65 g/m*3 16.7 C 4.8 km/h
1733 07-07-2014 03:25:00 16.7 C 12.79 g/m*3 16.7 C 3.2 km/h
1734 07-07-2014 03:30:00 16.6 C 12.86 g/m*3 16.6 C 3.2 km/h
1735 07-07-2014 03:35:00 16.4 C 12.56 g/m*3 16.4 C 0 km/h
1736 07-07-2014 03:40:00 16.3 C 12.49 g/m*3 16.3 C 3.2 km/h
1737 07-07-2014 03:45:00 16.2 C 12.41 g/m*3 16.2 C 4.8 km/h
1738 07-07-2014 03:50:00 16.2 C 12.55 g/m*3 16.2 C 0 km/h
1739 07-07-2014 03:55:00 16.1 C 12.47 g/m*3 16.1 C 0 km/h
1740 07-07-2014 04:00:00 16 C 12.53 g/m*3 16 C 1.6 km/h
1741 07-07-2014 04:05:00 15.9 C 12.32 g/m*3 15.9 C 1.6 km/h
1742 07-07-2014 04:10:00 15.8 C 12.38 g/m*3 15.8 C 1.6 km/h
1743 07-07-2014 04:15:00 15.8 C 12.38 g/m*3 15.8 C 3.2 km/h
1744 07-07-2014 04:20:00 15.7 C 12.31 g/m*3 15.7 C 0 km/h
1745 07-07-2014 04:25:00 15.7 C 12.31 g/m*3 15.7 C 1.6 km/h
1746 07-07-2014 04:30:00 15.6 C 12.23 g/m*3 15.6 C 1.6 km/h
1747 07-07-2014 04:35:00 15.6 C 12.23 g/m*3 15.6 C 1.6 km/h
1748 07-07-2014 04:40:00 15.4 C 11.96 g/m*3 15.4 C 1.6 km/h
1749 07-07-2014 04:45:00 15.4 C 12.09 g/m*3 15.4 C 1.6 km/h
1750 07-07-2014 04:50:00 15.3 C 12.01 g/m*3 15.3 C 0 km/h
Sensor: Nr:Datum:Temp:Abs-Feuchte:Windchill:Wind:
Aussen-T/F 1751 07-07-2014 04:55:00 15.2 C 11.94 g/m*3 15.2 C 0 km/h
1752 07-07-2014 05:00:00 15.2 C 11.94 g/m*3 15.2 C 1.6 km/h
1753 07-07-2014 05:05:00 15.2 C 12.07 g/m*3 15.2 C 0 km/h
1754 07-07-2014 05:10:00 15.1 C 12 g/m*3 15.1 C 0 km/h
1755 07-07-2014 05:15:00 14.9 C 11.85 g/m*3 14.9 C 0 km/h
1756 07-07-2014 05:20:00 14.8 C 11.78 g/m*3 14.8 C 0 km/h
1757 07-07-2014 05:25:00 14.6 C 11.64 g/m*3 14.6 C 1.6 km/h
1758 07-07-2014 05:30:00 14.5 C 11.57 g/m*3 14.5 C 0 km/h
1759 07-07-2014 05:35:00 14.4 C 11.62 g/m*3 14.4 C 0 km/h
1760 07-07-2014 05:40:00 14.3 C 11.55 g/m*3 14.3 C 0 km/h
1761 07-07-2014 05:45:00 14.1 C 11.41 g/m*3 14.1 C 0 km/h
1762 07-07-2014 05:50:00 14 C 11.34 g/m*3 14 C 0 km/h
1763 07-07-2014 05:55:00 13.9 C 11.27 g/m*3 13.9 C 0 km/h
1764 07-07-2014 06:00:00 13.9 C 11.27 g/m*3 13.9 C 0 km/h
1765 07-07-2014 06:05:00 13.9 C 11.39 g/m*3 13.9 C 0 km/h
1766 07-07-2014 06:10:00 14 C 11.46 g/m*3 14 C 0 km/h
1767 07-07-2014 06:15:00 14.1 C 11.53 g/m*3 14.1 C 0 km/h
1768 07-07-2014 06:20:00 14.2 C 11.6 g/m*3 14.2 C 0 km/h
1769 07-07-2014 06:25:00 14.3 C 11.67 g/m*3 14.3 C 0 km/h
1770 07-07-2014 06:30:00 14.4 C 11.74 g/m*3 14.4 C 0 km/h
1771 07-07-2014 06:35:00 14.4 C 11.62 g/m*3 14.4 C 0 km/h
1772 07-07-2014 06:40:00 14.6 C 11.76 g/m*3 14.6 C 0 km/h
1773 07-07-2014 06:45:00 14.7 C 11.83 g/m*3 14.7 C 1.6 km/h
1774 07-07-2014 06:50:00 14.9 C 11.98 g/m*3 14.9 C 0 km/h
1775 07-07-2014 06:55:00 15 C 12.05 g/m*3 15 C 0 km/h
Sensor: Nr:Datum:Temp:Abs-Feuchte:Windchill:Wind:
Aussen-T/F 1776 07-07-2014 07:00:00 15.1 C 12 g/m*3 15.1 C 0 km/h
1777 07-07-2014 07:05:00 15.1 C 11.74 g/m*3 15.1 C 0 km/h
1778 07-07-2014 07:10:00 15.2 C 11.68 g/m*3 15.2 C 0 km/h
1779 07-07-2014 07:15:00 15.3 C 11.88 g/m*3 15.3 C 0 km/h
1780 07-07-2014 07:20:00 15.3 C 11.75 g/m*3 15.3 C 0 km/h
1781 07-07-2014 07:25:00 15.4 C 11.82 g/m*3 15.4 C 0 km/h
1782 07-07-2014 07:30:00 15.4 C 11.82 g/m*3 15.4 C 0 km/h
1783 07-07-2014 07:35:00 15.5 C 11.76 g/m*3 15.5 C 0 km/h
1784 07-07-2014 07:40:00 15.6 C 11.97 g/m*3 15.6 C 0 km/h
1785 07-07-2014 07:45:00 15.6 C 11.84 g/m*3 15.6 C 0 km/h
1786 07-07-2014 07:50:00 15.5 C 11.63 g/m*3 15.5 C 0 km/h
1787 07-07-2014 07:55:00 15.5 C 11.76 g/m*3 15.5 C 0 km/h
1788 07-07-2014 08:00:00 15.6 C 11.84 g/m*3 15.6 C 0 km/h
1789 07-07-2014 08:05:00 15.6 C 11.7 g/m*3 15.6 C 0 km/h
1790 07-07-2014 08:10:00 15.7 C 11.77 g/m*3 15.7 C 1.6 km/h
1791 07-07-2014 08:15:00 15.7 C 11.64 g/m*3 15.7 C 0 km/h
1792 07-07-2014 08:20:00 15.7 C 11.64 g/m*3 15.7 C 0 km/h
1793 07-07-2014 08:25:00 15.8 C 11.58 g/m*3 15.8 C 1.6 km/h
1794 07-07-2014 08:30:00 15.8 C 11.71 g/m*3 15.8 C 0 km/h
1795 07-07-2014 08:35:00 15.9 C 11.65 g/m*3 15.9 C 0 km/h
1796 07-07-2014 08:40:00 16 C 11.85 g/m*3 16 C 0 km/h
1797 07-07-2014 08:45:00 16.1 C 11.79 g/m*3 16.1 C 0 km/h
1798 07-07-2014 08:50:00 16.2 C 11.86 g/m*3 16.2 C 0 km/h
1799 07-07-2014 08:55:00 16.3 C 12.07 g/m*3 16.3 C 0 km/h
1800 07-07-2014 09:00:00 16.4 C 11.17 g/m*3 16.4 C 3.2 km/h
Sensor: Nr:Datum:Temp:Abs-Feuchte:Windchill:Wind:
Aussen-T/F 1801 07-07-2014 09:05:00 16.6 C 10.74 g/m*3 16.6 C 3.2 km/h
1802 07-07-2014 09:10:00 16.7 C 10.37 g/m*3 16.7 C 6.4 km/h
1803 07-07-2014 09:15:00 16.8 C 10.29 g/m*3 16.8 C 4.8 km/h
1804 07-07-2014 09:20:00 16.8 C 10.15 g/m*3 16.8 C 4.8 km/h
1805 07-07-2014 09:25:00 16.9 C 10.07 g/m*3 16.9 C 8.1 km/h
1806 07-07-2014 09:30:00 16.9 C 9.92 g/m*3 16.9 C 6.4 km/h
1807 07-07-2014 09:35:00 16.9 C 9.92 g/m*3 16.9 C 4.8 km/h
1808 07-07-2014 09:40:00 16.9 C 9.78 g/m*3 16.9 C 3.2 km/h
1809 07-07-2014 09:45:00 16.9 C 9.64 g/m*3 16.9 C 8.1 km/h
1810 07-07-2014 09:50:00 16.8 C 9.29 g/m*3 16.8 C 4.8 km/h
1811 07-07-2014 09:55:00 16.8 C 9.29 g/m*3 16.8 C 6.4 km/h
1812 07-07-2014 10:00:00 16.8 C 9.58 g/m*3 16.8 C 6.4 km/h
1813 07-07-2014 10:05:00 16.9 C 9.78 g/m*3 16.9 C 3.2 km/h
1814 07-07-2014 10:10:00 17.3 C 10.02 g/m*3 17.3 C 3.2 km/h
1815 07-07-2014 10:15:00 17.6 C 9.9 g/m*3 17.6 C 4.8 km/h
1816 07-07-2014 10:20:00 17.8 C 9.71 g/m*3 17.8 C 6.4 km/h
1817 07-07-2014 10:25:00 18.2 C 9.95 g/m*3 18.2 C 4.8 km/h
1818 07-07-2014 10:30:00 18.4 C 10.22 g/m*3 18.4 C 4.8 km/h
1819 07-07-2014 10:35:00 18.6 C 10.5 g/m*3 18.6 C 8.1 km/h
1820 07-07-2014 10:40:00 18.8 C 10.47 g/m*3 18.8 C 3.2 km/h
1821 07-07-2014 10:45:00 18.8 C 10.31 g/m*3 18.8 C 8.1 km/h
1822 07-07-2014 10:50:00 18.8 C 10.63 g/m*3 18.8 C 3.2 km/h
1823 07-07-2014 10:55:00 19.1 C 9.84 g/m*3 19.1 C 8.1 km/h
1824 07-07-2014 11:00:00 19.3 C 9.62 g/m*3 19.3 C 6.4 km/h
1825 07-07-2014 11:05:00 19.4 C 9.68 g/m*3 19.4 C 8.1 km/h
Sensor: Nr:Datum:Temp:Abs-Feuchte:Windchill:Wind:
Aussen-T/F 1826 07-07-2014 11:10:00 19.4 C 9.51 g/m*3 19.4 C 4.8 km/h
1827 07-07-2014 11:15:00 19.4 C 9.68 g/m*3 19.4 C 4.8 km/h
1828 07-07-2014 11:20:00 19.3 C 9.45 g/m*3 19.3 C 4.8 km/h
1829 07-07-2014 11:25:00 19.3 C 9.45 g/m*3 19.3 C 3.2 km/h
1830 07-07-2014 11:30:00 19.4 C 9.34 g/m*3 19.4 C 8.1 km/h
1831 07-07-2014 11:35:00 19.4 C 9.34 g/m*3 19.4 C 3.2 km/h
1832 07-07-2014 11:40:00 19.4 C 9.51 g/m*3 19.4 C 6.4 km/h
1833 07-07-2014 11:45:00 19.7 C 9.17 g/m*3 19.7 C 6.4 km/h
1834 07-07-2014 11:50:00 19.9 C 9.11 g/m*3 19.9 C 8.1 km/h
1835 07-07-2014 11:55:00 20.1 C 9.56 g/m*3 20.1 C 4.8 km/h
1836 07-07-2014 12:00:00 20.3 C 9.32 g/m*3 20.3 C 4.8 km/h
1837 07-07-2014 12:05:00 20.6 C 9.31 g/m*3 20.6 C 6.4 km/h
1838 07-07-2014 12:10:00 20.6 C 9.66 g/m*3 20.6 C 4.8 km/h
1839 07-07-2014 12:15:00 20.5 C 9.25 g/m*3 20.5 C 4.8 km/h
1840 07-07-2014 12:20:00 20.7 C 9.9 g/m*3 20.7 C 6.4 km/h
1841 07-07-2014 12:25:00 20.9 C 8.92 g/m*3 20.9 C 3.2 km/h
1842 07-07-2014 12:30:00 21.2 C 9.64 g/m*3 21.2 C 9.7 km/h
1843 07-07-2014 12:35:00 21.4 C 9.19 g/m*3 21.4 C 8.1 km/h
1844 07-07-2014 12:40:00 21.7 C 10.11 g/m*3 21.7 C 6.4 km/h
1845 07-07-2014 12:45:00 21.9 C 9.84 g/m*3 21.9 C 9.7 km/h
1846 07-07-2014 12:50:00 21.8 C 9.21 g/m*3 21.8 C 4.8 km/h
1847 07-07-2014 12:55:00 21.7 C 9.73 g/m*3 21.7 C 9.7 km/h
1848 07-07-2014 13:00:00 21.8 C 9.59 g/m*3 21.8 C 6.4 km/h
1849 07-07-2014 13:05:00 21.8 C 9.78 g/m*3 21.8 C 6.4 km/h
1850 07-07-2014 13:10:00 21.8 C 9.4 g/m*3 21.8 C 4.8 km/h
Sensor: Nr:Datum:Temp:Abs-Feuchte:Windchill:Wind:
Aussen-T/F 1851 07-07-2014 13:15:00 21.7 C 9.92 g/m*3 21.7 C 6.4 km/h
1852 07-07-2014 13:20:00 21.8 C 9.78 g/m*3 21.8 C 8.1 km/h
1853 07-07-2014 13:25:00 21.8 C 9.21 g/m*3 21.8 C 6.4 km/h
1854 07-07-2014 13:30:00 21.7 C 9.73 g/m*3 21.7 C 4.8 km/h
1855 07-07-2014 13:35:00 21.8 C 10.55 g/m*3 21.8 C 4.8 km/h
1856 07-07-2014 13:40:00 21.8 C 9.4 g/m*3 21.8 C 6.4 km/h
1857 07-07-2014 13:45:00 21.7 C 9.92 g/m*3 21.7 C 3.2 km/h
1858 07-07-2014 13:50:00 21.8 C 9.4 g/m*3 21.8 C 4.8 km/h
1859 07-07-2014 13:55:00 21.9 C 9.65 g/m*3 21.9 C 3.2 km/h
1860 07-07-2014 14:00:00 22.2 C 9.82 g/m*3 22.2 C 6.4 km/h
1861 07-07-2014 14:05:00 22.4 C 9.73 g/m*3 22.4 C 6.4 km/h
1862 07-07-2014 14:10:00 22.7 C 9.9 g/m*3 22.7 C 6.4 km/h
1863 07-07-2014 14:15:00 22.7 C 10.1 g/m*3 22.7 C 6.4 km/h
1864 07-07-2014 14:20:00 22.9 C 10.01 g/m*3 22.9 C 4.8 km/h
1865 07-07-2014 14:25:00 22.9 C 8.79 g/m*3 22.9 C 3.2 km/h
1866 07-07-2014 14:30:00 23.1 C 9.92 g/m*3 23.1 C 9.7 km/h
1867 07-07-2014 14:35:00 23.3 C 9.2 g/m*3 23.3 C 9.7 km/h
1868 07-07-2014 14:40:00 23.4 C 9.25 g/m*3 23.4 C 8.1 km/h
1869 07-07-2014 14:45:00 23.5 C 9.31 g/m*3 23.5 C 9.7 km/h
1870 07-07-2014 14:50:00 23.4 C 9.25 g/m*3 23.4 C 6.4 km/h
1871 07-07-2014 14:55:00 23.3 C 9.41 g/m*3 23.3 C 8.1 km/h
1872 07-07-2014 15:00:00 23.4 C 9.25 g/m*3 23.4 C 4.8 km/h
1873 07-07-2014 15:05:00 23.4 C 8.62 g/m*3 23.4 C 11.3 km/h
1874 07-07-2014 15:10:00 23.3 C 9.2 g/m*3 23.3 C 6.4 km/h
1875 07-07-2014 15:15:00 23.6 C 9.78 g/m*3 23.6 C 4.8 km/h
Sensor: Nr:Datum:Temp:Abs-Feuchte:Windchill:Wind:
Aussen-T/F 1876 07-07-2014 15:20:00 23.9 C 9.3 g/m*3 23.9 C 6.4 km/h
1877 07-07-2014 15:25:00 24.1 C 8.53 g/m*3 24.1 C 3.2 km/h
1878 07-07-2014 15:30:00 24.2 C 9.24 g/m*3 24.2 C 9.7 km/h
1879 07-07-2014 15:35:00 24.3 C 8.63 g/m*3 24.3 C 6.4 km/h
1880 07-07-2014 15:40:00 24.4 C 8.68 g/m*3 24.4 C 9.7 km/h
1881 07-07-2014 15:45:00 24.2 C 9.24 g/m*3 24.2 C 9.7 km/h
1882 07-07-2014 15:50:00 24.2 C 8.58 g/m*3 24.2 C 8.1 km/h
1883 07-07-2014 15:55:00 24.3 C 9.29 g/m*3 24.3 C 9.7 km/h
1884 07-07-2014 16:00:00 24.3 C 8.85 g/m*3 24.3 C 8.1 km/h
1885 07-07-2014 16:05:00 24.2 C 9.02 g/m*3 24.2 C 11.3 km/h
1886 07-07-2014 16:10:00 24 C 9.14 g/m*3 24 C 11.3 km/h
1887 07-07-2014 16:15:00 23.8 C 8.39 g/m*3 23.8 C 9.7 km/h
1888 07-07-2014 16:20:00 23.8 C 8.39 g/m*3 23.8 C 4.8 km/h
1889 07-07-2014 16:25:00 24.1 C 8.53 g/m*3 24.1 C 9.7 km/h
1890 07-07-2014 16:30:00 24.4 C 8.46 g/m*3 24.4 C 8.1 km/h
1891 07-07-2014 16:35:00 24.3 C 7.97 g/m*3 24.3 C 6.4 km/h
1892 07-07-2014 16:40:00 24.4 C 8.9 g/m*3 24.4 C 6.4 km/h
1893 07-07-2014 16:45:00 24.5 C 9.18 g/m*3 24.5 C 9.7 km/h
1894 07-07-2014 16:50:00 24.6 C 8.78 g/m*3 24.6 C 9.7 km/h
1895 07-07-2014 16:55:00 24.5 C 8.5 g/m*3 24.5 C 14.5 km/h
1896 07-07-2014 17:00:00 24.3 C 8.63 g/m*3 24.3 C 8.1 km/h
1897 07-07-2014 17:05:00 24.4 C 8.9 g/m*3 24.4 C 8.1 km/h
1898 07-07-2014 17:10:00 24.6 C 9.68 g/m*3 24.6 C 9.7 km/h
1899 07-07-2014 17:15:00 25.1 C 8.8 g/m*3 25.1 C 9.7 km/h
1900 07-07-2014 17:20:00 25.1 C 9.03 g/m*3 25.1 C 14.5 km/h
Sensor: Nr:Datum:Temp:Abs-Feuchte:Windchill:Wind:
Aussen-T/F 1901 07-07-2014 17:25:00 25.4 C 8.95 g/m*3 25.4 C 11.3 km/h
1902 07-07-2014 17:30:00 25.6 C 8.81 g/m*3 25.6 C 11.3 km/h
1903 07-07-2014 17:35:00 25.9 C 9.68 g/m*3 25.9 C 11.3 km/h
1904 07-07-2014 17:40:00 25.9 C 9.2 g/m*3 25.9 C 9.7 km/h
1905 07-07-2014 17:45:00 26 C 9.49 g/m*3 26 C 12.9 km/h
1906 07-07-2014 17:50:00 26.2 C 9.35 g/m*3 26.2 C 11.3 km/h
1907 07-07-2014 17:55:00 26.1 C 9.55 g/m*3 26.1 C 4.8 km/h
1908 07-07-2014 18:00:00 25.9 C 9.93 g/m*3 25.9 C 6.4 km/h
1909 07-07-2014 18:05:00 26.1 C 9.06 g/m*3 26.1 C 9.7 km/h
1910 07-07-2014 18:10:00 26 C 9.74 g/m*3 26 C 8.1 km/h
1911 07-07-2014 18:15:00 25.9 C 9.44 g/m*3 25.9 C 11.3 km/h
1912 07-07-2014 18:20:00 26.3 C 9.41 g/m*3 26.3 C 6.4 km/h
1913 07-07-2014 18:25:00 26.4 C 9.21 g/m*3 26.4 C 9.7 km/h
1914 07-07-2014 18:30:00 26.1 C 9.3 g/m*3 26.1 C 9.7 km/h
1915 07-07-2014 18:35:00 26.1 C 9.3 g/m*3 26.1 C 11.3 km/h
1916 07-07-2014 18:40:00 26.2 C 9.11 g/m*3 26.2 C 4.8 km/h
1917 07-07-2014 18:45:00 26.1 C 9.06 g/m*3 26.1 C 12.9 km/h
1918 07-07-2014 18:50:00 25.8 C 9.15 g/m*3 25.8 C 6.4 km/h
1919 07-07-2014 18:55:00 25.7 C 9.34 g/m*3 25.7 C 4.8 km/h
1920 07-07-2014 19:00:00 25.6 C 9.52 g/m*3 25.6 C 6.4 km/h
1921 07-07-2014 19:05:00 25.7 C 9.58 g/m*3 25.7 C 12.9 km/h
1922 07-07-2014 19:10:00 25.7 C 9.34 g/m*3 25.7 C 9.7 km/h
1923 07-07-2014 19:15:00 25.7 C 9.58 g/m*3 25.7 C 8.1 km/h
1924 07-07-2014 19:20:00 25.7 C 9.1 g/m*3 25.7 C 12.9 km/h
1925 07-07-2014 19:25:00 25.2 C 9.08 g/m*3 25.2 C 9.7 km/h
Sensor: Nr:Datum:Temp:Abs-Feuchte:Windchill:Wind:
Aussen-T/F 1926 07-07-2014 19:30:00 24.9 C 8.93 g/m*3 24.9 C 8.1 km/h
1927 07-07-2014 19:35:00 24.7 C 9.51 g/m*3 24.7 C 9.7 km/h
1928 07-07-2014 19:40:00 24.4 C 9.57 g/m*3 24.4 C 6.4 km/h
1929 07-07-2014 19:45:00 24.2 C 9.9 g/m*3 24.2 C 3.2 km/h
1930 07-07-2014 19:50:00 24.1 C 9.41 g/m*3 24.1 C 3.2 km/h
1931 07-07-2014 19:55:00 23.9 C 9.74 g/m*3 23.9 C 6.4 km/h
1932 07-07-2014 20:00:00 23.9 C 9.95 g/m*3 23.9 C 11.3 km/h
1933 07-07-2014 20:05:00 23.9 C 10.17 g/m*3 23.9 C 6.4 km/h
1934 07-07-2014 20:10:00 23.8 C 10.33 g/m*3 23.8 C 6.4 km/h
1935 07-07-2014 20:15:00 23.7 C 10.05 g/m*3 23.7 C 11.3 km/h
1936 07-07-2014 20:20:00 23.7 C 10.05 g/m*3 23.7 C 8.1 km/h
1937 07-07-2014 20:25:00 23.5 C 9.73 g/m*3 23.5 C 8.1 km/h
1938 07-07-2014 20:30:00 23.3 C 9.83 g/m*3 23.3 C 4.8 km/h
1939 07-07-2014 20:35:00 22.9 C 9.81 g/m*3 22.9 C 6.4 km/h
1940 07-07-2014 20:40:00 22.8 C 9.75 g/m*3 22.8 C 4.8 km/h
1941 07-07-2014 20:45:00 22.6 C 9.84 g/m*3 22.6 C 4.8 km/h
1942 07-07-2014 20:50:00 22.4 C 9.73 g/m*3 22.4 C 1.6 km/h
1943 07-07-2014 20:55:00 22.3 C 10.07 g/m*3 22.3 C 1.6 km/h
1944 07-07-2014 21:00:00 22.2 C 10.21 g/m*3 22.2 C 0 km/h
1945 07-07-2014 21:05:00 21.9 C 11 g/m*3 21.9 C 0 km/h
1946 07-07-2014 21:10:00 21.7 C 10.87 g/m*3 21.7 C 0 km/h
1947 07-07-2014 21:15:00 21.3 C 10.62 g/m*3 21.3 C 1.6 km/h
1948 07-07-2014 21:20:00 21.1 C 11.06 g/m*3 21.1 C 0 km/h
1949 07-07-2014 21:25:00 20.9 C 11.11 g/m*3 20.9 C 0 km/h
1950 07-07-2014 21:30:00 20.7 C 10.98 g/m*3 20.7 C 0 km/h
Sensor: Nr:Datum:Temp:Abs-Feuchte:Windchill:Wind:
Aussen-T/F 1951 07-07-2014 21:35:00 20.6 C 10.92 g/m*3 20.6 C 1.6 km/h
1952 07-07-2014 21:40:00 20.4 C 10.79 g/m*3 20.4 C 0 km/h
1953 07-07-2014 21:45:00 20.4 C 11.14 g/m*3 20.4 C 0 km/h
1954 07-07-2014 21:50:00 20.3 C 11.08 g/m*3 20.3 C 0 km/h
1955 07-07-2014 21:55:00 20.1 C 10.78 g/m*3 20.1 C 1.6 km/h
1956 07-07-2014 22:00:00 19.9 C 10.82 g/m*3 19.9 C 1.6 km/h
1957 07-07-2014 22:05:00 19.8 C 10.76 g/m*3 19.8 C 0 km/h
1958 07-07-2014 22:10:00 19.7 C 10.87 g/m*3 19.7 C 1.6 km/h
1959 07-07-2014 22:15:00 19.5 C 10.74 g/m*3 19.5 C 0 km/h
1960 07-07-2014 22:20:00 19.4 C 11.01 g/m*3 19.4 C 0 km/h
1961 07-07-2014 22:25:00 19.3 C 11.11 g/m*3 19.3 C 0 km/h
1962 07-07-2014 22:30:00 19.2 C 11.05 g/m*3 19.2 C 0 km/h
1963 07-07-2014 22:35:00 19.1 C 10.98 g/m*3 19.1 C 0 km/h
1964 07-07-2014 22:40:00 19 C 10.92 g/m*3 19 C 0 km/h
1965 07-07-2014 22:45:00 19 C 11.41 g/m*3 19 C 0 km/h
1966 07-07-2014 22:50:00 19 C 11.24 g/m*3 19 C 0 km/h
1967 07-07-2014 22:55:00 19 C 11.41 g/m*3 19 C 0 km/h
1968 07-07-2014 23:00:00 19 C 11.41 g/m*3 19 C 0 km/h
1969 07-07-2014 23:05:00 19 C 11.08 g/m*3 19 C 3.2 km/h
1970 07-07-2014 23:10:00 19.2 C 10.72 g/m*3 19.2 C 8.1 km/h
1971 07-07-2014 23:15:00 19.4 C 10.84 g/m*3 19.4 C 0 km/h
1972 07-07-2014 23:20:00 19.6 C 11.14 g/m*3 19.6 C 3.2 km/h
1973 07-07-2014 23:25:00 19.5 C 11.24 g/m*3 19.5 C 0 km/h
1974 07-07-2014 23:30:00 19.4 C 11.01 g/m*3 19.4 C 4.8 km/h
1975 07-07-2014 23:35:00 19.4 C 11.18 g/m*3 19.4 C 0 km/h
Sensor: Nr:Datum:Temp:Abs-Feuchte:Windchill:Wind:
Aussen-T/F 1976 07-07-2014 23:40:00 19.3 C 11.11 g/m*3 19.3 C 0 km/h
1977 07-07-2014 23:45:00 19.2 C 11.05 g/m*3 19.2 C 1.6 km/h
1978 07-07-2014 23:50:00 19.2 C 11.21 g/m*3 19.2 C 0 km/h
1979 07-07-2014 23:55:00 19.2 C 11.05 g/m*3 19.2 C 0 km/h

Legende:
   Min
   Max


Maximal/Minimal-Werte vom 01.07.2014 - 07.07.2014

Sensor Min Max Avg
Temp
(Aussen-T/F)
8.6 °C
02-07-2014  05:30:00
31.6 °C
06-07-2014  17:25:00
19.46 °C
Abs-Feuchte
(Aussen-T/F)
6.61 g/m*3
03-07-2014  18:35:00
16.23 g/m*3
06-07-2014  10:05:00
10.91 g/m*3
Windchill
(Aussen-T/F)
8.6 C
02-07-2014  05:30:00
31.6 C
06-07-2014  17:25:00
19.45 C

Die Daten stammen von einer Davis Vantage Pro 2 Wetter-Station und werden unter Linux mit der Software wview2wettercgi und aufbereitet. Alle Angaben erfolgen ohne Gewähr für ihre Vollständigkeit oder Richtigkeit.
Kontakt: Rainer Krienke krienke@uni-koblenz.de . Meine Webseiten an der Uni Koblenz oder privat.
Version: $Revision: 0.78 $